Darstellungsparameter: Aktuell verwendete Einstellungen:
Skalierung der Graphiken ... ?
xyx+y,   Skalierungsfaktor:      Skalierung: Modus: x, Faktor: 1
Darstellungszeitraum ... ?
Vom - - bis: - -   Zeitraum: 13.05.2009 - 12.11.2009
Min/Max/Avg-Anzeige ... ?
Zeige MMA aktuell
Zeige MMA Monat
Zeige MMA alles
Zeige --A aktuell
Zeige --A Monat
Zeige --A alles
Keine MMA-Anzeige
MMA:
Minimum Maximum Average (ber die Originaldaten)
MMA-Basis: 14.04.2020 - 16.05.2020
Quicknavigation für Darstellung... ?
Tage:      1T, 2T, 3T, 5T -1T -2T -3T -5T +1T +2T +3T +5T
Wochen: 1W, 2W, 3W -1W -2W -3W +1W +2W +3W
Monate: 1M, 3M, 6M -1M -3M -6M +1M +3M +6M
Jahre:    1J, 3J, 5J, 10J -1J -3J -5J -10J +1J +3J +5J +10J
Nutze für die Darstellung ... ?
Originaldaten oder Mittelwerte auf ...
Stundenbasis Tagesbasis Wochenbasis
Monatsbasis Jahresbasis      Datenbasis: Original-Daten
Darstellen als:
Statistik (Auto) Statistik J:M      Darstellung:
Zur Graphik,    zurück zur Übersicht aller Sensoren.
 
Tabellarische Datenbersicht: ?
 
Sensor: Nr:Datum:Temp:Abs-Feuchte:Windchill:Wind:
Aussen-T/F 1 13-05-2009 00:11:30 11 C 9.21 g/m*3 11 C 0 km/h
2 13-05-2009 00:26:30 11 C 9.21 g/m*3 11 C 0 km/h
3 13-05-2009 00:41:30 10.9 C 9.15 g/m*3 10.9 C 0 km/h
4 13-05-2009 00:56:30 10.9 C 9.15 g/m*3 10.9 C 0 km/h
5 13-05-2009 01:11:30 10.8 C 8.99 g/m*3 10.8 C 0 km/h
6 13-05-2009 01:26:30 10.8 C 8.9 g/m*3 10.8 C 0 km/h
7 13-05-2009 01:41:30 10.7 C 8.84 g/m*3 10.7 C 0 km/h
8 13-05-2009 01:56:30 10.7 C 8.84 g/m*3 10.7 C 0 km/h
9 13-05-2009 02:11:30 10.6 C 8.59 g/m*3 10.6 C 0 km/h
10 13-05-2009 02:26:30 10.5 C 8.53 g/m*3 10.5 C 0 km/h
11 13-05-2009 02:41:30 10.5 C 8.53 g/m*3 10.5 C 0 km/h
12 13-05-2009 02:56:30 10.4 C 8.48 g/m*3 10.4 C 0 km/h
13 13-05-2009 03:11:30 10.2 C 8.37 g/m*3 10.2 C 0 km/h
14 13-05-2009 03:26:30 10.2 C 8.28 g/m*3 10.2 C 0 km/h
15 13-05-2009 03:41:30 10.1 C 8.23 g/m*3 10.1 C 0 km/h
16 13-05-2009 03:56:30 10.1 C 8.13 g/m*3 10.1 C 0 km/h
17 13-05-2009 04:11:30 10.2 C 8.18 g/m*3 10.2 C 0 km/h
18 13-05-2009 04:26:30 10.2 C 8.18 g/m*3 10.2 C 0 km/h
19 13-05-2009 04:41:30 10.1 C 8.13 g/m*3 10.1 C 0 km/h
20 13-05-2009 04:56:31 10.1 C 8.13 g/m*3 10.1 C 0 km/h
21 13-05-2009 05:11:31 10.1 C 8.13 g/m*3 10.1 C 0 km/h
22 13-05-2009 05:26:31 10.2 C 8.18 g/m*3 10.2 C 0 km/h
23 13-05-2009 05:41:31 10.1 C 8.13 g/m*3 10.1 C 0 km/h
24 13-05-2009 05:56:31 10.2 C 8.18 g/m*3 10.2 C 0 km/h
25 13-05-2009 06:11:31 10.2 C 8.18 g/m*3 10.2 C 0 km/h
Sensor: Nr:Datum:Temp:Abs-Feuchte:Windchill:Wind:
Aussen-T/F 26 13-05-2009 06:26:31 10.3 C 8.24 g/m*3 10.3 C 0 km/h
27 13-05-2009 06:41:31 10.5 C 8.34 g/m*3 10.5 C 0 km/h
28 13-05-2009 06:56:31 10.7 C 8.45 g/m*3 10.7 C 0 km/h
29 13-05-2009 07:11:31 11 C 8.51 g/m*3 11 C 0 km/h
30 13-05-2009 07:26:31 11.2 C 8.51 g/m*3 11.2 C 0 km/h
31 13-05-2009 07:41:31 11.8 C 8.53 g/m*3 11.8 C 0 km/h
32 13-05-2009 07:56:31 12.4 C 7.65 g/m*3 12.4 C 0 km/h
33 13-05-2009 08:11:31 12.9 C 7.66 g/m*3 12.9 C 0 km/h
34 13-05-2009 08:26:31 13 C 7.48 g/m*3 13 C 0 km/h
35 13-05-2009 08:41:31 13.4 C 7.79 g/m*3 13.4 C 0 km/h
36 13-05-2009 08:56:31 13.3 C 7.51 g/m*3 13.3 C 0 km/h
37 13-05-2009 09:11:31 13.4 C 7.56 g/m*3 13.4 C 0 km/h
38 13-05-2009 09:26:31 13.6 C 7.65 g/m*3 13.6 C 0 km/h
39 13-05-2009 09:41:32 13.8 C 7.51 g/m*3 13.8 C 0 km/h
40 13-05-2009 09:56:32 14.1 C 7.4 g/m*3 14.1 C 0 km/h
41 13-05-2009 10:11:32 15.3 C 7.44 g/m*3 15.3 C 0 km/h
42 13-05-2009 10:26:32 15.8 C 7.54 g/m*3 15.8 C 0 km/h
43 13-05-2009 10:41:32 15.9 C 7.31 g/m*3 15.9 C 0 km/h
44 13-05-2009 10:56:32 16.7 C 7.53 g/m*3 16.7 C 0 km/h
45 13-05-2009 11:11:32 17.4 C 7.56 g/m*3 17.4 C 0 km/h
46 13-05-2009 11:26:32 18.8 C 7.73 g/m*3 18.8 C 0 km/h
47 13-05-2009 11:41:32 19.3 C 7.46 g/m*3 19.3 C 0 km/h
48 13-05-2009 11:56:32 19.1 C 7.87 g/m*3 19.1 C 0 km/h
49 13-05-2009 12:11:32 19.5 C 7.72 g/m*3 19.5 C 0 km/h
50 13-05-2009 12:26:32 20.1 C 7.82 g/m*3 20.1 C 0 km/h
Sensor: Nr:Datum:Temp:Abs-Feuchte:Windchill:Wind:
Aussen-T/F 51 13-05-2009 12:41:32 20.5 C 7.83 g/m*3 20.5 C 0 km/h
52 13-05-2009 12:56:32 21.1 C 7.55 g/m*3 21.1 C 0 km/h
53 13-05-2009 13:11:32 21.3 C 7.83 g/m*3 21.3 C 0 km/h
54 13-05-2009 13:26:32 21.1 C 7.55 g/m*3 21.1 C 0 km/h
55 13-05-2009 13:41:32 21.4 C 7.87 g/m*3 21.4 C 0 km/h
56 13-05-2009 13:56:32 22 C 7.38 g/m*3 22 C 0 km/h
57 13-05-2009 14:11:32 22.2 C 7.85 g/m*3 22.2 C 0 km/h
58 13-05-2009 14:26:33 22.4 C 7.94 g/m*3 22.4 C 0 km/h
59 13-05-2009 14:41:33 22.9 C 7.97 g/m*3 22.9 C 0 km/h
60 13-05-2009 14:56:33 22.7 C 8.28 g/m*3 22.7 C 0 km/h
61 13-05-2009 15:11:33 23.3 C 7.74 g/m*3 23.3 C 0 km/h
62 13-05-2009 15:26:33 22.7 C 8.08 g/m*3 22.7 C 0 km/h
63 13-05-2009 15:41:33 22.7 C 8.28 g/m*3 22.7 C 0 km/h
64 13-05-2009 15:56:33 21.7 C 8.2 g/m*3 21.7 C 0 km/h
65 13-05-2009 16:11:33 22 C 7.96 g/m*3 22 C 0 km/h
66 13-05-2009 16:26:33 21.1 C 8.48 g/m*3 21.1 C 0 km/h
67 13-05-2009 16:41:33 20.7 C 9.36 g/m*3 20.7 C 0 km/h
68 13-05-2009 16:56:33 20.4 C 9.91 g/m*3 20.4 C 0 km/h
69 13-05-2009 17:11:33 20.2 C 8.74 g/m*3 20.2 C 0 km/h
70 13-05-2009 17:26:33 19.7 C 9.68 g/m*3 19.7 C 0 km/h
71 13-05-2009 17:41:33 19.3 C 9.62 g/m*3 19.3 C 0 km/h
72 13-05-2009 17:56:33 19.1 C 9.18 g/m*3 19.1 C 0 km/h
73 13-05-2009 18:11:33 19.1 C 9.34 g/m*3 19.1 C 0 km/h
74 13-05-2009 18:26:33 18.7 C 9.29 g/m*3 18.7 C 0 km/h
75 13-05-2009 18:41:33 18.3 C 9.22 g/m*3 18.3 C 0 km/h
Sensor: Nr:Datum:Temp:Abs-Feuchte:Windchill:Wind:
Aussen-T/F 76 13-05-2009 18:56:33 18.3 C 9.54 g/m*3 18.3 C 0 km/h
77 13-05-2009 19:11:34 18.3 C 9.54 g/m*3 18.3 C 0 km/h
78 13-05-2009 19:26:34 18.4 C 9.91 g/m*3 18.4 C 0 km/h
79 13-05-2009 19:41:34 18.5 C 9.97 g/m*3 18.5 C 0 km/h
80 13-05-2009 19:56:34 18.4 C 10.22 g/m*3 18.4 C 0 km/h
81 13-05-2009 20:11:34 17.9 C 10.38 g/m*3 17.9 C 0 km/h
82 13-05-2009 20:26:34 17.5 C 10.29 g/m*3 17.5 C 0 km/h
83 13-05-2009 20:41:34 17.1 C 10.34 g/m*3 17.1 C 0 km/h
84 13-05-2009 20:56:34 16.8 C 10.29 g/m*3 16.8 C 0 km/h
85 13-05-2009 21:11:34 16.2 C 10.07 g/m*3 16.2 C 0 km/h
86 13-05-2009 21:26:34 15.9 C 10.16 g/m*3 15.9 C 0 km/h
87 13-05-2009 21:41:34 15.6 C 10.11 g/m*3 15.6 C 0 km/h
88 13-05-2009 21:56:34 15.1 C 9.93 g/m*3 15.1 C 0 km/h
89 13-05-2009 22:11:34 14.8 C 10.01 g/m*3 14.8 C 0 km/h
90 13-05-2009 22:26:34 14.6 C 10.01 g/m*3 14.6 C 0 km/h
91 13-05-2009 22:41:34 14.5 C 9.95 g/m*3 14.5 C 0 km/h
92 13-05-2009 22:56:34 14.4 C 10.01 g/m*3 14.4 C 0 km/h
93 13-05-2009 23:11:34 14.4 C 10.01 g/m*3 14.4 C 0 km/h
94 13-05-2009 23:26:34 14.2 C 9.89 g/m*3 14.2 C 0 km/h
95 13-05-2009 23:41:34 14 C 9.89 g/m*3 14 C 0 km/h
96 13-05-2009 23:56:34 14.1 C 9.95 g/m*3 14.1 C 0 km/h
97 14-05-2009 00:11:35 14 C 10.01 g/m*3 14 C 0 km/h
98 14-05-2009 00:26:35 14 C 10.01 g/m*3 14 C 0 km/h
99 14-05-2009 00:41:35 13.8 C 9.89 g/m*3 13.8 C 0 km/h
100 14-05-2009 00:56:35 13.8 C 9.89 g/m*3 13.8 C 0 km/h
Sensor: Nr:Datum:Temp:Abs-Feuchte:Windchill:Wind:
Aussen-T/F 101 14-05-2009 01:11:35 13.7 C 9.83 g/m*3 13.7 C 0 km/h
102 14-05-2009 01:26:35 13.5 C 9.71 g/m*3 13.5 C 0 km/h
103 14-05-2009 01:41:35 13.4 C 9.65 g/m*3 13.4 C 0 km/h
104 14-05-2009 01:56:35 13.2 C 9.53 g/m*3 13.2 C 0 km/h
105 14-05-2009 02:11:35 13.1 C 9.59 g/m*3 13.1 C 0 km/h
106 14-05-2009 02:26:35 13 C 9.53 g/m*3 13 C 0 km/h
107 14-05-2009 02:41:35 12.9 C 9.58 g/m*3 12.9 C 0 km/h
108 14-05-2009 02:56:35 13 C 9.53 g/m*3 13 C 0 km/h
109 14-05-2009 03:11:35 13.3 C 9.7 g/m*3 13.3 C 0 km/h
110 14-05-2009 03:26:35 13.4 C 9.65 g/m*3 13.4 C 0 km/h
111 14-05-2009 03:41:35 13.2 C 9.42 g/m*3 13.2 C 0 km/h
112 14-05-2009 03:56:35 13.1 C 9.36 g/m*3 13.1 C 0 km/h
113 14-05-2009 04:11:35 13.1 C 9.13 g/m*3 13.1 C 0 km/h
114 14-05-2009 04:26:35 13.2 C 8.84 g/m*3 13.2 C 0 km/h
115 14-05-2009 04:41:35 13.4 C 8.6 g/m*3 13.4 C 0 km/h
116 14-05-2009 04:56:36 13.4 C 8.49 g/m*3 13.4 C 0 km/h
117 14-05-2009 05:11:36 13.5 C 8.66 g/m*3 13.5 C 0 km/h
118 14-05-2009 05:26:36 13.5 C 8.54 g/m*3 13.5 C 0 km/h
119 14-05-2009 05:41:36 13.4 C 8.72 g/m*3 13.4 C 0 km/h
120 14-05-2009 05:56:36 13.3 C 8.66 g/m*3 13.3 C 0 km/h
121 14-05-2009 06:11:36 13.2 C 8.73 g/m*3 13.2 C 0 km/h
122 14-05-2009 06:26:36 13.3 C 8.66 g/m*3 13.3 C 0 km/h
123 14-05-2009 06:41:36 13.4 C 8.6 g/m*3 13.4 C 0 km/h
124 14-05-2009 06:56:36 13.6 C 8.36 g/m*3 13.6 C 0 km/h
125 14-05-2009 07:11:36 13.7 C 8.64 g/m*3 13.7 C 0 km/h
Sensor: Nr:Datum:Temp:Abs-Feuchte:Windchill:Wind:
Aussen-T/F 126 14-05-2009 07:26:36 13.8 C 8.82 g/m*3 13.8 C 0 km/h
127 14-05-2009 07:41:36 13.8 C 8.82 g/m*3 13.8 C 0 km/h
128 14-05-2009 07:56:36 13.7 C 8.76 g/m*3 13.7 C 0 km/h
129 14-05-2009 08:11:36 13.7 C 8.76 g/m*3 13.7 C 0 km/h
130 14-05-2009 08:26:36 13.9 C 8.75 g/m*3 13.9 C 0 km/h
131 14-05-2009 08:41:36 14.4 C 8.53 g/m*3 14.4 C 0 km/h
132 14-05-2009 08:56:36 14.5 C 8.71 g/m*3 14.5 C 0 km/h
133 14-05-2009 09:11:36 14.7 C 8.81 g/m*3 14.7 C 0 km/h
134 14-05-2009 09:26:36 15 C 8.59 g/m*3 15 C 0 km/h
135 14-05-2009 09:41:37 15.1 C 7.74 g/m*3 15.1 C 0 km/h
136 14-05-2009 09:56:37 15.5 C 8.06 g/m*3 15.5 C 0 km/h
137 14-05-2009 10:11:37 15.5 C 8.06 g/m*3 15.5 C 0 km/h
138 14-05-2009 10:26:37 15.5 C 8.46 g/m*3 15.5 C 0 km/h
139 14-05-2009 10:41:37 15.6 C 8.11 g/m*3 15.6 C 0 km/h
140 14-05-2009 10:56:37 15.6 C 7.98 g/m*3 15.6 C 0 km/h
141 14-05-2009 11:11:37 15.8 C 7.94 g/m*3 15.8 C 0 km/h
142 14-05-2009 11:26:37 16.3 C 8.19 g/m*3 16.3 C 0 km/h
143 14-05-2009 11:41:37 16.9 C 8.2 g/m*3 16.9 C 0 km/h
144 14-05-2009 11:56:37 17.2 C 8.2 g/m*3 17.2 C 0 km/h
145 14-05-2009 12:11:37 17 C 8.39 g/m*3 17 C 0 km/h
146 14-05-2009 12:26:37 17 C 8.54 g/m*3 17 C 0 km/h
147 14-05-2009 12:41:37 17.4 C 8.45 g/m*3 17.4 C 0 km/h
148 14-05-2009 12:56:37 17.5 C 8.8 g/m*3 17.5 C 0 km/h
149 14-05-2009 13:11:37 17.5 C 8.65 g/m*3 17.5 C 0 km/h
150 14-05-2009 13:26:37 17.9 C 8.7 g/m*3 17.9 C 0 km/h
Sensor: Nr:Datum:Temp:Abs-Feuchte:Windchill:Wind:
Aussen-T/F 151 14-05-2009 13:41:37 18.4 C 8.65 g/m*3 18.4 C 0 km/h
152 14-05-2009 13:56:37 18.9 C 8.59 g/m*3 18.9 C 0 km/h
153 14-05-2009 14:11:37 19.9 C 8.42 g/m*3 19.9 C 0 km/h
154 14-05-2009 14:26:38 21.1 C 8.29 g/m*3 21.1 C 0 km/h
155 14-05-2009 14:41:38 21.5 C 8.11 g/m*3 21.5 C 0 km/h
156 14-05-2009 14:56:38 22.3 C 7.9 g/m*3 22.3 C 0 km/h
157 14-05-2009 15:11:38 21.2 C 8.34 g/m*3 21.2 C 0 km/h
158 14-05-2009 15:26:38 21.1 C 8.29 g/m*3 21.1 C 0 km/h
159 14-05-2009 15:41:38 22 C 8.54 g/m*3 22 C 0 km/h
160 14-05-2009 15:56:38 24.9 C 8.01 g/m*3 24.9 C 0 km/h
161 14-05-2009 16:11:38 25.4 C 7.53 g/m*3 25.4 C 0 km/h
162 14-05-2009 16:26:38 23 C 7.81 g/m*3 23 C 0 km/h
163 14-05-2009 16:41:38 21.8 C 8.44 g/m*3 21.8 C 0 km/h
164 14-05-2009 16:56:38 20.5 C 8.54 g/m*3 20.5 C 0 km/h
165 14-05-2009 17:11:38 20.2 C 8.57 g/m*3 20.2 C 0 km/h
166 14-05-2009 17:26:38 19.6 C 8.95 g/m*3 19.6 C 0 km/h
167 14-05-2009 17:41:38 19.6 C 8.95 g/m*3 19.6 C 0 km/h
168 14-05-2009 17:56:38 19.3 C 9.29 g/m*3 19.3 C 0 km/h
169 14-05-2009 18:11:38 19.1 C 9.51 g/m*3 19.1 C 0 km/h
170 14-05-2009 18:26:38 19 C 9.13 g/m*3 19 C 0 km/h
171 14-05-2009 18:41:38 18.9 C 9.56 g/m*3 18.9 C 0 km/h
172 14-05-2009 18:56:38 18.7 C 9.77 g/m*3 18.7 C 0 km/h
173 14-05-2009 19:11:39 18.3 C 9.38 g/m*3 18.3 C 0 km/h
174 14-05-2009 19:26:39 18 C 9.52 g/m*3 18 C 0 km/h
175 14-05-2009 19:41:39 17.4 C 9.93 g/m*3 17.4 C 0 km/h
Sensor: Nr:Datum:Temp:Abs-Feuchte:Windchill:Wind:
Aussen-T/F 176 14-05-2009 19:56:39 16.4 C 10.61 g/m*3 16.4 C 0 km/h
177 14-05-2009 20:11:39 16 C 11.04 g/m*3 16 C 0 km/h
178 14-05-2009 20:26:39 15.6 C 11.3 g/m*3 15.6 C 0 km/h
179 14-05-2009 20:41:39 15.6 C 11.44 g/m*3 15.6 C 0 km/h
180 14-05-2009 20:56:39 15.3 C 11.36 g/m*3 15.3 C 0 km/h
181 14-05-2009 21:11:39 15.3 C 11.49 g/m*3 15.3 C 0 km/h
182 14-05-2009 21:26:39 15.1 C 11.35 g/m*3 15.1 C 0 km/h
183 14-05-2009 21:41:39 15 C 11.41 g/m*3 15 C 0 km/h
184 14-05-2009 21:56:39 14.5 C 11.19 g/m*3 14.5 C 0 km/h
185 14-05-2009 22:11:39 14.1 C 10.92 g/m*3 14.1 C 0 km/h
186 14-05-2009 22:26:39 14 C 10.98 g/m*3 14 C 0 km/h
187 14-05-2009 22:41:39 13.6 C 10.83 g/m*3 13.6 C 0 km/h
188 14-05-2009 22:56:39 13.6 C 10.83 g/m*3 13.6 C 0 km/h
189 14-05-2009 23:11:39 13.3 C 10.74 g/m*3 13.3 C 0 km/h
190 14-05-2009 23:26:39 13.2 C 10.68 g/m*3 13.2 C 0 km/h
191 14-05-2009 23:41:39 13.2 C 10.68 g/m*3 13.2 C 0 km/h
192 14-05-2009 23:56:40 13 C 10.55 g/m*3 13 C 0 km/h
193 15-05-2009 00:11:40 12.9 C 10.59 g/m*3 12.9 C 0 km/h
194 15-05-2009 00:26:40 12.9 C 10.59 g/m*3 12.9 C 0 km/h
195 15-05-2009 00:41:40 12.7 C 10.46 g/m*3 12.7 C 0 km/h
196 15-05-2009 00:56:40 12.8 C 10.53 g/m*3 12.8 C 0 km/h
197 15-05-2009 01:11:40 12.9 C 10.59 g/m*3 12.9 C 0 km/h
198 15-05-2009 01:26:40 13 C 10.43 g/m*3 13 C 0 km/h
199 15-05-2009 01:41:40 13.1 C 10.5 g/m*3 13.1 C 0 km/h
200 15-05-2009 01:56:40 13 C 10.43 g/m*3 13 C 0 km/h
Sensor: Nr:Datum:Temp:Abs-Feuchte:Windchill:Wind:
Aussen-T/F 201 15-05-2009 02:11:40 13.1 C 10.38 g/m*3 13.1 C 0 km/h
202 15-05-2009 02:26:40 13.1 C 10.38 g/m*3 13.1 C 0 km/h
203 15-05-2009 02:41:40 13.1 C 10.38 g/m*3 13.1 C 0 km/h
204 15-05-2009 02:56:40 13.1 C 10.38 g/m*3 13.1 C 0 km/h
205 15-05-2009 03:11:40 13.1 C 10.38 g/m*3 13.1 C 0 km/h
206 15-05-2009 03:26:40 13.2 C 10.45 g/m*3 13.2 C 0 km/h
207 15-05-2009 03:41:40 13.3 C 10.51 g/m*3 13.3 C 0 km/h
208 15-05-2009 03:56:40 13.2 C 10.45 g/m*3 13.2 C 0 km/h
209 15-05-2009 04:11:40 13.4 C 10.69 g/m*3 13.4 C 0 km/h
210 15-05-2009 04:26:40 13.4 C 10.58 g/m*3 13.4 C 0 km/h
211 15-05-2009 04:41:41 13.4 C 10.58 g/m*3 13.4 C 0 km/h
212 15-05-2009 04:56:41 13.4 C 10.69 g/m*3 13.4 C 0 km/h
213 15-05-2009 05:11:41 13.5 C 10.76 g/m*3 13.5 C 0 km/h
214 15-05-2009 05:26:41 13.6 C 10.83 g/m*3 13.6 C 0 km/h
215 15-05-2009 05:41:41 13.7 C 10.89 g/m*3 13.7 C 0 km/h
216 15-05-2009 05:56:41 13.8 C 10.96 g/m*3 13.8 C 0 km/h
217 15-05-2009 06:11:41 13.7 C 10.78 g/m*3 13.7 C 0 km/h
218 15-05-2009 06:26:41 13.8 C 10.84 g/m*3 13.8 C 0 km/h
219 15-05-2009 06:41:41 14.1 C 11.04 g/m*3 14.1 C 0 km/h
220 15-05-2009 06:56:41 14.4 C 11.13 g/m*3 14.4 C 0 km/h
221 15-05-2009 07:11:41 14.6 C 11.26 g/m*3 14.6 C 0 km/h
222 15-05-2009 07:26:41 14.6 C 11.14 g/m*3 14.6 C 0 km/h
223 15-05-2009 07:41:41 14.7 C 11.21 g/m*3 14.7 C 0 km/h
224 15-05-2009 07:56:41 15 C 11.41 g/m*3 15 C 0 km/h
225 15-05-2009 08:11:41 15.8 C 12.11 g/m*3 15.8 C 0 km/h
Sensor: Nr:Datum:Temp:Abs-Feuchte:Windchill:Wind:
Aussen-T/F 226 15-05-2009 08:26:41 16.3 C 11.93 g/m*3 16.3 C 0 km/h
227 15-05-2009 08:41:41 16.4 C 11.17 g/m*3 16.4 C 0 km/h
228 15-05-2009 08:56:41 16.5 C 10.67 g/m*3 16.5 C 0 km/h
229 15-05-2009 09:11:41 16.7 C 10.8 g/m*3 16.7 C 0 km/h
230 15-05-2009 09:26:41 16.7 C 10.23 g/m*3 16.7 C 0 km/h
231 15-05-2009 09:41:42 16.8 C 10.29 g/m*3 16.8 C 0 km/h
232 15-05-2009 09:56:02 17.2 C 9.96 g/m*3 17.2 C 0 km/h
233 15-05-2009 10:11:01 17.1 C 9.9 g/m*3 17.1 C 0 km/h
234 15-05-2009 10:26:02 17.9 C 9.77 g/m*3 17.9 C 0 km/h
235 15-05-2009 10:41:02 18.4 C 9.59 g/m*3 18.4 C 0 km/h
236 15-05-2009 10:56:01 18.6 C 9.71 g/m*3 18.6 C 0 km/h
237 15-05-2009 11:11:02 19.3 C 9.29 g/m*3 19.3 C 0 km/h
238 15-05-2009 11:26:02 20.1 C 9.04 g/m*3 20.1 C 0 km/h
239 15-05-2009 11:41:01 20.6 C 9.31 g/m*3 20.6 C 0 km/h
240 15-05-2009 11:56:01 20.6 C 8.95 g/m*3 20.6 C 0 km/h
241 15-05-2009 12:11:01 19.9 C 8.59 g/m*3 19.9 C 0 km/h
242 15-05-2009 12:26:00 20 C 8.64 g/m*3 20 C 0 km/h
243 15-05-2009 12:41:00 20.4 C 8.49 g/m*3 20.4 C 0 km/h
244 15-05-2009 12:56:00 19.2 C 8.9 g/m*3 19.2 C 0 km/h
245 15-05-2009 13:11:00 17.5 C 9.84 g/m*3 17.5 C 0 km/h
246 15-05-2009 13:26:00 17 C 10.42 g/m*3 17 C 0 km/h
247 15-05-2009 13:41:00 17.5 C 10.59 g/m*3 17.5 C 0 km/h
248 15-05-2009 13:56:59 18.2 C 10.26 g/m*3 18.2 C 0 km/h
249 15-05-2009 14:10:59 17.8 C 9.71 g/m*3 17.8 C 0 km/h
250 15-05-2009 14:26:00 17.9 C 10.08 g/m*3 17.9 C 0 km/h
Sensor: Nr:Datum:Temp:Abs-Feuchte:Windchill:Wind:
Aussen-T/F 251 15-05-2009 14:41:59 17.3 C 9.87 g/m*3 17.3 C 0 km/h
252 15-05-2009 14:56:59 16.9 C 9.49 g/m*3 16.9 C 0 km/h
253 15-05-2009 15:11:59 16.5 C 9.97 g/m*3 16.5 C 0 km/h
254 15-05-2009 15:26:59 15.9 C 10.43 g/m*3 15.9 C 0 km/h
255 15-05-2009 15:41:58 16.7 C 11.23 g/m*3 16.7 C 0 km/h
256 15-05-2009 15:56:59 17.6 C 11.4 g/m*3 17.6 C 0 km/h
257 15-05-2009 16:11:59 18.3 C 10.94 g/m*3 18.3 C 0 km/h
258 15-05-2009 16:26:58 18.4 C 10.7 g/m*3 18.4 C 0 km/h
259 15-05-2009 16:41:58 18.2 C 10.72 g/m*3 18.2 C 0 km/h
260 15-05-2009 16:56:58 18.3 C 10.79 g/m*3 18.3 C 0 km/h
261 15-05-2009 17:11:58 18 C 10.75 g/m*3 18 C 0 km/h
262 15-05-2009 17:26:57 16.3 C 9.43 g/m*3 16.3 C 0 km/h
263 15-05-2009 17:41:57 16.4 C 10.05 g/m*3 16.4 C 0 km/h
264 15-05-2009 17:49:57 16.2 C 10.2 g/m*3 16.2 C 0 km/h
265 15-05-2009 18:01:57 15.9 C 10.16 g/m*3 15.9 C 0 km/h
266 15-05-2009 18:13:57 15.7 C 10.17 g/m*3 15.7 C 0 km/h
267 15-05-2009 18:25:57 15.5 C 9.91 g/m*3 15.5 C 0 km/h
268 15-05-2009 18:37:56 15.3 C 9.92 g/m*3 15.3 C 0 km/h
269 15-05-2009 18:49:57 14.5 C 9.33 g/m*3 14.5 C 0 km/h
270 15-05-2009 19:01:56 14.1 C 9.22 g/m*3 14.1 C 0 km/h
271 15-05-2009 19:13:56 13.8 C 9.41 g/m*3 13.8 C 0 km/h
272 15-05-2009 19:25:56 13.7 C 9.59 g/m*3 13.7 C 0 km/h
273 15-05-2009 19:37:57 13.5 C 9.71 g/m*3 13.5 C 0 km/h
274 15-05-2009 19:49:56 13.5 C 9.83 g/m*3 13.5 C 0 km/h
275 15-05-2009 20:01:56 13.5 C 9.83 g/m*3 13.5 C 0 km/h
Sensor: Nr:Datum:Temp:Abs-Feuchte:Windchill:Wind:
Aussen-T/F 276 15-05-2009 20:13:56 13.3 C 9.82 g/m*3 13.3 C 0 km/h
277 15-05-2009 20:25:56 13.2 C 9.76 g/m*3 13.2 C 0 km/h
278 15-05-2009 20:37:56 13.2 C 9.76 g/m*3 13.2 C 0 km/h
279 15-05-2009 20:49:55 13.1 C 9.81 g/m*3 13.1 C 0 km/h
280 15-05-2009 21:01:56 12.8 C 9.74 g/m*3 12.8 C 0 km/h
281 15-05-2009 21:13:56 12.7 C 9.8 g/m*3 12.7 C 0 km/h
282 15-05-2009 21:25:55 12.5 C 9.68 g/m*3 12.5 C 0 km/h
283 15-05-2009 21:37:55 12.5 C 9.78 g/m*3 12.5 C 0 km/h
284 15-05-2009 21:49:55 12.5 C 9.78 g/m*3 12.5 C 0 km/h
285 15-05-2009 22:01:55 12.5 C 9.89 g/m*3 12.5 C 0 km/h
286 15-05-2009 22:13:55 12.5 C 9.89 g/m*3 12.5 C 0 km/h
287 15-05-2009 22:25:55 12.5 C 10 g/m*3 12.5 C 0 km/h
288 15-05-2009 22:37:54 12.5 C 10 g/m*3 12.5 C 0 km/h
289 15-05-2009 22:49:55 12.6 C 10.07 g/m*3 12.6 C 0 km/h
290 15-05-2009 23:01:54 12.6 C 10.07 g/m*3 12.6 C 0 km/h
291 15-05-2009 23:13:54 12.5 C 10 g/m*3 12.5 C 0 km/h
292 15-05-2009 23:25:54 12.4 C 9.94 g/m*3 12.4 C 0 km/h
293 15-05-2009 23:37:54 12.2 C 9.71 g/m*3 12.2 C 0 km/h
294 15-05-2009 23:49:54 12.4 C 9.4 g/m*3 12.4 C 0 km/h
295 16-05-2009 00:01:53 12.4 C 8.96 g/m*3 12.4 C 0 km/h
296 16-05-2009 00:13:53 12.3 C 8.8 g/m*3 12.3 C 0 km/h
297 16-05-2009 00:25:54 12.3 C 8.9 g/m*3 12.3 C 0 km/h
298 16-05-2009 00:37:53 12.3 C 8.9 g/m*3 12.3 C 0 km/h
299 16-05-2009 00:49:54 12.2 C 8.74 g/m*3 12.2 C 0 km/h
300 16-05-2009 01:01:53 12.1 C 8.58 g/m*3 12.1 C 0 km/h
Sensor: Nr:Datum:Temp:Abs-Feuchte:Windchill:Wind:
Aussen-T/F 301 16-05-2009 01:13:53 12 C 8.63 g/m*3 12 C 0 km/h
302 16-05-2009 01:25:53 11.4 C 8.52 g/m*3 11.4 C 0 km/h
303 16-05-2009 01:37:52 11.1 C 8.46 g/m*3 11.1 C 0 km/h
304 16-05-2009 01:49:53 10.8 C 8.3 g/m*3 10.8 C 0 km/h
305 16-05-2009 02:01:53 10.5 C 8.05 g/m*3 10.5 C 0 km/h
306 16-05-2009 02:13:53 10.3 C 8.04 g/m*3 10.3 C 0 km/h
307 16-05-2009 02:25:52 10 C 7.89 g/m*3 10 C 0 km/h
308 16-05-2009 02:37:53 9.7 C 8.02 g/m*3 9.7 C 0 km/h
309 16-05-2009 02:50:53 9.6 C 8.06 g/m*3 9.6 C 0 km/h
310 16-05-2009 03:02:53 9.6 C 8.15 g/m*3 9.6 C 0 km/h
311 16-05-2009 03:14:54 9.4 C 8.05 g/m*3 9.4 C 0 km/h
312 16-05-2009 03:26:54 9.3 C 8 g/m*3 9.3 C 0 km/h
313 16-05-2009 03:38:53 9.3 C 8.09 g/m*3 9.3 C 0 km/h
314 16-05-2009 03:50:53 9.2 C 8.04 g/m*3 9.2 C 0 km/h
315 16-05-2009 04:02:53 9.1 C 7.99 g/m*3 9.1 C 0 km/h
316 16-05-2009 04:14:53 9.1 C 7.99 g/m*3 9.1 C 0 km/h
317 16-05-2009 04:26:53 9.4 C 8.05 g/m*3 9.4 C 0 km/h
318 16-05-2009 04:38:53 9.4 C 7.96 g/m*3 9.4 C 0 km/h
319 16-05-2009 04:50:53 8.9 C 7.8 g/m*3 8.9 C 0 km/h
320 16-05-2009 05:02:52 8.7 C 7.7 g/m*3 8.7 C 0 km/h
321 16-05-2009 05:14:52 8.4 C 7.55 g/m*3 8.4 C 0 km/h
322 16-05-2009 05:26:52 8.3 C 7.5 g/m*3 8.3 C 0 km/h
323 16-05-2009 05:38:52 8.2 C 7.45 g/m*3 8.2 C 0 km/h
324 16-05-2009 05:50:52 8.1 C 7.41 g/m*3 8.1 C 0 km/h
325 16-05-2009 06:02:52 8 C 7.36 g/m*3 8 C 0 km/h
Sensor: Nr:Datum:Temp:Abs-Feuchte:Windchill:Wind:
Aussen-T/F 326 16-05-2009 06:14:51 8 C 7.36 g/m*3 8 C 0 km/h
327 16-05-2009 06:26:51 8 C 7.36 g/m*3 8 C 0 km/h
328 16-05-2009 06:38:52 8.2 C 7.45 g/m*3 8.2 C 0 km/h
329 16-05-2009 06:50:51 8.4 C 7.47 g/m*3 8.4 C 0 km/h
330 16-05-2009 07:02:52 8.6 C 7.48 g/m*3 8.6 C 0 km/h
331 16-05-2009 07:14:51 8.9 C 7.45 g/m*3 8.9 C 0 km/h
332 16-05-2009 07:26:51 8.9 C 7.53 g/m*3 8.9 C 0 km/h
333 16-05-2009 07:38:51 9 C 7.58 g/m*3 9 C 0 km/h
334 16-05-2009 07:50:51 9.2 C 7.59 g/m*3 9.2 C 0 km/h
335 16-05-2009 08:02:51 9.5 C 7.65 g/m*3 9.5 C 0 km/h
336 16-05-2009 08:14:50 9.8 C 7.7 g/m*3 9.8 C 0 km/h
337 16-05-2009 08:26:50 10.7 C 7.37 g/m*3 10.7 C 0 km/h
338 16-05-2009 08:38:50 10.9 C 6.96 g/m*3 10.9 C 0 km/h
339 16-05-2009 08:50:50 10.9 C 7.06 g/m*3 10.9 C 0 km/h
340 16-05-2009 09:02:50 10.9 C 7.06 g/m*3 10.9 C 0 km/h
341 16-05-2009 09:14:50 11.2 C 7.2 g/m*3 11.2 C 0 km/h
342 16-05-2009 09:26:50 11.7 C 7.22 g/m*3 11.7 C 0 km/h
343 16-05-2009 09:38:50 12 C 7.14 g/m*3 12 C 0 km/h
344 16-05-2009 09:50:50 12.6 C 7.19 g/m*3 12.6 C 0 km/h
345 16-05-2009 10:02:49 12.4 C 6.99 g/m*3 12.4 C 0 km/h
346 16-05-2009 10:14:49 12.8 C 6.61 g/m*3 12.8 C 0 km/h
347 16-05-2009 10:26:49 12.8 C 6.61 g/m*3 12.8 C 0 km/h
348 16-05-2009 10:38:49 13.6 C 6.59 g/m*3 13.6 C 0 km/h
349 16-05-2009 10:50:49 13.8 C 6.2 g/m*3 13.8 C 0 km/h
350 16-05-2009 11:02:48 13.7 C 6.39 g/m*3 13.7 C 0 km/h
Sensor: Nr:Datum:Temp:Abs-Feuchte:Windchill:Wind:
Aussen-T/F 351 16-05-2009 11:14:49 13.6 C 6.24 g/m*3 13.6 C 0 km/h
352 16-05-2009 11:26:49 13.6 C 6.24 g/m*3 13.6 C 0 km/h
353 16-05-2009 11:38:49 14.1 C 6.07 g/m*3 14.1 C 0 km/h
354 16-05-2009 11:50:48 14.6 C 6.13 g/m*3 14.6 C 0 km/h
355 16-05-2009 12:02:49 15.8 C 6.19 g/m*3 15.8 C 0 km/h
356 16-05-2009 12:14:48 15.8 C 5.65 g/m*3 15.8 C 0 km/h
357 16-05-2009 12:26:48 16.2 C 5.52 g/m*3 16.2 C 0 km/h
358 16-05-2009 12:38:48 17 C 5.5 g/m*3 17 C 0 km/h
359 16-05-2009 12:50:48 16.7 C 5.12 g/m*3 16.7 C 0 km/h
360 16-05-2009 13:02:48 16.8 C 5.29 g/m*3 16.8 C 0 km/h
361 16-05-2009 13:14:47 16.4 C 5.16 g/m*3 16.4 C 0 km/h
362 16-05-2009 13:26:47 15.8 C 5.52 g/m*3 15.8 C 0 km/h
363 16-05-2009 13:38:47 16.6 C 5.65 g/m*3 16.6 C 0 km/h
364 16-05-2009 13:50:47 17.1 C 5.39 g/m*3 17.1 C 0 km/h
365 16-05-2009 14:02:47 17.7 C 5.43 g/m*3 17.7 C 0 km/h
366 16-05-2009 14:14:47 17.1 C 5.39 g/m*3 17.1 C 0 km/h
367 16-05-2009 14:26:47 17 C 5.5 g/m*3 17 C 0 km/h
368 16-05-2009 14:38:47 17.4 C 5.48 g/m*3 17.4 C 0 km/h
369 16-05-2009 14:50:47 17.4 C 5.48 g/m*3 17.4 C 0 km/h
370 16-05-2009 15:02:46 17.8 C 5.77 g/m*3 17.8 C 0 km/h
371 16-05-2009 15:14:46 18.2 C 5.75 g/m*3 18.2 C 0 km/h
372 16-05-2009 15:26:46 17.6 C 5.55 g/m*3 17.6 C 0 km/h
373 16-05-2009 15:38:47 17.8 C 5.77 g/m*3 17.8 C 0 km/h
374 16-05-2009 15:50:46 17.6 C 6 g/m*3 17.6 C 0 km/h
375 16-05-2009 16:02:46 17.4 C 5.93 g/m*3 17.4 C 0 km/h
Sensor: Nr:Datum:Temp:Abs-Feuchte:Windchill:Wind:
Aussen-T/F 376 16-05-2009 16:14:46 17.7 C 6.04 g/m*3 17.7 C 0 km/h
377 16-05-2009 16:26:46 17.7 C 6.04 g/m*3 17.7 C 0 km/h
378 16-05-2009 16:38:46 19.1 C 5.9 g/m*3 19.1 C 0 km/h
379 16-05-2009 16:50:45 19 C 5.7 g/m*3 19 C 0 km/h
380 16-05-2009 17:02:46 19.1 C 6.07 g/m*3 19.1 C 0 km/h
381 16-05-2009 17:14:45 18.7 C 5.92 g/m*3 18.7 C 0 km/h
382 16-05-2009 17:26:45 18.2 C 5.91 g/m*3 18.2 C 0 km/h
383 16-05-2009 17:38:45 18.5 C 6.01 g/m*3 18.5 C 0 km/h
384 16-05-2009 17:50:45 18.2 C 6.06 g/m*3 18.2 C 0 km/h
385 16-05-2009 18:02:45 20.4 C 5.84 g/m*3 20.4 C 0 km/h
386 16-05-2009 18:14:45 20.7 C 5.76 g/m*3 20.7 C 0 km/h
387 16-05-2009 18:26:45 20.9 C 5.83 g/m*3 20.9 C 0 km/h
388 16-05-2009 18:38:48 21 C 5.68 g/m*3 21 C 0 km/h
389 16-05-2009 18:50:44 20.7 C 6.12 g/m*3 20.7 C 0 km/h
390 16-05-2009 19:02:44 21.6 C 6.07 g/m*3 21.6 C 0 km/h
391 16-05-2009 19:14:44 20.8 C 6.16 g/m*3 20.8 C 0 km/h
392 16-05-2009 19:26:44 20.7 C 5.94 g/m*3 20.7 C 0 km/h
393 16-05-2009 19:38:44 20.2 C 6.29 g/m*3 20.2 C 0 km/h
394 16-05-2009 19:50:43 19.3 C 7.13 g/m*3 19.3 C 0 km/h
395 16-05-2009 20:02:44 18.7 C 7.2 g/m*3 18.7 C 0 km/h
396 16-05-2009 20:14:44 17.7 C 7.69 g/m*3 17.7 C 0 km/h
397 16-05-2009 20:26:44 17.3 C 7.96 g/m*3 17.3 C 0 km/h
398 16-05-2009 20:38:43 16.7 C 7.82 g/m*3 16.7 C 0 km/h
399 16-05-2009 20:50:44 16.1 C 7.54 g/m*3 16.1 C 0 km/h
400 16-05-2009 21:02:43 15.6 C 7.71 g/m*3 15.6 C 0 km/h
Sensor: Nr:Datum:Temp:Abs-Feuchte:Windchill:Wind:
Aussen-T/F 401 16-05-2009 21:14:43 15.2 C 7.4 g/m*3 15.2 C 0 km/h
402 16-05-2009 21:26:43 14.4 C 7.54 g/m*3 14.4 C 0 km/h
403 16-05-2009 21:38:42 14.1 C 7.52 g/m*3 14.1 C 0 km/h
404 16-05-2009 21:50:43 13.5 C 7.49 g/m*3 13.5 C 0 km/h
405 16-05-2009 22:02:43 13.3 C 7.51 g/m*3 13.3 C 0 km/h
406 16-05-2009 22:14:42 13.3 C 7.51 g/m*3 13.3 C 0 km/h
407 16-05-2009 22:26:42 13.2 C 7.81 g/m*3 13.2 C 0 km/h
408 16-05-2009 22:38:43 13.1 C 7.76 g/m*3 13.1 C 0 km/h
409 16-05-2009 22:50:42 13.1 C 7.65 g/m*3 13.1 C 0 km/h
410 16-05-2009 23:02:42 13.1 C 7.65 g/m*3 13.1 C 0 km/h
411 16-05-2009 23:14:41 13.2 C 7.81 g/m*3 13.2 C 0 km/h
412 16-05-2009 23:26:41 13.5 C 7.49 g/m*3 13.5 C 0 km/h
413 16-05-2009 23:38:42 13.8 C 7.39 g/m*3 13.8 C 0 km/h
414 16-05-2009 23:50:41 14 C 7.12 g/m*3 14 C 0 km/h
415 17-05-2009 00:02:41 14 C 7 g/m*3 14 C 0 km/h
416 17-05-2009 00:14:41 13.9 C 7.19 g/m*3 13.9 C 0 km/h
417 17-05-2009 00:26:41 13.9 C 7.31 g/m*3 13.9 C 0 km/h
418 17-05-2009 00:38:41 13.9 C 7.31 g/m*3 13.9 C 0 km/h
419 17-05-2009 00:50:41 13.6 C 7.41 g/m*3 13.6 C 0 km/h
420 17-05-2009 01:02:41 13.4 C 7.32 g/m*3 13.4 C 0 km/h
421 17-05-2009 01:14:40 13.5 C 7.37 g/m*3 13.5 C 0 km/h
422 17-05-2009 01:26:40 13.7 C 7.22 g/m*3 13.7 C 0 km/h
423 17-05-2009 01:38:41 13.6 C 7.3 g/m*3 13.6 C 0 km/h
424 17-05-2009 01:50:40 13.4 C 7.21 g/m*3 13.4 C 0 km/h
425 17-05-2009 02:02:40 13.6 C 7.3 g/m*3 13.6 C 0 km/h
Sensor: Nr:Datum:Temp:Abs-Feuchte:Windchill:Wind:
Aussen-T/F 426 17-05-2009 02:14:40 13.5 C 7.37 g/m*3 13.5 C 0 km/h
427 17-05-2009 02:26:40 13.2 C 7.35 g/m*3 13.2 C 0 km/h
428 17-05-2009 02:38:40 13.1 C 7.42 g/m*3 13.1 C 0 km/h
429 17-05-2009 02:51:01 12.8 C 7.5 g/m*3 12.8 C 0 km/h
430 17-05-2009 03:03:01 12.6 C 7.41 g/m*3 12.6 C 0 km/h
431 17-05-2009 03:15:01 12.1 C 7.4 g/m*3 12.1 C 0 km/h
432 17-05-2009 03:27:02 11.8 C 7.37 g/m*3 11.8 C 0 km/h
433 17-05-2009 03:39:01 11.6 C 7.48 g/m*3 11.6 C 0 km/h
434 17-05-2009 03:51:01 11.5 C 7.54 g/m*3 11.5 C 0 km/h
435 17-05-2009 04:03:01 11.6 C 7.48 g/m*3 11.6 C 0 km/h
436 17-05-2009 04:15:02 11.5 C 7.54 g/m*3 11.5 C 0 km/h
437 17-05-2009 04:27:02 12.1 C 7.18 g/m*3 12.1 C 0 km/h
438 17-05-2009 04:39:01 12.2 C 7.12 g/m*3 12.2 C 0 km/h
439 17-05-2009 04:51:01 11.9 C 7.31 g/m*3 11.9 C 0 km/h
440 17-05-2009 05:03:01 11.7 C 7.43 g/m*3 11.7 C 0 km/h
441 17-05-2009 05:15:01 11.3 C 7.34 g/m*3 11.3 C 0 km/h
442 17-05-2009 05:27:01 11 C 7.41 g/m*3 11 C 0 km/h
443 17-05-2009 05:39:01 10.8 C 7.41 g/m*3 10.8 C 0 km/h
444 17-05-2009 05:51:02 10.7 C 7.46 g/m*3 10.7 C 0 km/h
445 17-05-2009 06:03:01 10.7 C 7.46 g/m*3 10.7 C 0 km/h
446 17-05-2009 06:15:02 10.6 C 7.52 g/m*3 10.6 C 0 km/h
447 17-05-2009 06:27:02 10.5 C 7.57 g/m*3 10.5 C 0 km/h
448 17-05-2009 06:39:01 10.8 C 7.71 g/m*3 10.8 C 0 km/h
449 17-05-2009 06:51:02 11.1 C 7.76 g/m*3 11.1 C 0 km/h
450 17-05-2009 07:03:01 11.4 C 7.8 g/m*3 11.4 C 0 km/h
Sensor: Nr:Datum:Temp:Abs-Feuchte:Windchill:Wind:
Aussen-T/F 451 17-05-2009 07:15:01 11.9 C 8.05 g/m*3 11.9 C 0 km/h
452 17-05-2009 07:27:01 12.1 C 7.94 g/m*3 12.1 C 0 km/h
453 17-05-2009 07:39:02 12.1 C 7.72 g/m*3 12.1 C 0 km/h
454 17-05-2009 07:51:02 12.1 C 7.61 g/m*3 12.1 C 0 km/h
455 17-05-2009 08:03:01 11.7 C 7.95 g/m*3 11.7 C 0 km/h
456 17-05-2009 08:15:02 11.4 C 8.11 g/m*3 11.4 C 0 km/h
457 17-05-2009 08:27:02 11.9 C 8.68 g/m*3 11.9 C 0 km/h
458 17-05-2009 08:39:01 12.1 C 8.69 g/m*3 12.1 C 0 km/h
459 17-05-2009 08:51:02 12.4 C 8.96 g/m*3 12.4 C 0 km/h
460 17-05-2009 09:03:01 12.8 C 9.07 g/m*3 12.8 C 0 km/h
461 17-05-2009 09:15:01 13.3 C 9.13 g/m*3 13.3 C 0 km/h
462 17-05-2009 09:27:01 13.8 C 9.17 g/m*3 13.8 C 0 km/h
463 17-05-2009 09:39:01 14.4 C 8.53 g/m*3 14.4 C 0 km/h
464 17-05-2009 09:51:01 15.2 C 8.7 g/m*3 15.2 C 0 km/h
465 17-05-2009 10:03:02 15.7 C 8.43 g/m*3 15.7 C 0 km/h
466 17-05-2009 10:15:01 15.3 C 8.1 g/m*3 15.3 C 0 km/h
467 17-05-2009 10:27:01 15.4 C 7.88 g/m*3 15.4 C 0 km/h
468 17-05-2009 10:39:02 16.3 C 7.91 g/m*3 16.3 C 0 km/h
469 17-05-2009 10:51:01 17.5 C 8.05 g/m*3 17.5 C 0 km/h
470 17-05-2009 11:03:02 17.9 C 8.24 g/m*3 17.9 C 0 km/h
471 17-05-2009 11:15:01 18.5 C 8.23 g/m*3 18.5 C 0 km/h
472 17-05-2009 11:27:01 18.6 C 7.8 g/m*3 18.6 C 0 km/h
473 17-05-2009 11:39:01 20 C 8.64 g/m*3 20 C 0 km/h
474 17-05-2009 11:51:01 21.2 C 8.52 g/m*3 21.2 C 0 km/h
475 17-05-2009 12:03:01 22.3 C 8.29 g/m*3 22.3 C 0 km/h
Sensor: Nr:Datum:Temp:Abs-Feuchte:Windchill:Wind:
Aussen-T/F 476 17-05-2009 12:15:02 21.9 C 7.72 g/m*3 21.9 C 0 km/h
477 17-05-2009 12:27:02 21.3 C 8.39 g/m*3 21.3 C 0 km/h
478 17-05-2009 12:39:01 20.4 C 8.49 g/m*3 20.4 C 0 km/h
479 17-05-2009 12:51:02 21.3 C 8.39 g/m*3 21.3 C 0 km/h
480 17-05-2009 13:03:01 22 C 8.35 g/m*3 22 C 0 km/h
481 17-05-2009 13:15:02 22.7 C 8.28 g/m*3 22.7 C 0 km/h
482 17-05-2009 13:27:02 22.2 C 7.85 g/m*3 22.2 C 0 km/h
483 17-05-2009 13:39:01 23.3 C 7.95 g/m*3 23.3 C 0 km/h
484 17-05-2009 13:51:01 22.8 C 7.72 g/m*3 22.8 C 0 km/h
485 17-05-2009 14:03:01 22.4 C 7.94 g/m*3 22.4 C 0 km/h
486 17-05-2009 14:15:01 22 C 7.76 g/m*3 22 C 0 km/h
487 17-05-2009 14:27:01 21.3 C 7.46 g/m*3 21.3 C 0 km/h
488 17-05-2009 14:39:02 21.2 C 7.6 g/m*3 21.2 C 0 km/h
489 17-05-2009 14:51:01 21.4 C 7.69 g/m*3 21.4 C 0 km/h
490 17-05-2009 15:03:02 21.9 C 7.72 g/m*3 21.9 C 0 km/h
491 17-05-2009 15:15:01 22.8 C 7.92 g/m*3 22.8 C 0 km/h
492 17-05-2009 15:27:01 23 C 7.6 g/m*3 23 C 0 km/h
493 17-05-2009 15:39:01 23.4 C 7.78 g/m*3 23.4 C 0 km/h
494 17-05-2009 15:51:01 23.3 C 7.32 g/m*3 23.3 C 0 km/h
495 17-05-2009 16:03:01 23.5 C 6.98 g/m*3 23.5 C 0 km/h
496 17-05-2009 16:15:01 23.4 C 6.73 g/m*3 23.4 C 0 km/h
497 17-05-2009 16:27:01 23.9 C 6.92 g/m*3 23.9 C 0 km/h
498 17-05-2009 16:39:01 23.5 C 6.56 g/m*3 23.5 C 0 km/h
499 17-05-2009 16:51:01 24.2 C 5.94 g/m*3 24.2 C 0 km/h
500 17-05-2009 17:03:01 24.1 C 6.13 g/m*3 24.1 C 0 km/h
Sensor: Nr:Datum:Temp:Abs-Feuchte:Windchill:Wind:
Aussen-T/F 501 17-05-2009 17:15:02 24.1 C 6.13 g/m*3 24.1 C 0 km/h
502 17-05-2009 17:27:02 24.5 C 6.27 g/m*3 24.5 C 0 km/h
503 17-05-2009 17:39:01 24 C 6.53 g/m*3 24 C 0 km/h
504 17-05-2009 17:51:02 23.3 C 6.48 g/m*3 23.3 C 0 km/h
505 17-05-2009 18:03:01 22.9 C 6.54 g/m*3 22.9 C 0 km/h
506 17-05-2009 18:15:01 22.1 C 6.64 g/m*3 22.1 C 0 km/h
507 17-05-2009 18:27:02 21 C 6.41 g/m*3 21 C 0 km/h
508 17-05-2009 18:39:01 20.9 C 6.74 g/m*3 20.9 C 0 km/h
509 17-05-2009 18:51:01 20.4 C 7.25 g/m*3 20.4 C 0 km/h
510 17-05-2009 19:03:01 20.5 C 7.12 g/m*3 20.5 C 0 km/h
511 17-05-2009 19:15:01 20.9 C 7.29 g/m*3 20.9 C 0 km/h
512 17-05-2009 19:27:01 20.7 C 7.56 g/m*3 20.7 C 0 km/h
513 17-05-2009 19:39:02 20.4 C 7.43 g/m*3 20.4 C 0 km/h
514 17-05-2009 19:51:01 20.1 C 7.3 g/m*3 20.1 C 0 km/h
515 17-05-2009 20:03:02 19.7 C 7.64 g/m*3 19.7 C 0 km/h
516 17-05-2009 20:15:01 19.5 C 7.72 g/m*3 19.5 C 0 km/h
517 17-05-2009 20:27:01 19.3 C 7.96 g/m*3 19.3 C 0 km/h
518 17-05-2009 20:39:01 18.9 C 8.59 g/m*3 18.9 C 0 km/h
519 17-05-2009 20:51:01 19 C 8.15 g/m*3 19 C 0 km/h
520 17-05-2009 21:03:01 18.9 C 8.1 g/m*3 18.9 C 0 km/h
521 17-05-2009 21:15:01 18.5 C 7.59 g/m*3 18.5 C 0 km/h
522 17-05-2009 21:27:01 18.3 C 7.66 g/m*3 18.3 C 0 km/h
523 17-05-2009 21:39:02 18 C 7.68 g/m*3 18 C 0 km/h
524 17-05-2009 21:51:01 17.7 C 7.69 g/m*3 17.7 C 0 km/h
525 17-05-2009 22:03:02 17.5 C 7.45 g/m*3 17.5 C 0 km/h
Sensor: Nr:Datum:Temp:Abs-Feuchte:Windchill:Wind:
Aussen-T/F 526 17-05-2009 22:15:01 17.3 C 7.37 g/m*3 17.3 C 0 km/h
527 17-05-2009 22:27:01 17.2 C 7.47 g/m*3 17.2 C 0 km/h
528 17-05-2009 22:39:01 16.9 C 7.19 g/m*3 16.9 C 0 km/h
529 17-05-2009 22:51:01 16.8 C 7.15 g/m*3 16.8 C 0 km/h
530 17-05-2009 23:03:01 16.6 C 7.35 g/m*3 16.6 C 0 km/h
531 17-05-2009 23:15:01 16.3 C 7.08 g/m*3 16.3 C 0 km/h
532 17-05-2009 23:27:01 16.2 C 6.9 g/m*3 16.2 C 0 km/h
533 17-05-2009 23:39:01 16.2 C 6.48 g/m*3 16.2 C 0 km/h
534 17-05-2009 23:51:02 16.2 C 6.48 g/m*3 16.2 C 0 km/h
535 18-05-2009 00:03:01 16.1 C 6.58 g/m*3 16.1 C 0 km/h
536 18-05-2009 00:15:01 15.8 C 6.87 g/m*3 15.8 C 0 km/h
537 18-05-2009 00:27:01 15.6 C 7.05 g/m*3 15.6 C 0 km/h
538 18-05-2009 00:39:01 15.4 C 7.09 g/m*3 15.4 C 0 km/h
539 18-05-2009 00:51:01 15.4 C 7.23 g/m*3 15.4 C 0 km/h
540 18-05-2009 01:03:01 15.1 C 7.22 g/m*3 15.1 C 0 km/h
541 18-05-2009 01:15:02 14.9 C 7.39 g/m*3 14.9 C 0 km/h
542 18-05-2009 01:27:02 14.7 C 7.43 g/m*3 14.7 C 0 km/h
543 18-05-2009 01:39:01 14.7 C 7.3 g/m*3 14.7 C 0 km/h
544 18-05-2009 01:51:02 14.5 C 7.21 g/m*3 14.5 C 0 km/h
545 18-05-2009 02:03:01 14.5 C 7.34 g/m*3 14.5 C 0 km/h
546 18-05-2009 02:15:02 14.3 C 7.25 g/m*3 14.3 C 0 km/h
547 18-05-2009 02:27:02 14.2 C 7.33 g/m*3 14.2 C 0 km/h
548 18-05-2009 02:39:01 14 C 7.36 g/m*3 14 C 0 km/h
549 18-05-2009 02:51:30 13.7 C 7.34 g/m*3 13.7 C 0 km/h
550 18-05-2009 03:03:30 13.6 C 7.3 g/m*3 13.6 C 0 km/h
Sensor: Nr:Datum:Temp:Abs-Feuchte:Windchill:Wind:
Aussen-T/F 551 18-05-2009 03:15:29 13.3 C 7.28 g/m*3 13.3 C 0 km/h
552 18-05-2009 03:27:29 13 C 7.26 g/m*3 13 C 0 km/h
553 18-05-2009 03:39:29 12.6 C 7.3 g/m*3 12.6 C 0 km/h
554 18-05-2009 03:51:29 12.8 C 7.5 g/m*3 12.8 C 0 km/h
555 18-05-2009 04:03:28 13 C 7.6 g/m*3 13 C 0 km/h
556 18-05-2009 04:15:29 13.1 C 7.65 g/m*3 13.1 C 0 km/h
557 18-05-2009 04:27:29 12.8 C 7.62 g/m*3 12.8 C 0 km/h
558 18-05-2009 04:39:28 12.4 C 7.43 g/m*3 12.4 C 0 km/h
559 18-05-2009 04:51:28 12 C 7.46 g/m*3 12 C 0 km/h
560 18-05-2009 05:03:28 11.6 C 7.38 g/m*3 11.6 C 0 km/h
561 18-05-2009 05:15:28 11.7 C 7.64 g/m*3 11.7 C 0 km/h
562 18-05-2009 05:27:28 11.2 C 7.4 g/m*3 11.2 C 0 km/h
563 18-05-2009 05:39:28 11 C 7.41 g/m*3 11 C 0 km/h
564 18-05-2009 05:51:28 10.9 C 7.56 g/m*3 10.9 C 0 km/h
565 18-05-2009 06:03:28 10.8 C 7.61 g/m*3 10.8 C 0 km/h
566 18-05-2009 06:15:27 10.7 C 7.66 g/m*3 10.7 C 0 km/h
567 18-05-2009 06:27:27 10.7 C 7.76 g/m*3 10.7 C 0 km/h
568 18-05-2009 06:39:27 10.7 C 7.86 g/m*3 10.7 C 0 km/h
569 18-05-2009 06:51:27 10.8 C 7.91 g/m*3 10.8 C 0 km/h
570 18-05-2009 07:03:27 11 C 7.91 g/m*3 11 C 0 km/h
571 18-05-2009 07:15:27 11.3 C 8.06 g/m*3 11.3 C 0 km/h
572 18-05-2009 07:27:27 11.4 C 8.11 g/m*3 11.4 C 0 km/h
573 18-05-2009 07:39:27 11.6 C 8.21 g/m*3 11.6 C 0 km/h
574 18-05-2009 07:51:27 11.9 C 8.26 g/m*3 11.9 C 0 km/h
575 18-05-2009 08:03:26 12.1 C 8.26 g/m*3 12.1 C 0 km/h
Sensor: Nr:Datum:Temp:Abs-Feuchte:Windchill:Wind:
Aussen-T/F 576 18-05-2009 08:15:26 12.4 C 8.3 g/m*3 12.4 C 0 km/h
577 18-05-2009 08:27:26 12.8 C 8.51 g/m*3 12.8 C 0 km/h
578 18-05-2009 08:39:26 13.2 C 8.38 g/m*3 13.2 C 0 km/h
579 18-05-2009 08:51:26 13.7 C 8.41 g/m*3 13.7 C 0 km/h
580 18-05-2009 09:03:25 14.8 C 8.11 g/m*3 14.8 C 0 km/h
581 18-05-2009 09:15:26 15.4 C 7.49 g/m*3 15.4 C 0 km/h
582 18-05-2009 09:27:26 15.2 C 7.53 g/m*3 15.2 C 0 km/h
583 18-05-2009 09:39:26 15.2 C 7.53 g/m*3 15.2 C 0 km/h
584 18-05-2009 09:51:25 15.9 C 7.58 g/m*3 15.9 C 0 km/h
585 18-05-2009 10:03:26 16.5 C 7.44 g/m*3 16.5 C 0 km/h
586 18-05-2009 10:15:25 16.7 C 7.25 g/m*3 16.7 C 0 km/h
587 18-05-2009 10:27:25 17.1 C 6.99 g/m*3 17.1 C 0 km/h
588 18-05-2009 10:39:25 16.5 C 7.02 g/m*3 16.5 C 0 km/h
589 18-05-2009 10:51:25 16.6 C 7.06 g/m*3 16.6 C 0 km/h
590 18-05-2009 11:03:25 17 C 6.95 g/m*3 17 C 0 km/h
591 18-05-2009 11:15:24 17.3 C 6.78 g/m*3 17.3 C 0 km/h
592 18-05-2009 11:27:24 18 C 6.45 g/m*3 18 C 0 km/h
593 18-05-2009 11:39:24 17.6 C 6.3 g/m*3 17.6 C 0 km/h
594 18-05-2009 11:51:24 18.4 C 6.29 g/m*3 18.4 C 0 km/h
595 18-05-2009 12:03:24 18.5 C 6.17 g/m*3 18.5 C 0 km/h
596 18-05-2009 12:15:24 18.7 C 6.24 g/m*3 18.7 C 0 km/h
597 18-05-2009 12:27:24 19.4 C 6.01 g/m*3 19.4 C 0 km/h
598 18-05-2009 12:39:24 19.3 C 5.47 g/m*3 19.3 C 0 km/h
599 18-05-2009 12:51:24 19.3 C 4.98 g/m*3 19.3 C 0 km/h
600 18-05-2009 13:03:23 19.2 C 5.11 g/m*3 19.2 C 0 km/h
Sensor: Nr:Datum:Temp:Abs-Feuchte:Windchill:Wind:
Aussen-T/F 601 18-05-2009 13:15:23 20.6 C 5.19 g/m*3 20.6 C 0 km/h
602 18-05-2009 13:27:23 20.8 C 3.98 g/m*3 20.8 C 0 km/h
603 18-05-2009 13:39:24 21.1 C 3.69 g/m*3 21.1 C 0 km/h
604 18-05-2009 13:51:23 21.1 C 3.69 g/m*3 21.1 C 0 km/h
605 18-05-2009 14:03:23 20.7 C 3.6 g/m*3 20.7 C 0 km/h
606 18-05-2009 14:15:23 20.6 C 3.58 g/m*3 20.6 C 0 km/h
607 18-05-2009 14:27:23 20.8 C 3.62 g/m*3 20.8 C 0 km/h
608 18-05-2009 14:39:23 20.9 C 3.64 g/m*3 20.9 C 0 km/h
609 18-05-2009 14:51:22 21.6 C 3.79 g/m*3 21.6 C 0 km/h
610 18-05-2009 15:03:23 22.5 C 3.99 g/m*3 22.5 C 0 km/h
611 18-05-2009 15:15:22 22.2 C 3.93 g/m*3 22.2 C 0 km/h
612 18-05-2009 15:27:22 21.2 C 3.89 g/m*3 21.2 C 0 km/h
613 18-05-2009 15:39:22 22.3 C 3.95 g/m*3 22.3 C 0 km/h
614 18-05-2009 15:51:21 22.6 C 4.02 g/m*3 22.6 C 0 km/h
615 18-05-2009 16:03:22 22 C 4.08 g/m*3 22 C 0 km/h
616 18-05-2009 16:15:22 21.8 C 4.22 g/m*3 21.8 C 0 km/h
617 18-05-2009 16:27:22 21.4 C 4.12 g/m*3 21.4 C 0 km/h
618 18-05-2009 16:39:21 22.6 C 4.02 g/m*3 22.6 C 0 km/h
619 18-05-2009 16:51:22 22 C 3.88 g/m*3 22 C 0 km/h
620 18-05-2009 17:03:21 21.8 C 4.22 g/m*3 21.8 C 0 km/h
621 18-05-2009 17:15:21 22.8 C 4.27 g/m*3 22.8 C 0 km/h
622 18-05-2009 17:27:21 22.8 C 4.06 g/m*3 22.8 C 0 km/h
623 18-05-2009 17:39:21 22.2 C 4.12 g/m*3 22.2 C 0 km/h
624 18-05-2009 17:51:21 23.1 C 4.13 g/m*3 23.1 C 0 km/h
625 18-05-2009 18:03:21 22.4 C 3.97 g/m*3 22.4 C 0 km/h
Sensor: Nr:Datum:Temp:Abs-Feuchte:Windchill:Wind:
Aussen-T/F 626 18-05-2009 18:15:20 22.8 C 4.27 g/m*3 22.8 C 0 km/h
627 18-05-2009 18:27:20 22.6 C 4.02 g/m*3 22.6 C 0 km/h
628 18-05-2009 18:39:21 23.6 C 4.25 g/m*3 23.6 C 0 km/h
629 18-05-2009 18:51:20 23.7 C 4.28 g/m*3 23.7 C 0 km/h
630 18-05-2009 19:03:20 23.4 C 4.21 g/m*3 23.4 C 0 km/h
631 18-05-2009 19:15:19 23.4 C 4.21 g/m*3 23.4 C 0 km/h
632 18-05-2009 19:27:19 23.3 C 4.18 g/m*3 23.3 C 0 km/h
633 18-05-2009 19:39:20 22.3 C 4.15 g/m*3 22.3 C 0 km/h
634 18-05-2009 19:51:19 22.1 C 4.68 g/m*3 22.1 C 0 km/h
635 18-05-2009 20:03:20 22.3 C 4.74 g/m*3 22.3 C 0 km/h
636 18-05-2009 20:15:19 21.8 C 4.99 g/m*3 21.8 C 0 km/h
637 18-05-2009 20:27:19 21.6 C 5.12 g/m*3 21.6 C 0 km/h
638 18-05-2009 20:39:19 20.4 C 4.78 g/m*3 20.4 C 0 km/h
639 18-05-2009 20:51:19 19.4 C 5.01 g/m*3 19.4 C 0 km/h
640 18-05-2009 21:03:19 18.5 C 5.06 g/m*3 18.5 C 0 km/h
641 18-05-2009 21:15:19 17.9 C 5.8 g/m*3 17.9 C 0 km/h
642 18-05-2009 21:27:19 17.3 C 5.3 g/m*3 17.3 C 0 km/h
643 18-05-2009 21:39:19 17 C 5.5 g/m*3 17 C 0 km/h
644 18-05-2009 21:51:18 16.7 C 5.4 g/m*3 16.7 C 0 km/h
645 18-05-2009 22:04:20 16.1 C 5.48 g/m*3 16.1 C 0 km/h
646 18-05-2009 22:16:20 15.9 C 5.82 g/m*3 15.9 C 0 km/h
647 18-05-2009 22:28:20 15.2 C 5.58 g/m*3 15.2 C 0 km/h
648 18-05-2009 22:40:20 14.8 C 5.83 g/m*3 14.8 C 0 km/h
649 18-05-2009 22:52:20 14.6 C 5.76 g/m*3 14.6 C 0 km/h
650 18-05-2009 23:04:20 14 C 5.91 g/m*3 14 C 0 km/h
Sensor: Nr:Datum:Temp:Abs-Feuchte:Windchill:Wind:
Aussen-T/F 651 18-05-2009 23:16:20 13.9 C 6.11 g/m*3 13.9 C 0 km/h
652 18-05-2009 23:28:20 13.6 C 6.12 g/m*3 13.6 C 0 km/h
653 18-05-2009 23:40:20 13.5 C 6.2 g/m*3 13.5 C 0 km/h
654 18-05-2009 23:52:20 12.9 C 6.76 g/m*3 12.9 C 0 km/h
655 19-05-2009 00:04:20 12.8 C 6.72 g/m*3 12.8 C 0 km/h
656 19-05-2009 00:16:20 12.6 C 6.75 g/m*3 12.6 C 0 km/h
657 19-05-2009 00:28:20 12.5 C 6.71 g/m*3 12.5 C 0 km/h
658 19-05-2009 00:40:20 12.4 C 6.66 g/m*3 12.4 C 0 km/h
659 19-05-2009 00:52:20 12.1 C 6.43 g/m*3 12.1 C 0 km/h
660 19-05-2009 01:04:20 12 C 6.5 g/m*3 12 C 0 km/h
661 19-05-2009 01:16:20 11.6 C 6.65 g/m*3 11.6 C 0 km/h
662 19-05-2009 01:28:20 11.4 C 6.57 g/m*3 11.4 C 0 km/h
663 19-05-2009 01:40:20 11.2 C 6.49 g/m*3 11.2 C 0 km/h
664 19-05-2009 01:52:21 11 C 6.51 g/m*3 11 C 0 km/h
665 19-05-2009 02:04:21 10.9 C 6.47 g/m*3 10.9 C 0 km/h
666 19-05-2009 02:16:21 10.7 C 6.48 g/m*3 10.7 C 0 km/h
667 19-05-2009 02:28:21 10.4 C 6.46 g/m*3 10.4 C 0 km/h
668 19-05-2009 02:40:21 10.2 C 6.47 g/m*3 10.2 C 0 km/h
669 19-05-2009 02:52:21 10 C 6.58 g/m*3 10 C 0 km/h
670 19-05-2009 03:04:21 9.9 C 6.63 g/m*3 9.9 C 0 km/h
671 19-05-2009 03:16:21 9.8 C 6.59 g/m*3 9.8 C 0 km/h
672 19-05-2009 03:28:21 9.7 C 6.64 g/m*3 9.7 C 0 km/h
673 19-05-2009 03:40:21 9.4 C 6.51 g/m*3 9.4 C 0 km/h
674 19-05-2009 03:52:21 9.3 C 6.56 g/m*3 9.3 C 0 km/h
675 19-05-2009 04:04:21 9.3 C 6.56 g/m*3 9.3 C 0 km/h
Sensor: Nr:Datum:Temp:Abs-Feuchte:Windchill:Wind:
Aussen-T/F 676 19-05-2009 04:16:21 9.1 C 6.65 g/m*3 9.1 C 0 km/h
677 19-05-2009 04:28:21 8.9 C 6.66 g/m*3 8.9 C 0 km/h
678 19-05-2009 04:40:21 8.8 C 6.7 g/m*3 8.8 C 0 km/h
679 19-05-2009 04:52:21 8.6 C 6.7 g/m*3 8.6 C 0 km/h
680 19-05-2009 05:04:21 8.5 C 6.57 g/m*3 8.5 C 0 km/h
681 19-05-2009 05:16:21 8.4 C 6.62 g/m*3 8.4 C 0 km/h
682 19-05-2009 05:28:21 8.2 C 6.62 g/m*3 8.2 C 0 km/h
683 19-05-2009 05:40:22 8.2 C 6.62 g/m*3 8.2 C 0 km/h
684 19-05-2009 05:52:22 8.1 C 6.57 g/m*3 8.1 C 0 km/h
685 19-05-2009 06:04:22 8.1 C 6.57 g/m*3 8.1 C 0 km/h
686 19-05-2009 06:16:20 8.1 C 6.57 g/m*3 8.1 C 0 km/h
687 19-05-2009 06:28:20 8.1 C 6.66 g/m*3 8.1 C 0 km/h
688 19-05-2009 06:40:19 8.2 C 6.7 g/m*3 8.2 C 0 km/h
689 19-05-2009 06:52:19 9 C 7.05 g/m*3 9 C 0 km/h
690 19-05-2009 07:04:20 9.5 C 7.01 g/m*3 9.5 C 0 km/h
691 19-05-2009 07:16:19 9.7 C 6.91 g/m*3 9.7 C 0 km/h
692 19-05-2009 07:28:19 9.6 C 6.87 g/m*3 9.6 C 0 km/h
693 19-05-2009 07:40:19 9.6 C 6.78 g/m*3 9.6 C 0 km/h
694 19-05-2009 07:52:19 9.7 C 6.82 g/m*3 9.7 C 0 km/h
695 19-05-2009 08:04:19 10.3 C 6.9 g/m*3 10.3 C 0 km/h
696 19-05-2009 08:16:18 10.5 C 6.69 g/m*3 10.5 C 0 km/h
697 19-05-2009 08:28:18 10.5 C 6.69 g/m*3 10.5 C 0 km/h
698 19-05-2009 08:40:18 10.8 C 6.72 g/m*3 10.8 C 0 km/h
699 19-05-2009 08:52:18 11.5 C 6.82 g/m*3 11.5 C 0 km/h
700 19-05-2009 09:04:18 12.5 C 6.93 g/m*3 12.5 C 0 km/h
Sensor: Nr:Datum:Temp:Abs-Feuchte:Windchill:Wind:
Aussen-T/F 701 19-05-2009 09:16:18 13.1 C 6.85 g/m*3 13.1 C 0 km/h
702 19-05-2009 09:28:18 14.1 C 7.04 g/m*3 14.1 C 0 km/h
703 19-05-2009 09:40:18 14.3 C 7.25 g/m*3 14.3 C 0 km/h
704 19-05-2009 09:52:18 15.8 C 7.27 g/m*3 15.8 C 0 km/h
705 19-05-2009 10:04:17 15.8 C 7.27 g/m*3 15.8 C 0 km/h
706 19-05-2009 10:16:17 16.2 C 7.45 g/m*3 16.2 C 0 km/h
707 19-05-2009 10:28:18 16.8 C 7.29 g/m*3 16.8 C 0 km/h
708 19-05-2009 10:40:17 17.7 C 7.54 g/m*3 17.7 C 0 km/h
709 19-05-2009 10:52:17 18.9 C 7.29 g/m*3 18.9 C 0 km/h
710 19-05-2009 11:04:16 19.7 C 7.3 g/m*3 19.7 C 0 km/h
711 19-05-2009 11:16:17 19.9 C 7.04 g/m*3 19.9 C 0 km/h
712 19-05-2009 11:28:17 20.4 C 6.72 g/m*3 20.4 C 0 km/h
713 19-05-2009 11:40:17 21 C 6.05 g/m*3 21 C 0 km/h
714 19-05-2009 11:52:16 21.2 C 6.12 g/m*3 21.2 C 0 km/h
715 19-05-2009 12:04:17 22.1 C 6.05 g/m*3 22.1 C 0 km/h
716 19-05-2009 12:16:16 22.8 C 5.69 g/m*3 22.8 C 0 km/h
717 19-05-2009 12:28:16 22.4 C 5.56 g/m*3 22.4 C 0 km/h
718 19-05-2009 12:40:16 21.9 C 5.4 g/m*3 21.9 C 0 km/h
719 19-05-2009 12:52:15 25.1 C 5.09 g/m*3 25.1 C 0 km/h
720 19-05-2009 13:04:16 23.5 C 5.92 g/m*3 23.5 C 0 km/h
721 19-05-2009 13:16:16 23.6 C 5.32 g/m*3 23.6 C 0 km/h
722 19-05-2009 13:28:16 23.9 C 4.76 g/m*3 23.9 C 0 km/h
723 19-05-2009 13:40:15 24.8 C 4.55 g/m*3 24.8 C 0 km/h
724 19-05-2009 13:52:16 24.2 C 5.06 g/m*3 24.2 C 0 km/h
725 19-05-2009 14:04:15 23.8 C 5.16 g/m*3 23.8 C 0 km/h
Sensor: Nr:Datum:Temp:Abs-Feuchte:Windchill:Wind:
Aussen-T/F 726 19-05-2009 14:16:15 23.5 C 6.56 g/m*3 23.5 C 0 km/h
727 19-05-2009 14:28:16 23.7 C 7.06 g/m*3 23.7 C 0 km/h
728 19-05-2009 14:40:14 22.7 C 7.27 g/m*3 22.7 C 0 km/h
729 19-05-2009 14:52:15 24.1 C 6.35 g/m*3 24.1 C 0 km/h
730 19-05-2009 15:04:14 25.4 C 5.18 g/m*3 25.4 C 0 km/h
731 19-05-2009 15:16:14 24.1 C 6.78 g/m*3 24.1 C 0 km/h
732 19-05-2009 15:28:14 23.2 C 7.48 g/m*3 23.2 C 0 km/h
733 19-05-2009 15:40:15 26 C 5.6 g/m*3 26 C 0 km/h
734 19-05-2009 15:52:14 27.4 C 5.79 g/m*3 27.4 C 0 km/h
735 19-05-2009 16:04:14 27.7 C 5.35 g/m*3 27.7 C 0 km/h
736 19-05-2009 16:16:13 28.2 C 5.5 g/m*3 28.2 C 0 km/h
737 19-05-2009 16:28:13 27.9 C 5.41 g/m*3 27.9 C 0 km/h
738 19-05-2009 16:40:14 27.3 C 6.54 g/m*3 27.3 C 0 km/h
739 19-05-2009 16:52:13 26.5 C 6.01 g/m*3 26.5 C 0 km/h
740 19-05-2009 17:04:13 25.9 C 6.29 g/m*3 25.9 C 0 km/h
741 19-05-2009 17:16:14 24.9 C 7.1 g/m*3 24.9 C 0 km/h
742 19-05-2009 17:28:14 21.6 C 10.05 g/m*3 21.6 C 0 km/h
743 19-05-2009 17:40:13 23.8 C 10.54 g/m*3 23.8 C 0 km/h
744 19-05-2009 17:52:13 23.6 C 9.57 g/m*3 23.6 C 0 km/h
745 19-05-2009 18:04:13 23.7 C 8.98 g/m*3 23.7 C 0 km/h
746 19-05-2009 18:16:13 25.1 C 7.18 g/m*3 25.1 C 0 km/h
747 19-05-2009 18:28:14 24.9 C 8.7 g/m*3 24.9 C 0 km/h
748 19-05-2009 18:40:12 24.1 C 8.53 g/m*3 24.1 C 0 km/h
749 19-05-2009 18:52:12 23.7 C 9.41 g/m*3 23.7 C 0 km/h
750 19-05-2009 19:04:12 23.1 C 9.3 g/m*3 23.1 C 0 km/h
Sensor: Nr:Datum:Temp:Abs-Feuchte:Windchill:Wind:
Aussen-T/F 751 19-05-2009 19:16:12 22 C 8.93 g/m*3 22 C 0 km/h
752 19-05-2009 19:28:12 21.6 C 8.72 g/m*3 21.6 C 0 km/h
753 19-05-2009 19:40:12 21.2 C 9.08 g/m*3 21.2 C 0 km/h
754 19-05-2009 19:52:12 20.6 C 9.31 g/m*3 20.6 C 0 km/h
755 19-05-2009 20:04:12 18.5 C 8.54 g/m*3 18.5 C 0 km/h
756 19-05-2009 20:16:11 16.9 C 9.21 g/m*3 16.9 C 0 km/h
757 19-05-2009 20:28:11 15.7 C 9.63 g/m*3 15.7 C 0 km/h
758 19-05-2009 20:40:12 15.6 C 10.24 g/m*3 15.6 C 0 km/h
759 19-05-2009 20:52:11 16.1 C 10.55 g/m*3 16.1 C 0 km/h
760 19-05-2009 21:04:11 15.9 C 10.56 g/m*3 15.9 C 0 km/h
761 19-05-2009 21:16:11 15.9 C 10.7 g/m*3 15.9 C 0 km/h
762 19-05-2009 21:28:12 15.8 C 10.36 g/m*3 15.8 C 0 km/h
763 19-05-2009 21:40:10 15.7 C 10.17 g/m*3 15.7 C 0 km/h
764 19-05-2009 21:52:11 15.6 C 10.11 g/m*3 15.6 C 0 km/h
765 19-05-2009 22:04:10 15.3 C 9.79 g/m*3 15.3 C 0 km/h
766 19-05-2009 22:16:10 15.3 C 9.66 g/m*3 15.3 C 0 km/h
767 19-05-2009 22:28:10 15 C 9.49 g/m*3 15 C 0 km/h
768 19-05-2009 22:41:13 14.7 C 9.44 g/m*3 14.7 C 0 km/h
769 19-05-2009 22:53:13 14.7 C 9.44 g/m*3 14.7 C 0 km/h
770 19-05-2009 23:05:13 14.4 C 9.27 g/m*3 14.4 C 0 km/h
771 19-05-2009 23:17:13 14.2 C 9.28 g/m*3 14.2 C 0 km/h
772 19-05-2009 23:29:13 14.1 C 9.22 g/m*3 14.1 C 0 km/h
773 19-05-2009 23:41:13 13.9 C 9.47 g/m*3 13.9 C 0 km/h
774 19-05-2009 23:53:13 13.7 C 9.24 g/m*3 13.7 C 0 km/h
775 20-05-2009 00:05:13 13.6 C 9.3 g/m*3 13.6 C 0 km/h
Sensor: Nr:Datum:Temp:Abs-Feuchte:Windchill:Wind:
Aussen-T/F 776 20-05-2009 00:17:13 13.3 C 9.01 g/m*3 13.3 C 0 km/h
777 20-05-2009 00:29:13 13.4 C 9.07 g/m*3 13.4 C 0 km/h
778 20-05-2009 00:41:13 13.2 C 8.96 g/m*3 13.2 C 0 km/h
779 20-05-2009 00:53:14 13.1 C 8.9 g/m*3 13.1 C 0 km/h
780 20-05-2009 01:05:14 13 C 8.85 g/m*3 13 C 0 km/h
781 20-05-2009 01:17:14 12.8 C 8.85 g/m*3 12.8 C 0 km/h
782 20-05-2009 01:29:14 12.6 C 8.74 g/m*3 12.6 C 0 km/h
783 20-05-2009 01:41:14 12.5 C 8.69 g/m*3 12.5 C 0 km/h
784 20-05-2009 01:53:14 12.4 C 8.74 g/m*3 12.4 C 0 km/h
785 20-05-2009 02:05:14 12.2 C 8.63 g/m*3 12.2 C 0 km/h
786 20-05-2009 02:17:14 12.1 C 8.69 g/m*3 12.1 C 0 km/h
787 20-05-2009 02:29:14 12 C 8.63 g/m*3 12 C 0 km/h
788 20-05-2009 02:41:14 11.8 C 8.53 g/m*3 11.8 C 0 km/h
789 20-05-2009 02:53:14 11.8 C 8.63 g/m*3 11.8 C 0 km/h
790 20-05-2009 03:05:14 11.8 C 8.74 g/m*3 11.8 C 0 km/h
791 20-05-2009 03:17:14 11.5 C 8.68 g/m*3 11.5 C 0 km/h
792 20-05-2009 03:29:14 11.3 C 8.67 g/m*3 11.3 C 0 km/h
793 20-05-2009 03:41:14 11.1 C 8.56 g/m*3 11.1 C 0 km/h
794 20-05-2009 03:53:14 11.1 C 8.66 g/m*3 11.1 C 0 km/h
795 20-05-2009 04:05:14 11 C 8.61 g/m*3 11 C 0 km/h
796 20-05-2009 04:17:14 10.9 C 8.55 g/m*3 10.9 C 0 km/h
797 20-05-2009 04:29:15 10.8 C 8.5 g/m*3 10.8 C 0 km/h
798 20-05-2009 04:41:15 10.6 C 8.39 g/m*3 10.6 C 0 km/h
799 20-05-2009 04:53:15 10.4 C 8.38 g/m*3 10.4 C 0 km/h
800 20-05-2009 05:05:15 10.3 C 8.33 g/m*3 10.3 C 0 km/h
Sensor: Nr:Datum:Temp:Abs-Feuchte:Windchill:Wind:
Aussen-T/F 801 20-05-2009 05:17:15 10.3 C 8.43 g/m*3 10.3 C 0 km/h
802 20-05-2009 05:29:15 10.2 C 8.37 g/m*3 10.2 C 0 km/h
803 20-05-2009 05:41:15 10 C 8.27 g/m*3 10 C 0 km/h
804 20-05-2009 05:53:15 10.1 C 8.32 g/m*3 10.1 C 0 km/h
805 20-05-2009 06:05:15 10.2 C 8.37 g/m*3 10.2 C 0 km/h
806 20-05-2009 06:17:15 10.4 C 8.48 g/m*3 10.4 C 0 km/h
807 20-05-2009 06:29:15 10.6 C 8.49 g/m*3 10.6 C 0 km/h
808 20-05-2009 06:41:15 10.7 C 8.55 g/m*3 10.7 C 0 km/h
809 20-05-2009 06:53:12 10.8 C 8.5 g/m*3 10.8 C 0 km/h
810 20-05-2009 07:05:12 10.9 C 8.55 g/m*3 10.9 C 0 km/h
811 20-05-2009 07:17:11 11 C 8.61 g/m*3 11 C 0 km/h
812 20-05-2009 07:29:11 11 C 8.61 g/m*3 11 C 0 km/h
813 20-05-2009 07:41:12 11.4 C 8.72 g/m*3 11.4 C 0 km/h
814 20-05-2009 07:53:11 11.5 C 8.68 g/m*3 11.5 C 0 km/h
815 20-05-2009 08:05:11 11.7 C 8.79 g/m*3 11.7 C 0 km/h
816 20-05-2009 08:17:10 12.1 C 8.79 g/m*3 12.1 C 0 km/h
817 20-05-2009 08:29:10 12.8 C 8.85 g/m*3 12.8 C 0 km/h
818 20-05-2009 08:41:11 13.2 C 8.73 g/m*3 13.2 C 0 km/h
819 20-05-2009 08:53:10 13.9 C 8.87 g/m*3 13.9 C 0 km/h
820 20-05-2009 09:05:10 14 C 8.68 g/m*3 14 C 0 km/h
821 20-05-2009 09:17:11 14.4 C 8.9 g/m*3 14.4 C 0 km/h
822 20-05-2009 09:29:11 15 C 8.98 g/m*3 15 C 0 km/h
823 20-05-2009 09:41:10 15.9 C 9.21 g/m*3 15.9 C 0 km/h
824 20-05-2009 09:53:10 16.6 C 9.04 g/m*3 16.6 C 0 km/h
825 20-05-2009 10:05:10 17 C 9.26 g/m*3 17 C 0 km/h
Sensor: Nr:Datum:Temp:Abs-Feuchte:Windchill:Wind:
Aussen-T/F 826 20-05-2009 10:17:10 17.5 C 9.54 g/m*3 17.5 C 0 km/h
827 20-05-2009 10:29:10 17.8 C 9.71 g/m*3 17.8 C 0 km/h
828 20-05-2009 10:41:10 17.9 C 9.31 g/m*3 17.9 C 0 km/h
829 20-05-2009 10:53:10 18.6 C 9.39 g/m*3 18.6 C 0 km/h
830 20-05-2009 11:05:10 19.2 C 8.9 g/m*3 19.2 C 0 km/h
831 20-05-2009 11:17:09 20.4 C 8.85 g/m*3 20.4 C 0 km/h
832 20-05-2009 11:29:09 20.8 C 8.69 g/m*3 20.8 C 0 km/h
833 20-05-2009 11:41:09 21.6 C 8.53 g/m*3 21.6 C 0 km/h
834 20-05-2009 11:53:09 22.5 C 8.39 g/m*3 22.5 C 0 km/h
835 20-05-2009 12:05:09 23.1 C 8.27 g/m*3 23.1 C 0 km/h
836 20-05-2009 12:17:08 23.4 C 7.99 g/m*3 23.4 C 0 km/h
837 20-05-2009 12:29:08 24.2 C 7.7 g/m*3 24.2 C 0 km/h
838 20-05-2009 12:41:08 24.7 C 7.24 g/m*3 24.7 C 0 km/h
839 20-05-2009 12:53:08 25.2 C 7.45 g/m*3 25.2 C 0 km/h
840 20-05-2009 13:05:08 25.5 C 7.1 g/m*3 25.5 C 0 km/h
841 20-05-2009 13:17:08 26.6 C 7.3 g/m*3 26.6 C 0 km/h
842 20-05-2009 13:29:08 26.8 C 6.62 g/m*3 26.8 C 0 km/h
843 20-05-2009 13:41:08 26.3 C 6.68 g/m*3 26.3 C 0 km/h
844 20-05-2009 13:53:08 26 C 6.57 g/m*3 26 C 0 km/h
845 20-05-2009 14:05:07 25.4 C 7.06 g/m*3 25.4 C 0 km/h
846 20-05-2009 14:17:08 25.5 C 7.1 g/m*3 25.5 C 0 km/h
847 20-05-2009 14:29:08 26.4 C 7.22 g/m*3 26.4 C 0 km/h
848 20-05-2009 14:41:07 27.2 C 7.03 g/m*3 27.2 C 0 km/h
849 20-05-2009 14:53:07 28 C 6.8 g/m*3 28 C 0 km/h
850 20-05-2009 15:05:07 28.1 C 7.11 g/m*3 28.1 C 0 km/h
Sensor: Nr:Datum:Temp:Abs-Feuchte:Windchill:Wind:
Aussen-T/F 851 20-05-2009 15:17:07 27.9 C 7.57 g/m*3 27.9 C 0 km/h
852 20-05-2009 15:29:07 28.4 C 6.95 g/m*3 28.4 C 0 km/h
853 20-05-2009 15:41:07 28.6 C 7.31 g/m*3 28.6 C 0 km/h
854 20-05-2009 15:53:06 28.7 C 7.35 g/m*3 28.7 C 0 km/h
855 20-05-2009 16:05:07 28 C 7.07 g/m*3 28 C 0 km/h
856 20-05-2009 16:17:06 27.7 C 7.49 g/m*3 27.7 C 0 km/h
857 20-05-2009 16:29:06 26.4 C 7.97 g/m*3 26.4 C 0 km/h
858 20-05-2009 16:41:06 27 C 6.95 g/m*3 27 C 0 km/h
859 20-05-2009 16:53:06 28.2 C 7.42 g/m*3 28.2 C 0 km/h
860 20-05-2009 17:05:06 28.8 C 7.1 g/m*3 28.8 C 0 km/h
861 20-05-2009 17:17:06 28.2 C 8.25 g/m*3 28.2 C 0 km/h
862 20-05-2009 17:29:06 27.7 C 8.29 g/m*3 27.7 C 0 km/h
863 20-05-2009 17:41:05 27.4 C 8.68 g/m*3 27.4 C 0 km/h
864 20-05-2009 17:53:06 26.8 C 8.65 g/m*3 26.8 C 0 km/h
865 20-05-2009 18:05:05 27.7 C 8.56 g/m*3 27.7 C 0 km/h
866 20-05-2009 18:17:05 26.5 C 8.76 g/m*3 26.5 C 0 km/h
867 20-05-2009 18:29:06 26.3 C 8.91 g/m*3 26.3 C 0 km/h
868 20-05-2009 18:41:05 26.1 C 8.81 g/m*3 26.1 C 0 km/h
869 20-05-2009 18:53:05 25.5 C 9.71 g/m*3 25.5 C 0 km/h
870 20-05-2009 19:05:05 24.8 C 9.79 g/m*3 24.8 C 0 km/h
871 20-05-2009 19:17:04 24.5 C 9.85 g/m*3 24.5 C 0 km/h
872 20-05-2009 19:29:04 23.9 C 9.95 g/m*3 23.9 C 0 km/h
873 20-05-2009 19:41:05 23.8 C 9.9 g/m*3 23.8 C 0 km/h
874 20-05-2009 19:53:04 23.5 C 10.15 g/m*3 23.5 C 0 km/h
875 20-05-2009 20:05:04 23.1 C 10.13 g/m*3 23.1 C 0 km/h
Sensor: Nr:Datum:Temp:Abs-Feuchte:Windchill:Wind:
Aussen-T/F 876 20-05-2009 20:17:04 22.2 C 10.41 g/m*3 22.2 C 0 km/h
877 20-05-2009 20:29:04 21.8 C 10.55 g/m*3 21.8 C 0 km/h
878 20-05-2009 20:41:04 21.5 C 10.37 g/m*3 21.5 C 0 km/h
879 20-05-2009 20:53:03 21.3 C 10.62 g/m*3 21.3 C 0 km/h
880 20-05-2009 21:05:04 20.8 C 10.5 g/m*3 20.8 C 0 km/h
881 20-05-2009 21:17:04 20.4 C 10.26 g/m*3 20.4 C 0 km/h
882 20-05-2009 21:29:04 20.3 C 10.38 g/m*3 20.3 C 0 km/h
883 20-05-2009 21:41:03 19.8 C 10.42 g/m*3 19.8 C 0 km/h
884 20-05-2009 21:53:04 19.5 C 10.24 g/m*3 19.5 C 0 km/h
885 20-05-2009 22:05:03 19.2 C 10.22 g/m*3 19.2 C 0 km/h
886 20-05-2009 22:17:03 19.1 C 10.33 g/m*3 19.1 C 0 km/h
887 20-05-2009 22:29:03 19 C 10.27 g/m*3 19 C 0 km/h
888 20-05-2009 22:41:02 18.9 C 10.53 g/m*3 18.9 C 0 km/h
889 20-05-2009 22:54:04 18.7 C 10.73 g/m*3 18.7 C 0 km/h
890 20-05-2009 23:06:04 18.4 C 10.54 g/m*3 18.4 C 0 km/h
891 20-05-2009 23:18:04 18.3 C 10.79 g/m*3 18.3 C 0 km/h
892 20-05-2009 23:30:04 18.2 C 10.72 g/m*3 18.2 C 0 km/h
893 20-05-2009 23:42:04 18.2 C 11.04 g/m*3 18.2 C 0 km/h
894 20-05-2009 23:54:04 18.1 C 10.82 g/m*3 18.1 C 0 km/h
895 21-05-2009 00:06:04 17.7 C 10.86 g/m*3 17.7 C 0 km/h
896 21-05-2009 00:18:04 17.5 C 10.73 g/m*3 17.5 C 0 km/h
897 21-05-2009 00:30:04 17.5 C 10.88 g/m*3 17.5 C 0 km/h
898 21-05-2009 00:42:04 17.4 C 10.82 g/m*3 17.4 C 0 km/h
899 21-05-2009 00:54:04 17.1 C 10.77 g/m*3 17.1 C 0 km/h
900 21-05-2009 01:06:04 16.9 C 10.79 g/m*3 16.9 C 0 km/h
Sensor: Nr:Datum:Temp:Abs-Feuchte:Windchill:Wind:
Aussen-T/F 901 21-05-2009 01:18:04 16.8 C 10.87 g/m*3 16.8 C 0 km/h
902 21-05-2009 01:30:04 16.4 C 10.61 g/m*3 16.4 C 0 km/h
903 21-05-2009 01:42:04 16.2 C 10.62 g/m*3 16.2 C 0 km/h
904 21-05-2009 01:54:04 16.2 C 10.48 g/m*3 16.2 C 0 km/h
905 21-05-2009 02:06:04 16 C 10.49 g/m*3 16 C 0 km/h
906 21-05-2009 02:18:05 15.7 C 10.44 g/m*3 15.7 C 0 km/h
907 21-05-2009 02:30:05 15.6 C 10.51 g/m*3 15.6 C 0 km/h
908 21-05-2009 02:42:05 15.4 C 10.38 g/m*3 15.4 C 0 km/h
909 21-05-2009 02:54:05 15.2 C 10.25 g/m*3 15.2 C 0 km/h
910 21-05-2009 03:06:05 15.2 C 10.25 g/m*3 15.2 C 0 km/h
911 21-05-2009 03:18:05 15.2 C 10.25 g/m*3 15.2 C 0 km/h
912 21-05-2009 03:30:05 15 C 10.26 g/m*3 15 C 0 km/h
913 21-05-2009 03:42:05 15 C 10.26 g/m*3 15 C 0 km/h
914 21-05-2009 03:54:05 15 C 10.13 g/m*3 15 C 0 km/h
915 21-05-2009 04:06:05 14.9 C 10.32 g/m*3 14.9 C 0 km/h
916 21-05-2009 04:18:05 14.7 C 10.32 g/m*3 14.7 C 0 km/h
917 21-05-2009 04:30:05 14.7 C 10.32 g/m*3 14.7 C 0 km/h
918 21-05-2009 04:42:05 14.7 C 10.32 g/m*3 14.7 C 0 km/h
919 21-05-2009 04:54:05 14.7 C 10.2 g/m*3 14.7 C 0 km/h
920 21-05-2009 05:06:05 14.7 C 10.2 g/m*3 14.7 C 0 km/h
921 21-05-2009 05:18:05 14.6 C 10.14 g/m*3 14.6 C 0 km/h
922 21-05-2009 05:30:05 14.5 C 10.07 g/m*3 14.5 C 0 km/h
923 21-05-2009 05:42:05 14.6 C 10.14 g/m*3 14.6 C 0 km/h
924 21-05-2009 05:54:05 14.6 C 10.14 g/m*3 14.6 C 0 km/h
925 21-05-2009 06:06:06 14.6 C 10.26 g/m*3 14.6 C 0 km/h
Sensor: Nr:Datum:Temp:Abs-Feuchte:Windchill:Wind:
Aussen-T/F 926 21-05-2009 06:18:06 14.3 C 10.2 g/m*3 14.3 C 0 km/h
927 21-05-2009 06:30:06 14.4 C 10.26 g/m*3 14.4 C 0 km/h
928 21-05-2009 06:42:06 14.5 C 10.32 g/m*3 14.5 C 0 km/h
929 21-05-2009 06:54:06 14.5 C 10.32 g/m*3 14.5 C 0 km/h
930 21-05-2009 07:06:06 14.6 C 10.39 g/m*3 14.6 C 0 km/h
931 21-05-2009 07:18:03 14.4 C 10.38 g/m*3 14.4 C 0 km/h
932 21-05-2009 07:30:04 14.6 C 10.64 g/m*3 14.6 C 0 km/h
933 21-05-2009 07:42:04 14.7 C 10.7 g/m*3 14.7 C 0 km/h
934 21-05-2009 07:54:03 14.8 C 10.64 g/m*3 14.8 C 0 km/h
935 21-05-2009 08:06:03 15.1 C 10.71 g/m*3 15.1 C 0 km/h
936 21-05-2009 08:18:04 15.6 C 10.91 g/m*3 15.6 C 0 km/h
937 21-05-2009 08:30:03 16 C 10.63 g/m*3 16 C 0 km/h
938 21-05-2009 08:42:03 16.3 C 10.54 g/m*3 16.3 C 0 km/h
939 21-05-2009 08:54:03 16.6 C 10.59 g/m*3 16.6 C 0 km/h
940 21-05-2009 09:06:03 16.3 C 10.68 g/m*3 16.3 C 0 km/h
941 21-05-2009 09:18:03 16.6 C 11.02 g/m*3 16.6 C 0 km/h
942 21-05-2009 09:30:03 17.3 C 10.9 g/m*3 17.3 C 0 km/h
943 21-05-2009 09:42:03 18.1 C 10.66 g/m*3 18.1 C 0 km/h
944 21-05-2009 09:54:03 18.6 C 10.82 g/m*3 18.6 C 0 km/h
945 21-05-2009 10:06:02 19.5 C 10.74 g/m*3 19.5 C 0 km/h
946 21-05-2009 10:18:02 20.3 C 10.55 g/m*3 20.3 C 0 km/h
947 21-05-2009 10:30:02 20.9 C 10.56 g/m*3 20.9 C 0 km/h
948 21-05-2009 10:42:02 21.7 C 10.87 g/m*3 21.7 C 0 km/h
949 21-05-2009 10:54:02 22.5 C 10.59 g/m*3 22.5 C 0 km/h
950 21-05-2009 11:06:01 22.4 C 9.73 g/m*3 22.4 C 0 km/h
Sensor: Nr:Datum:Temp:Abs-Feuchte:Windchill:Wind:
Aussen-T/F 951 21-05-2009 11:18:02 22.3 C 9.48 g/m*3 22.3 C 0 km/h
952 21-05-2009 11:30:01 23.2 C 9.36 g/m*3 23.2 C 0 km/h
953 21-05-2009 11:42:01 23 C 9.25 g/m*3 23 C 0 km/h
954 21-05-2009 11:54:02 23.7 C 9.2 g/m*3 23.7 C 0 km/h
955 21-05-2009 12:06:01 24.5 C 9.18 g/m*3 24.5 C 0 km/h
956 21-05-2009 12:18:01 24.3 C 9.52 g/m*3 24.3 C 0 km/h
957 21-05-2009 12:30:01 25.2 C 9.31 g/m*3 25.2 C 0 km/h
958 21-05-2009 12:42:01 26.1 C 9.06 g/m*3 26.1 C 0 km/h
959 21-05-2009 12:54:01 27.4 C 9.21 g/m*3 27.4 C 0 km/h
960 21-05-2009 13:06:01 27.2 C 8.85 g/m*3 27.2 C 0 km/h
961 21-05-2009 13:18:00 26.4 C 8.96 g/m*3 26.4 C 0 km/h
962 21-05-2009 13:30:01 26.7 C 9.37 g/m*3 26.7 C 0 km/h
963 21-05-2009 13:42:01 26.7 C 9.37 g/m*3 26.7 C 0 km/h
964 21-05-2009 13:54:00 25.1 C 9.26 g/m*3 25.1 C 0 km/h
965 21-05-2009 14:06:00 24.6 C 9.45 g/m*3 24.6 C 0 km/h
966 21-05-2009 14:18:00 24.6 C 9.23 g/m*3 24.6 C 0 km/h
967 21-05-2009 14:30:00 24.1 C 9.41 g/m*3 24.1 C 0 km/h
968 21-05-2009 14:42:00 25.3 C 9.13 g/m*3 25.3 C 0 km/h
969 21-05-2009 14:54:59 26.9 C 8.96 g/m*3 26.9 C 0 km/h
970 21-05-2009 15:05:59 26.4 C 8.71 g/m*3 26.4 C 0 km/h
971 21-05-2009 15:18:00 25.4 C 9.18 g/m*3 25.4 C 0 km/h
972 21-05-2009 15:30:59 24.5 C 9.18 g/m*3 24.5 C 0 km/h
973 21-05-2009 15:42:59 24.2 C 9.02 g/m*3 24.2 C 0 km/h
974 21-05-2009 15:54:59 25 C 9.21 g/m*3 25 C 0 km/h
975 21-05-2009 16:06:59 24.8 C 9.1 g/m*3 24.8 C 0 km/h
Sensor: Nr:Datum:Temp:Abs-Feuchte:Windchill:Wind:
Aussen-T/F 976 21-05-2009 16:18:59 24.1 C 8.53 g/m*3 24.1 C 0 km/h
977 21-05-2009 16:30:59 24.6 C 9 g/m*3 24.6 C 0 km/h
978 21-05-2009 16:42:59 25.8 C 9.39 g/m*3 25.8 C 0 km/h
979 21-05-2009 16:54:58 24.7 C 9.05 g/m*3 24.7 C 0 km/h
980 21-05-2009 17:06:58 25.1 C 9.03 g/m*3 25.1 C 0 km/h
981 21-05-2009 17:18:59 25.1 C 9.03 g/m*3 25.1 C 0 km/h
982 21-05-2009 17:30:58 24.8 C 9.1 g/m*3 24.8 C 0 km/h
983 21-05-2009 17:42:58 24.4 C 9.79 g/m*3 24.4 C 0 km/h
984 21-05-2009 17:54:58 23.5 C 9.94 g/m*3 23.5 C 0 km/h
985 21-05-2009 18:06:58 23.3 C 9.41 g/m*3 23.3 C 0 km/h
986 21-05-2009 18:18:58 23.1 C 10.54 g/m*3 23.1 C 0 km/h
987 21-05-2009 18:30:57 22.7 C 10.3 g/m*3 22.7 C 0 km/h
988 21-05-2009 18:42:57 22.4 C 10.13 g/m*3 22.4 C 0 km/h
989 21-05-2009 18:54:58 22.3 C 10.07 g/m*3 22.3 C 0 km/h
990 21-05-2009 19:06:57 22 C 9.9 g/m*3 22 C 0 km/h
991 21-05-2009 19:18:57 21.9 C 9.84 g/m*3 21.9 C 0 km/h
992 21-05-2009 19:30:57 21.9 C 9.84 g/m*3 21.9 C 0 km/h
993 21-05-2009 19:42:57 21.7 C 9.92 g/m*3 21.7 C 0 km/h
994 21-05-2009 19:54:57 21.6 C 9.67 g/m*3 21.6 C 0 km/h
995 21-05-2009 20:06:56 20.9 C 9.29 g/m*3 20.9 C 0 km/h
996 21-05-2009 20:18:56 19.4 C 9.18 g/m*3 19.4 C 0 km/h
997 21-05-2009 20:30:57 19.3 C 9.79 g/m*3 19.3 C 0 km/h
998 21-05-2009 20:42:57 17.4 C 11.41 g/m*3 17.4 C 0 km/h
999 21-05-2009 20:54:56 16.4 C 11.86 g/m*3 16.4 C 0 km/h
1000 21-05-2009 21:06:56 16.2 C 12 g/m*3 16.2 C 0 km/h
Sensor: Nr:Datum:Temp:Abs-Feuchte:Windchill:Wind:
Aussen-T/F 1001 21-05-2009 21:18:55 16.1 C 12.06 g/m*3 16.1 C 0 km/h
1002 21-05-2009 21:30:56 16.1 C 12.2 g/m*3 16.1 C 0 km/h
1003 21-05-2009 21:42:56 16.2 C 12.27 g/m*3 16.2 C 0 km/h
1004 21-05-2009 21:54:55 16.2 C 12.27 g/m*3 16.2 C 0 km/h
1005 21-05-2009 22:06:55 15.8 C 12.11 g/m*3 15.8 C 0 km/h
1006 21-05-2009 22:18:56 15.8 C 12.11 g/m*3 15.8 C 0 km/h
1007 21-05-2009 22:30:55 15.8 C 12.11 g/m*3 15.8 C 0 km/h
1008 21-05-2009 22:42:55 15.7 C 12.04 g/m*3 15.7 C 0 km/h
1009 21-05-2009 22:54:55 15.4 C 11.69 g/m*3 15.4 C 0 km/h
1010 21-05-2009 23:06:55 15 C 11.16 g/m*3 15 C 0 km/h
1011 21-05-2009 23:18:55 14.6 C 10.89 g/m*3 14.6 C 0 km/h
1012 21-05-2009 23:30:54 14.1 C 10.44 g/m*3 14.1 C 0 km/h
1013 21-05-2009 23:42:54 13.7 C 10.07 g/m*3 13.7 C 0 km/h
1014 21-05-2009 23:54:54 13.8 C 10.13 g/m*3 13.8 C 0 km/h
1015 22-05-2009 00:06:54 13.5 C 9.83 g/m*3 13.5 C 0 km/h
1016 22-05-2009 00:18:55 13.4 C 9.65 g/m*3 13.4 C 0 km/h
1017 22-05-2009 00:30:54 13.3 C 9.7 g/m*3 13.3 C 0 km/h
1018 22-05-2009 00:42:54 13.3 C 9.7 g/m*3 13.3 C 0 km/h
1019 22-05-2009 00:54:54 13.4 C 9.88 g/m*3 13.4 C 0 km/h
1020 22-05-2009 01:06:53 13.3 C 9.82 g/m*3 13.3 C 0 km/h
1021 22-05-2009 01:18:54 13.4 C 9.88 g/m*3 13.4 C 0 km/h
1022 22-05-2009 01:30:53 13.2 C 9.64 g/m*3 13.2 C 0 km/h
1023 22-05-2009 01:42:53 13.1 C 9.47 g/m*3 13.1 C 0 km/h
1024 22-05-2009 01:54:53 13.3 C 9.7 g/m*3 13.3 C 0 km/h
1025 22-05-2009 02:06:53 13.4 C 9.65 g/m*3 13.4 C 0 km/h
Sensor: Nr:Datum:Temp:Abs-Feuchte:Windchill:Wind:
Aussen-T/F 1026 22-05-2009 02:18:53 13.4 C 9.42 g/m*3 13.4 C 0 km/h
1027 22-05-2009 02:30:53 13.5 C 9.36 g/m*3 13.5 C 0 km/h
1028 22-05-2009 02:42:53 13.3 C 9.24 g/m*3 13.3 C 0 km/h
1029 22-05-2009 02:56:01 13.2 C 9.19 g/m*3 13.2 C 0 km/h
1030 22-05-2009 03:08:01 13.1 C 9.01 g/m*3 13.1 C 0 km/h
1031 22-05-2009 03:20:02 13.2 C 9.07 g/m*3 13.2 C 0 km/h
1032 22-05-2009 03:32:01 13.4 C 9.18 g/m*3 13.4 C 0 km/h
1033 22-05-2009 03:44:01 13.5 C 9.24 g/m*3 13.5 C 0 km/h
1034 22-05-2009 03:56:01 13.2 C 9.19 g/m*3 13.2 C 0 km/h
1035 22-05-2009 04:07:53 13.1 C 9.24 g/m*3 13.1 C 0 km/h
1036 22-05-2009 04:19:54 13 C 9.07 g/m*3 13 C 0 km/h
1037 22-05-2009 04:31:54 13.1 C 9.01 g/m*3 13.1 C 0 km/h
1038 22-05-2009 04:43:54 13 C 8.85 g/m*3 13 C 0 km/h
1039 22-05-2009 04:55:54 12.8 C 8.85 g/m*3 12.8 C 0 km/h
1040 22-05-2009 05:07:53 12.9 C 8.9 g/m*3 12.9 C 0 km/h
1041 22-05-2009 05:19:53 13 C 8.96 g/m*3 13 C 0 km/h
1042 22-05-2009 05:31:53 12.9 C 8.9 g/m*3 12.9 C 0 km/h
1043 22-05-2009 05:43:53 13 C 8.85 g/m*3 13 C 0 km/h
1044 22-05-2009 05:55:53 12.8 C 8.74 g/m*3 12.8 C 0 km/h
1045 22-05-2009 06:07:53 12.7 C 8.79 g/m*3 12.7 C 0 km/h
1046 22-05-2009 06:19:52 12.4 C 8.52 g/m*3 12.4 C 0 km/h
1047 22-05-2009 06:31:52 12.5 C 8.58 g/m*3 12.5 C 0 km/h
1048 22-05-2009 06:43:52 12.5 C 8.69 g/m*3 12.5 C 0 km/h
1049 22-05-2009 06:55:52 12.7 C 8.91 g/m*3 12.7 C 0 km/h
1050 22-05-2009 07:07:52 13.2 C 9.19 g/m*3 13.2 C 0 km/h
Sensor: Nr:Datum:Temp:Abs-Feuchte:Windchill:Wind:
Aussen-T/F 1051 22-05-2009 07:19:52 13.5 C 9.47 g/m*3 13.5 C 0 km/h
1052 22-05-2009 07:31:52 13.7 C 9.35 g/m*3 13.7 C 0 km/h
1053 22-05-2009 07:43:52 13.9 C 9.23 g/m*3 13.9 C 0 km/h
1054 22-05-2009 07:55:52 13.8 C 9.17 g/m*3 13.8 C 0 km/h
1055 22-05-2009 08:07:51 13.8 C 9.17 g/m*3 13.8 C 0 km/h
1056 22-05-2009 08:19:51 14.1 C 9.22 g/m*3 14.1 C 0 km/h
1057 22-05-2009 08:31:51 14.5 C 9.58 g/m*3 14.5 C 0 km/h
1058 22-05-2009 08:43:51 14.9 C 9.05 g/m*3 14.9 C 0 km/h
1059 22-05-2009 08:55:51 15.3 C 8.49 g/m*3 15.3 C 0 km/h
1060 22-05-2009 09:07:51 16 C 8.17 g/m*3 16 C 0 km/h
1061 22-05-2009 09:19:51 16.3 C 8.32 g/m*3 16.3 C 0 km/h
1062 22-05-2009 09:31:50 16.5 C 8 g/m*3 16.5 C 0 km/h
1063 22-05-2009 09:43:51 17.1 C 7.42 g/m*3 17.1 C 0 km/h
1064 22-05-2009 09:55:51 16.9 C 6.62 g/m*3 16.9 C 0 km/h
1065 22-05-2009 10:07:50 17.2 C 6.59 g/m*3 17.2 C 0 km/h
1066 22-05-2009 10:19:51 17.7 C 6.49 g/m*3 17.7 C 0 km/h
1067 22-05-2009 10:31:51 17.6 C 6.75 g/m*3 17.6 C 0 km/h
1068 22-05-2009 10:43:50 18.7 C 7.68 g/m*3 18.7 C 0 km/h
1069 22-05-2009 10:55:50 19.5 C 7.22 g/m*3 19.5 C 0 km/h
1070 22-05-2009 11:07:50 20 C 6.91 g/m*3 20 C 0 km/h
1071 22-05-2009 11:19:49 20.3 C 7.03 g/m*3 20.3 C 0 km/h
1072 22-05-2009 11:31:50 20.7 C 7.2 g/m*3 20.7 C 0 km/h
1073 22-05-2009 11:43:49 20.7 C 6.66 g/m*3 20.7 C 0 km/h
1074 22-05-2009 11:55:49 20.2 C 6.29 g/m*3 20.2 C 0 km/h
1075 22-05-2009 12:07:49 20.2 C 6.47 g/m*3 20.2 C 0 km/h
Sensor: Nr:Datum:Temp:Abs-Feuchte:Windchill:Wind:
Aussen-T/F 1076 22-05-2009 12:19:49 20 C 6.39 g/m*3 20 C 0 km/h
1077 22-05-2009 12:31:49 21.7 C 6.68 g/m*3 21.7 C 0 km/h
1078 22-05-2009 12:43:49 21.7 C 6.29 g/m*3 21.7 C 0 km/h
1079 22-05-2009 12:55:49 22.3 C 5.53 g/m*3 22.3 C 0 km/h
1080 22-05-2009 13:07:49 22.8 C 4.47 g/m*3 22.8 C 0 km/h
1081 22-05-2009 13:19:49 23.1 C 4.13 g/m*3 23.1 C 0 km/h
1082 22-05-2009 13:31:48 22.4 C 3.97 g/m*3 22.4 C 0 km/h
1083 22-05-2009 13:43:49 22.5 C 5.19 g/m*3 22.5 C 0 km/h
1084 22-05-2009 13:55:49 22.7 C 4.65 g/m*3 22.7 C 0 km/h
1085 22-05-2009 14:07:48 23 C 4.11 g/m*3 23 C 0 km/h
1086 22-05-2009 14:19:48 22.9 C 4.09 g/m*3 22.9 C 0 km/h
1087 22-05-2009 14:31:48 22.9 C 4.09 g/m*3 22.9 C 0 km/h
1088 22-05-2009 14:43:48 22.9 C 4.09 g/m*3 22.9 C 0 km/h
1089 22-05-2009 14:55:48 23.2 C 4.16 g/m*3 23.2 C 0 km/h
1090 22-05-2009 15:07:48 23.8 C 4.73 g/m*3 23.8 C 0 km/h
1091 22-05-2009 15:19:47 23.6 C 4.25 g/m*3 23.6 C 0 km/h
1092 22-05-2009 15:31:48 23.8 C 4.3 g/m*3 23.8 C 0 km/h
1093 22-05-2009 15:43:47 24.5 C 4.48 g/m*3 24.5 C 0 km/h
1094 22-05-2009 15:55:47 23.8 C 4.3 g/m*3 23.8 C 0 km/h
1095 22-05-2009 16:07:47 24.7 C 4.53 g/m*3 24.7 C 0 km/h
1096 22-05-2009 16:19:46 24.4 C 4.45 g/m*3 24.4 C 0 km/h
1097 22-05-2009 16:31:47 22.5 C 3.99 g/m*3 22.5 C 0 km/h
1098 22-05-2009 16:43:46 21.9 C 4.05 g/m*3 21.9 C 0 km/h
1099 22-05-2009 16:55:46 23 C 4.32 g/m*3 23 C 0 km/h
1100 22-05-2009 17:07:47 23.1 C 4.13 g/m*3 23.1 C 0 km/h
Sensor: Nr:Datum:Temp:Abs-Feuchte:Windchill:Wind:
Aussen-T/F 1101 22-05-2009 17:19:46 22.8 C 4.27 g/m*3 22.8 C 0 km/h
1102 22-05-2009 17:31:46 23.6 C 4.25 g/m*3 23.6 C 0 km/h
1103 22-05-2009 17:43:45 23.8 C 4.3 g/m*3 23.8 C 0 km/h
1104 22-05-2009 17:55:45 23.7 C 4.28 g/m*3 23.7 C 0 km/h
1105 22-05-2009 18:07:46 24.1 C 4.38 g/m*3 24.1 C 0 km/h
1106 22-05-2009 18:19:46 24.5 C 4.48 g/m*3 24.5 C 0 km/h
1107 22-05-2009 18:31:45 23.9 C 4.33 g/m*3 23.9 C 0 km/h
1108 22-05-2009 18:43:46 23.2 C 4.16 g/m*3 23.2 C 0 km/h
1109 22-05-2009 18:55:46 24.4 C 4.45 g/m*3 24.4 C 0 km/h
1110 22-05-2009 19:07:45 23.7 C 4.28 g/m*3 23.7 C 0 km/h
1111 22-05-2009 19:19:45 24.1 C 4.38 g/m*3 24.1 C 0 km/h
1112 22-05-2009 19:31:44 23.4 C 4.21 g/m*3 23.4 C 0 km/h
1113 22-05-2009 19:43:45 23.8 C 4.3 g/m*3 23.8 C 0 km/h
1114 22-05-2009 19:55:45 23.8 C 4.3 g/m*3 23.8 C 0 km/h
1115 22-05-2009 20:07:44 22.8 C 4.06 g/m*3 22.8 C 0 km/h
1116 22-05-2009 20:19:44 21.8 C 3.84 g/m*3 21.8 C 0 km/h
1117 22-05-2009 20:31:45 21.2 C 4.26 g/m*3 21.2 C 0 km/h
1118 22-05-2009 20:43:44 20.3 C 4.22 g/m*3 20.3 C 0 km/h
1119 22-05-2009 20:55:44 19.6 C 4.56 g/m*3 19.6 C 0 km/h
1120 22-05-2009 21:07:44 19.3 C 4.98 g/m*3 19.3 C 0 km/h
1121 22-05-2009 21:19:44 18.6 C 4.62 g/m*3 18.6 C 0 km/h
1122 22-05-2009 21:31:44 18.3 C 5 g/m*3 18.3 C 0 km/h
1123 22-05-2009 21:43:44 18.1 C 4.64 g/m*3 18.1 C 0 km/h
1124 22-05-2009 21:55:44 17.7 C 4.68 g/m*3 17.7 C 0 km/h
1125 22-05-2009 22:07:43 17.5 C 4.92 g/m*3 17.5 C 0 km/h
Sensor: Nr:Datum:Temp:Abs-Feuchte:Windchill:Wind:
Aussen-T/F 1126 22-05-2009 22:19:44 17.2 C 4.69 g/m*3 17.2 C 0 km/h
1127 22-05-2009 22:32:44 16.8 C 5 g/m*3 16.8 C 0 km/h
1128 22-05-2009 22:44:44 16.3 C 4.99 g/m*3 16.3 C 0 km/h
1129 22-05-2009 22:56:44 16.1 C 5.21 g/m*3 16.1 C 0 km/h
1130 22-05-2009 23:08:44 15.9 C 5.42 g/m*3 15.9 C 0 km/h
1131 22-05-2009 23:20:44 15.5 C 5.55 g/m*3 15.5 C 0 km/h
1132 22-05-2009 23:32:44 14.8 C 5.83 g/m*3 14.8 C 0 km/h
1133 22-05-2009 23:44:44 14.4 C 5.93 g/m*3 14.4 C 0 km/h
1134 22-05-2009 23:56:44 14.2 C 5.86 g/m*3 14.2 C 0 km/h
1135 23-05-2009 00:08:44 13.8 C 5.96 g/m*3 13.8 C 0 km/h
1136 23-05-2009 00:20:45 13.5 C 6.08 g/m*3 13.5 C 0 km/h
1137 23-05-2009 00:32:45 13.4 C 6.16 g/m*3 13.4 C 0 km/h
1138 23-05-2009 00:44:45 13.2 C 6.2 g/m*3 13.2 C 0 km/h
1139 23-05-2009 00:56:45 13 C 6.12 g/m*3 13 C 0 km/h
1140 23-05-2009 01:08:45 12.9 C 6.31 g/m*3 12.9 C 0 km/h
1141 23-05-2009 01:20:45 12.5 C 6.27 g/m*3 12.5 C 0 km/h
1142 23-05-2009 01:32:45 12.3 C 6.3 g/m*3 12.3 C 0 km/h
1143 23-05-2009 01:44:45 12.1 C 6.33 g/m*3 12.1 C 0 km/h
1144 23-05-2009 01:56:45 12 C 6.5 g/m*3 12 C 0 km/h
1145 23-05-2009 02:08:45 11.8 C 6.53 g/m*3 11.8 C 0 km/h
1146 23-05-2009 02:20:45 11.5 C 6.51 g/m*3 11.5 C 0 km/h
1147 23-05-2009 02:32:45 11.1 C 6.55 g/m*3 11.1 C 0 km/h
1148 23-05-2009 02:44:45 10.9 C 6.66 g/m*3 10.9 C 0 km/h
1149 23-05-2009 02:56:45 10.6 C 6.64 g/m*3 10.6 C 0 km/h
1150 23-05-2009 03:08:45 10.6 C 6.73 g/m*3 10.6 C 0 km/h
Sensor: Nr:Datum:Temp:Abs-Feuchte:Windchill:Wind:
Aussen-T/F 1151 23-05-2009 03:20:45 10.5 C 6.79 g/m*3 10.5 C 0 km/h
1152 23-05-2009 03:32:45 10.4 C 6.65 g/m*3 10.4 C 0 km/h
1153 23-05-2009 03:44:45 10.3 C 6.61 g/m*3 10.3 C 0 km/h
1154 23-05-2009 03:56:45 10.2 C 6.66 g/m*3 10.2 C 0 km/h
1155 23-05-2009 04:08:46 10.1 C 6.62 g/m*3 10.1 C 0 km/h
1156 23-05-2009 04:20:46 9.9 C 6.72 g/m*3 9.9 C 0 km/h
1157 23-05-2009 04:32:46 9.6 C 6.6 g/m*3 9.6 C 0 km/h
1158 23-05-2009 04:44:46 9.5 C 6.64 g/m*3 9.5 C 0 km/h
1159 23-05-2009 04:56:46 9.5 C 6.64 g/m*3 9.5 C 0 km/h
1160 23-05-2009 05:08:46 9.4 C 6.69 g/m*3 9.4 C 0 km/h
1161 23-05-2009 05:20:46 9.2 C 6.61 g/m*3 9.2 C 0 km/h
1162 23-05-2009 05:32:46 9.2 C 6.7 g/m*3 9.2 C 0 km/h
1163 23-05-2009 05:44:46 9.1 C 6.57 g/m*3 9.1 C 0 km/h
1164 23-05-2009 05:56:46 9 C 6.52 g/m*3 9 C 0 km/h
1165 23-05-2009 06:08:46 8.8 C 6.7 g/m*3 8.8 C 0 km/h
1166 23-05-2009 06:20:46 8.9 C 6.83 g/m*3 8.9 C 0 km/h
1167 23-05-2009 06:32:46 9 C 6.88 g/m*3 9 C 0 km/h
1168 23-05-2009 06:44:46 9 C 6.88 g/m*3 9 C 0 km/h
1169 23-05-2009 06:56:46 9 C 6.88 g/m*3 9 C 0 km/h
1170 23-05-2009 07:08:44 9.2 C 6.97 g/m*3 9.2 C 0 km/h
1171 23-05-2009 07:20:44 9.1 C 6.92 g/m*3 9.1 C 0 km/h
1172 23-05-2009 07:32:45 9.2 C 6.97 g/m*3 9.2 C 0 km/h
1173 23-05-2009 07:44:44 9.6 C 7.15 g/m*3 9.6 C 0 km/h
1174 23-05-2009 07:56:44 9.8 C 6.96 g/m*3 9.8 C 0 km/h
1175 23-05-2009 08:08:44 10.2 C 7.04 g/m*3 10.2 C 0 km/h
Sensor: Nr:Datum:Temp:Abs-Feuchte:Windchill:Wind:
Aussen-T/F 1176 23-05-2009 08:20:44 10.6 C 7.12 g/m*3 10.6 C 0 km/h
1177 23-05-2009 08:32:44 11 C 7.11 g/m*3 11 C 0 km/h
1178 23-05-2009 08:44:43 11.4 C 7.29 g/m*3 11.4 C 0 km/h
1179 23-05-2009 08:56:43 12 C 7.14 g/m*3 12 C 0 km/h
1180 23-05-2009 09:08:44 12.6 C 7.3 g/m*3 12.6 C 0 km/h
1181 23-05-2009 09:20:43 13.2 C 7.23 g/m*3 13.2 C 0 km/h
1182 23-05-2009 09:32:43 13.8 C 7.39 g/m*3 13.8 C 0 km/h
1183 23-05-2009 09:44:43 14.2 C 7.33 g/m*3 14.2 C 0 km/h
1184 23-05-2009 09:56:43 15.2 C 7.66 g/m*3 15.2 C 0 km/h
1185 23-05-2009 10:08:43 16 C 7.77 g/m*3 16 C 0 km/h
1186 23-05-2009 10:20:43 16.9 C 7.19 g/m*3 16.9 C 0 km/h
1187 23-05-2009 10:32:02 17.8 C 6.68 g/m*3 17.8 C 0 km/h
1188 23-05-2009 10:44:02 18.6 C 6.37 g/m*3 18.6 C 0 km/h
1189 23-05-2009 10:56:02 18.9 C 5.99 g/m*3 18.9 C 0 km/h
1190 23-05-2009 11:08:02 19.5 C 6.21 g/m*3 19.5 C 0 km/h
1191 23-05-2009 11:20:02 19.7 C 6.11 g/m*3 19.7 C 0 km/h
1192 23-05-2009 11:32:03 19.8 C 5.98 g/m*3 19.8 C 0 km/h
1193 23-05-2009 11:44:03 20.8 C 6.16 g/m*3 20.8 C 0 km/h
1194 23-05-2009 11:56:02 21.6 C 5.88 g/m*3 21.6 C 0 km/h
1195 23-05-2009 12:08:02 22 C 5.43 g/m*3 22 C 0 km/h
1196 23-05-2009 12:20:01 23.1 C 5.17 g/m*3 23.1 C 0 km/h
1197 23-05-2009 12:32:01 23.9 C 5.41 g/m*3 23.9 C 0 km/h
1198 23-05-2009 12:44:01 24.5 C 5.37 g/m*3 24.5 C 0 km/h
1199 23-05-2009 12:56:01 24.2 C 4.84 g/m*3 24.2 C 0 km/h
1200 23-05-2009 13:08:01 24.9 C 5.04 g/m*3 24.9 C 0 km/h
Sensor: Nr:Datum:Temp:Abs-Feuchte:Windchill:Wind:
Aussen-T/F 1201 23-05-2009 13:20:01 26.2 C 4.92 g/m*3 26.2 C 0 km/h
1202 23-05-2009 13:32:00 25.8 C 4.82 g/m*3 25.8 C 0 km/h
1203 23-05-2009 13:44:00 26.8 C 5.09 g/m*3 26.8 C 0 km/h
1204 23-05-2009 13:56:01 26.3 C 4.95 g/m*3 26.3 C 0 km/h
1205 23-05-2009 14:08:00 26 C 5.11 g/m*3 26 C 0 km/h
1206 23-05-2009 14:20:00 25.7 C 5.03 g/m*3 25.7 C 0 km/h
1207 23-05-2009 14:32:00 26.1 C 4.9 g/m*3 26.1 C 0 km/h
1208 23-05-2009 14:44:00 26.7 C 5.32 g/m*3 26.7 C 0 km/h
1209 23-05-2009 14:56:00 27.4 C 5.26 g/m*3 27.4 C 0 km/h
1210 23-05-2009 15:08:00 27.3 C 5.23 g/m*3 27.3 C 0 km/h
1211 23-05-2009 15:20:59 27.6 C 5.32 g/m*3 27.6 C 0 km/h
1212 23-05-2009 15:44:00 28.5 C 5.59 g/m*3 28.5 C 0 km/h
1213 23-05-2009 15:44:59 29.3 C 5.84 g/m*3 29.3 C 0 km/h
1214 23-05-2009 15:56:59 28.9 C 5.71 g/m*3 28.9 C 0 km/h
1215 23-05-2009 16:08:59 29.9 C 6.03 g/m*3 29.9 C 0 km/h
1216 23-05-2009 16:19:59 29.2 C 5.81 g/m*3 29.2 C 0 km/h
1217 23-05-2009 16:32:59 30.1 C 6.1 g/m*3 30.1 C 0 km/h
1218 23-05-2009 16:44:59 30.4 C 6.2 g/m*3 30.4 C 0 km/h
1219 23-05-2009 16:56:59 30.9 C 6.37 g/m*3 30.9 C 0 km/h
1220 23-05-2009 17:08:58 30.4 C 6.2 g/m*3 30.4 C 0 km/h
1221 23-05-2009 17:20:59 30.8 C 6.33 g/m*3 30.8 C 0 km/h
1222 23-05-2009 17:32:58 30.8 C 6.33 g/m*3 30.8 C 0 km/h
1223 23-05-2009 17:44:59 31.2 C 6.47 g/m*3 31.2 C 0 km/h
1224 23-05-2009 17:56:59 30.7 C 6.3 g/m*3 30.7 C 0 km/h
1225 23-05-2009 18:08:58 30.1 C 6.1 g/m*3 30.1 C 0 km/h
Sensor: Nr:Datum:Temp:Abs-Feuchte:Windchill:Wind:
Aussen-T/F 1226 23-05-2009 18:20:58 30.5 C 6.23 g/m*3 30.5 C 0 km/h
1227 23-05-2009 18:32:57 29.9 C 6.03 g/m*3 29.9 C 0 km/h
1228 23-05-2009 18:44:58 28.6 C 5.9 g/m*3 28.6 C 0 km/h
1229 23-05-2009 18:56:59 28.3 C 7.74 g/m*3 28.3 C 0 km/h
1230 23-05-2009 19:08:57 26.8 C 7.38 g/m*3 26.8 C 0 km/h
1231 23-05-2009 19:20:57 25.5 C 7.58 g/m*3 25.5 C 0 km/h
1232 23-05-2009 19:32:58 24.6 C 7.43 g/m*3 24.6 C 0 km/h
1233 23-05-2009 19:44:57 24 C 6.96 g/m*3 24 C 0 km/h
1234 23-05-2009 19:56:57 23.8 C 7.53 g/m*3 23.8 C 0 km/h
1235 23-05-2009 20:08:57 23.4 C 7.15 g/m*3 23.4 C 0 km/h
1236 23-05-2009 20:20:57 23.1 C 7.03 g/m*3 23.1 C 0 km/h
1237 23-05-2009 20:32:57 22.8 C 7.11 g/m*3 22.8 C 0 km/h
1238 23-05-2009 20:44:56 22.4 C 6.75 g/m*3 22.4 C 0 km/h
1239 23-05-2009 20:56:56 22 C 6.99 g/m*3 22 C 0 km/h
1240 23-05-2009 21:08:56 21.5 C 7.54 g/m*3 21.5 C 0 km/h
1241 23-05-2009 21:20:56 21 C 7.51 g/m*3 21 C 0 km/h
1242 23-05-2009 21:32:56 20.7 C 7.56 g/m*3 20.7 C 0 km/h
1243 23-05-2009 21:44:56 20.6 C 7.52 g/m*3 20.6 C 0 km/h
1244 23-05-2009 21:56:56 20.3 C 7.56 g/m*3 20.3 C 0 km/h
1245 23-05-2009 22:08:55 20.2 C 7.34 g/m*3 20.2 C 0 km/h
1246 23-05-2009 22:20:56 20 C 7.43 g/m*3 20 C 0 km/h
1247 23-05-2009 22:32:56 20 C 7.43 g/m*3 20 C 0 km/h
1248 23-05-2009 22:45:03 19.7 C 7.64 g/m*3 19.7 C 0 km/h
1249 23-05-2009 22:57:03 19.6 C 7.6 g/m*3 19.6 C 0 km/h
1250 23-05-2009 23:09:03 19.4 C 7.84 g/m*3 19.4 C 0 km/h
Sensor: Nr:Datum:Temp:Abs-Feuchte:Windchill:Wind:
Aussen-T/F 1251 23-05-2009 23:21:03 19.1 C 8.03 g/m*3 19.1 C 0 km/h
1252 23-05-2009 23:33:03 19.1 C 8.2 g/m*3 19.1 C 0 km/h
1253 23-05-2009 23:45:04 18.9 C 7.94 g/m*3 18.9 C 0 km/h
1254 23-05-2009 23:57:04 18.5 C 7.59 g/m*3 18.5 C 0 km/h
1255 24-05-2009 00:09:04 18.3 C 7.66 g/m*3 18.3 C 0 km/h
1256 24-05-2009 00:21:04 17.9 C 7.63 g/m*3 17.9 C 0 km/h
1257 24-05-2009 00:33:04 17.7 C 7.85 g/m*3 17.7 C 0 km/h
1258 24-05-2009 00:45:04 17.7 C 7.85 g/m*3 17.7 C 0 km/h
1259 24-05-2009 00:57:04 17.6 C 7.8 g/m*3 17.6 C 0 km/h
1260 24-05-2009 01:09:04 17.5 C 7.75 g/m*3 17.5 C 0 km/h
1261 24-05-2009 01:21:04 17.2 C 7.91 g/m*3 17.2 C 0 km/h
1262 24-05-2009 01:33:04 17 C 7.96 g/m*3 17 C 0 km/h
1263 24-05-2009 01:45:04 17 C 8.1 g/m*3 17 C 0 km/h
1264 24-05-2009 01:57:04 16.8 C 8.29 g/m*3 16.8 C 0 km/h
1265 24-05-2009 02:09:04 16.7 C 8.38 g/m*3 16.7 C 0 km/h
1266 24-05-2009 02:21:04 16.4 C 8.37 g/m*3 16.4 C 0 km/h
1267 24-05-2009 02:33:04 16 C 8.31 g/m*3 16 C 0 km/h
1268 24-05-2009 02:45:04 15.9 C 8.53 g/m*3 15.9 C 0 km/h
1269 24-05-2009 02:57:04 15.7 C 8.43 g/m*3 15.7 C 0 km/h
1270 24-05-2009 03:09:04 15.3 C 8.36 g/m*3 15.3 C 0 km/h
1271 24-05-2009 03:21:04 15.2 C 8.44 g/m*3 15.2 C 0 km/h
1272 24-05-2009 03:33:05 14.9 C 8.41 g/m*3 14.9 C 0 km/h
1273 24-05-2009 03:45:05 14.8 C 8.49 g/m*3 14.8 C 0 km/h
1274 24-05-2009 03:57:05 14.6 C 8.63 g/m*3 14.6 C 0 km/h
1275 24-05-2009 04:09:05 14.2 C 8.67 g/m*3 14.2 C 0 km/h
Sensor: Nr:Datum:Temp:Abs-Feuchte:Windchill:Wind:
Aussen-T/F 1276 24-05-2009 04:21:05 14.1 C 8.62 g/m*3 14.1 C 0 km/h
1277 24-05-2009 04:33:05 13.9 C 8.51 g/m*3 13.9 C 0 km/h
1278 24-05-2009 04:45:05 13.9 C 8.51 g/m*3 13.9 C 0 km/h
1279 24-05-2009 04:57:05 13.8 C 8.46 g/m*3 13.8 C 0 km/h
1280 24-05-2009 05:09:05 13.5 C 8.42 g/m*3 13.5 C 0 km/h
1281 24-05-2009 05:21:05 13.5 C 8.66 g/m*3 13.5 C 0 km/h
1282 24-05-2009 05:33:05 13.3 C 8.55 g/m*3 13.3 C 0 km/h
1283 24-05-2009 05:45:05 13.3 C 8.55 g/m*3 13.3 C 0 km/h
1284 24-05-2009 05:57:05 13.3 C 8.55 g/m*3 13.3 C 0 km/h
1285 24-05-2009 06:09:05 13.4 C 8.6 g/m*3 13.4 C 0 km/h
1286 24-05-2009 06:21:05 13.5 C 8.77 g/m*3 13.5 C 0 km/h
1287 24-05-2009 06:33:05 13.5 C 8.89 g/m*3 13.5 C 0 km/h
1288 24-05-2009 06:45:05 13.4 C 8.95 g/m*3 13.4 C 0 km/h
1289 24-05-2009 06:57:05 13.3 C 8.9 g/m*3 13.3 C 0 km/h
1290 24-05-2009 07:09:05 13.4 C 8.95 g/m*3 13.4 C 0 km/h
1291 24-05-2009 07:21:56 13.5 C 9.01 g/m*3 13.5 C 0 km/h
1292 24-05-2009 07:33:57 13.8 C 9.17 g/m*3 13.8 C 0 km/h
1293 24-05-2009 07:45:56 13.9 C 9.11 g/m*3 13.9 C 0 km/h
1294 24-05-2009 07:57:56 14.3 C 9.09 g/m*3 14.3 C 0 km/h
1295 24-05-2009 08:09:56 14.7 C 9.19 g/m*3 14.7 C 0 km/h
1296 24-05-2009 08:21:56 15.2 C 9.09 g/m*3 15.2 C 0 km/h
1297 24-05-2009 08:33:56 15.6 C 9.18 g/m*3 15.6 C 0 km/h
1298 24-05-2009 08:45:56 16.1 C 9.32 g/m*3 16.1 C 0 km/h
1299 24-05-2009 08:57:56 16.8 C 9.44 g/m*3 16.8 C 0 km/h
1300 24-05-2009 09:09:55 17.4 C 9.19 g/m*3 17.4 C 0 km/h
Sensor: Nr:Datum:Temp:Abs-Feuchte:Windchill:Wind:
Aussen-T/F 1301 24-05-2009 09:21:56 17.9 C 8.86 g/m*3 17.9 C 0 km/h
1302 24-05-2009 09:33:55 18.7 C 8.97 g/m*3 18.7 C 0 km/h
1303 24-05-2009 09:45:56 19.3 C 8.46 g/m*3 19.3 C 0 km/h
1304 24-05-2009 09:57:56 19.9 C 8.76 g/m*3 19.9 C 0 km/h
1305 24-05-2009 10:09:55 20.1 C 8.34 g/m*3 20.1 C 0 km/h
1306 24-05-2009 10:21:55 21 C 8.24 g/m*3 21 C 0 km/h
1307 24-05-2009 10:33:55 21.2 C 8.34 g/m*3 21.2 C 0 km/h
1308 24-05-2009 10:45:55 22.2 C 8.44 g/m*3 22.2 C 0 km/h
1309 24-05-2009 10:57:55 22.6 C 8.44 g/m*3 22.6 C 0 km/h
1310 24-05-2009 11:09:55 23.8 C 9.46 g/m*3 23.8 C 0 km/h
1311 24-05-2009 11:21:54 24.2 C 8.14 g/m*3 24.2 C 0 km/h
1312 24-05-2009 11:33:55 25.3 C 7.96 g/m*3 25.3 C 0 km/h
1313 24-05-2009 11:45:54 25.5 C 7.81 g/m*3 25.5 C 0 km/h
1314 24-05-2009 11:57:54 26 C 8.03 g/m*3 26 C 0 km/h
1315 24-05-2009 12:09:54 25.6 C 7.14 g/m*3 25.6 C 0 km/h
1316 24-05-2009 12:21:54 26.9 C 7.68 g/m*3 26.9 C 0 km/h
1317 24-05-2009 12:33:54 27.6 C 7.18 g/m*3 27.6 C 0 km/h
1318 24-05-2009 12:45:53 28.6 C 7.59 g/m*3 28.6 C 0 km/h
1319 24-05-2009 12:57:53 29.7 C 7.46 g/m*3 29.7 C 0 km/h
1320 24-05-2009 13:09:53 30.1 C 7.01 g/m*3 30.1 C 0 km/h
1321 24-05-2009 13:21:54 30.6 C 6.89 g/m*3 30.6 C 0 km/h
1322 24-05-2009 13:33:53 30.3 C 6.78 g/m*3 30.3 C 0 km/h
1323 24-05-2009 13:45:53 29.2 C 6.1 g/m*3 29.2 C 0 km/h
1324 24-05-2009 13:57:53 29.1 C 6.64 g/m*3 29.1 C 0 km/h
1325 24-05-2009 14:09:53 29.1 C 6.64 g/m*3 29.1 C 0 km/h
Sensor: Nr:Datum:Temp:Abs-Feuchte:Windchill:Wind:
Aussen-T/F 1326 24-05-2009 14:21:53 28.5 C 6.99 g/m*3 28.5 C 0 km/h
1327 24-05-2009 14:33:52 28.8 C 7.1 g/m*3 28.8 C 0 km/h
1328 24-05-2009 14:45:53 29 C 6.89 g/m*3 29 C 0 km/h
1329 24-05-2009 14:57:54 30.6 C 6.89 g/m*3 30.6 C 0 km/h
1330 24-05-2009 15:09:52 30.3 C 6.78 g/m*3 30.3 C 0 km/h
1331 24-05-2009 15:21:52 31.2 C 6.47 g/m*3 31.2 C 0 km/h
1332 24-05-2009 15:33:52 31.4 C 6.54 g/m*3 31.4 C 0 km/h
1333 24-05-2009 15:45:52 31.9 C 6.72 g/m*3 31.9 C 0 km/h
1334 24-05-2009 15:57:52 31.9 C 6.72 g/m*3 31.9 C 0 km/h
1335 24-05-2009 16:09:52 32.1 C 6.79 g/m*3 32.1 C 0 km/h
1336 24-05-2009 16:21:52 31.9 C 6.72 g/m*3 31.9 C 0 km/h
1337 24-05-2009 16:33:52 31.7 C 6.64 g/m*3 31.7 C 0 km/h
1338 24-05-2009 16:45:51 31.5 C 6.9 g/m*3 31.5 C 0 km/h
1339 24-05-2009 16:57:51 31.5 C 6.9 g/m*3 31.5 C 0 km/h
1340 24-05-2009 17:09:52 30.7 C 7.24 g/m*3 30.7 C 0 km/h
1341 24-05-2009 17:21:51 31 C 7.04 g/m*3 31 C 0 km/h
1342 24-05-2009 17:33:51 31.3 C 6.83 g/m*3 31.3 C 0 km/h
1343 24-05-2009 17:45:51 31.9 C 6.72 g/m*3 31.9 C 0 km/h
1344 24-05-2009 17:57:51 32 C 6.75 g/m*3 32 C 0 km/h
1345 24-05-2009 18:09:51 31.3 C 6.83 g/m*3 31.3 C 0 km/h
1346 24-05-2009 18:21:51 31.5 C 6.9 g/m*3 31.5 C 0 km/h
1347 24-05-2009 18:33:50 31.7 C 6.98 g/m*3 31.7 C 0 km/h
1348 24-05-2009 18:45:50 31.7 C 6.64 g/m*3 31.7 C 0 km/h
1349 24-05-2009 18:57:50 31.2 C 6.79 g/m*3 31.2 C 0 km/h
1350 24-05-2009 19:09:50 31.1 C 7.4 g/m*3 31.1 C 0 km/h
Sensor: Nr:Datum:Temp:Abs-Feuchte:Windchill:Wind:
Aussen-T/F 1351 24-05-2009 19:21:50 30.9 C 7 g/m*3 30.9 C 0 km/h
1352 24-05-2009 19:33:50 30.9 C 7.64 g/m*3 30.9 C 0 km/h
1353 24-05-2009 19:45:50 30.2 C 7.66 g/m*3 30.2 C 0 km/h
1354 24-05-2009 19:57:50 30 C 7.88 g/m*3 30 C 0 km/h
1355 24-05-2009 20:09:50 28.9 C 8 g/m*3 28.9 C 0 km/h
1356 24-05-2009 20:21:49 28.7 C 8.48 g/m*3 28.7 C 0 km/h
1357 24-05-2009 20:33:49 28.2 C 8.8 g/m*3 28.2 C 0 km/h
1358 24-05-2009 20:45:49 27.2 C 9.37 g/m*3 27.2 C 0 km/h
1359 24-05-2009 20:57:49 26 C 9.25 g/m*3 26 C 0 km/h
1360 24-05-2009 21:09:49 25.2 C 9.31 g/m*3 25.2 C 0 km/h
1361 24-05-2009 21:21:49 24.3 C 9.29 g/m*3 24.3 C 0 km/h
1362 24-05-2009 21:33:48 24 C 9.14 g/m*3 24 C 0 km/h
1363 24-05-2009 21:45:49 23.9 C 9.3 g/m*3 23.9 C 0 km/h
1364 24-05-2009 21:57:49 23.6 C 9.36 g/m*3 23.6 C 0 km/h
1365 24-05-2009 22:09:48 23.2 C 9.56 g/m*3 23.2 C 0 km/h
1366 24-05-2009 22:22:49 22.9 C 9.61 g/m*3 22.9 C 0 km/h
1367 24-05-2009 22:34:49 22.8 C 9.75 g/m*3 22.8 C 0 km/h
1368 24-05-2009 22:46:49 22.5 C 9.39 g/m*3 22.5 C 0 km/h
1369 24-05-2009 22:58:49 22.3 C 9.68 g/m*3 22.3 C 0 km/h
1370 24-05-2009 23:10:49 22 C 9.7 g/m*3 22 C 0 km/h
1371 24-05-2009 23:22:49 21.7 C 9.92 g/m*3 21.7 C 0 km/h
1372 24-05-2009 23:34:49 21.5 C 9.81 g/m*3 21.5 C 0 km/h
1373 24-05-2009 23:46:49 21.2 C 9.82 g/m*3 21.2 C 0 km/h
1374 24-05-2009 23:58:49 21 C 9.89 g/m*3 21 C 0 km/h
1375 25-05-2009 00:10:49 20.7 C 9.9 g/m*3 20.7 C 0 km/h
Sensor: Nr:Datum:Temp:Abs-Feuchte:Windchill:Wind:
Aussen-T/F 1376 25-05-2009 00:22:49 20.5 C 10.14 g/m*3 20.5 C 0 km/h
1377 25-05-2009 00:34:49 20.3 C 10.02 g/m*3 20.3 C 0 km/h
1378 25-05-2009 00:46:49 20 C 10.02 g/m*3 20 C 0 km/h
1379 25-05-2009 00:58:49 19.6 C 10.3 g/m*3 19.6 C 0 km/h
1380 25-05-2009 01:10:49 19.4 C 10.18 g/m*3 19.4 C 0 km/h
1381 25-05-2009 01:22:49 19.3 C 10.12 g/m*3 19.3 C 0 km/h
1382 25-05-2009 01:34:49 19.2 C 10.06 g/m*3 19.2 C 0 km/h
1383 25-05-2009 01:46:49 18.9 C 10.37 g/m*3 18.9 C 0 km/h
1384 25-05-2009 01:58:49 18.7 C 10.41 g/m*3 18.7 C 0 km/h
1385 25-05-2009 02:10:49 18.6 C 10.35 g/m*3 18.6 C 0 km/h
1386 25-05-2009 02:22:50 18.4 C 10.38 g/m*3 18.4 C 0 km/h
1387 25-05-2009 02:34:50 18.2 C 10.26 g/m*3 18.2 C 0 km/h
1388 25-05-2009 02:46:50 18 C 10.14 g/m*3 18 C 0 km/h
1389 25-05-2009 02:58:50 17.9 C 10.23 g/m*3 17.9 C 0 km/h
1390 25-05-2009 03:10:50 17.7 C 10.26 g/m*3 17.7 C 0 km/h
1391 25-05-2009 03:22:50 17.5 C 10.29 g/m*3 17.5 C 0 km/h
1392 25-05-2009 03:34:50 17.4 C 10.23 g/m*3 17.4 C 0 km/h
1393 25-05-2009 03:46:50 17.3 C 10.31 g/m*3 17.3 C 0 km/h
1394 25-05-2009 03:58:50 17.1 C 10.19 g/m*3 17.1 C 0 km/h
1395 25-05-2009 04:10:50 17 C 10.27 g/m*3 17 C 0 km/h
1396 25-05-2009 04:22:50 16.9 C 10.36 g/m*3 16.9 C 0 km/h
1397 25-05-2009 04:34:50 16.7 C 10.37 g/m*3 16.7 C 0 km/h
1398 25-05-2009 04:46:50 16.5 C 10.25 g/m*3 16.5 C 0 km/h
1399 25-05-2009 04:58:50 16.4 C 10.19 g/m*3 16.4 C 0 km/h
1400 25-05-2009 05:10:50 16.2 C 10.2 g/m*3 16.2 C 0 km/h
Sensor: Nr:Datum:Temp:Abs-Feuchte:Windchill:Wind:
Aussen-T/F 1401 25-05-2009 05:22:50 16.1 C 10.14 g/m*3 16.1 C 0 km/h
1402 25-05-2009 05:34:50 15.9 C 10.16 g/m*3 15.9 C 0 km/h
1403 25-05-2009 05:46:50 15.9 C 10.29 g/m*3 15.9 C 0 km/h
1404 25-05-2009 05:58:50 15.8 C 10.23 g/m*3 15.8 C 0 km/h
1405 25-05-2009 06:10:51 15.7 C 10.3 g/m*3 15.7 C 0 km/h
1406 25-05-2009 06:22:51 15.6 C 10.24 g/m*3 15.6 C 0 km/h
1407 25-05-2009 06:34:51 15.8 C 10.36 g/m*3 15.8 C 0 km/h
1408 25-05-2009 06:46:51 16 C 10.49 g/m*3 16 C 0 km/h
1409 25-05-2009 06:58:51 16 C 10.49 g/m*3 16 C 0 km/h
1410 25-05-2009 07:10:48 16 C 10.49 g/m*3 16 C 0 km/h
1411 25-05-2009 07:22:48 16.2 C 10.62 g/m*3 16.2 C 0 km/h
1412 25-05-2009 07:34:48 16.2 C 10.62 g/m*3 16.2 C 0 km/h
1413 25-05-2009 07:46:48 16.4 C 10.61 g/m*3 16.4 C 0 km/h
1414 25-05-2009 07:58:48 16.7 C 10.8 g/m*3 16.7 C 0 km/h
1415 25-05-2009 08:10:47 17.2 C 10.98 g/m*3 17.2 C 0 km/h
1416 25-05-2009 08:22:48 17.5 C 11.03 g/m*3 17.5 C 0 km/h
1417 25-05-2009 08:34:48 17.9 C 10.99 g/m*3 17.9 C 0 km/h
1418 25-05-2009 08:46:47 18.3 C 10.94 g/m*3 18.3 C 0 km/h
1419 25-05-2009 08:58:47 18.8 C 11.27 g/m*3 18.8 C 0 km/h
1420 25-05-2009 09:10:48 19.5 C 11.08 g/m*3 19.5 C 0 km/h
1421 25-05-2009 09:22:47 20.3 C 10.73 g/m*3 20.3 C 0 km/h
1422 25-05-2009 09:34:47 21 C 10.62 g/m*3 21 C 0 km/h
1423 25-05-2009 09:46:46 21.5 C 10.75 g/m*3 21.5 C 0 km/h
1424 25-05-2009 09:58:46 22.2 C 10.6 g/m*3 22.2 C 0 km/h
1425 25-05-2009 10:10:47 22.9 C 10.42 g/m*3 22.9 C 0 km/h
Sensor: Nr:Datum:Temp:Abs-Feuchte:Windchill:Wind:
Aussen-T/F 1426 25-05-2009 10:22:47 23.7 C 10.69 g/m*3 23.7 C 0 km/h
1427 25-05-2009 10:34:46 24.4 C 10.46 g/m*3 24.4 C 0 km/h
1428 25-05-2009 10:46:47 24.9 C 10.53 g/m*3 24.9 C 0 km/h
1429 25-05-2009 10:58:47 25.8 C 10.11 g/m*3 25.8 C 0 km/h
1430 25-05-2009 11:10:46 26.4 C 10.7 g/m*3 26.4 C 0 km/h
1431 25-05-2009 11:22:46 27.2 C 9.89 g/m*3 27.2 C 0 km/h
1432 25-05-2009 11:34:01 27.3 C 9.94 g/m*3 27.3 C 0 km/h
1433 25-05-2009 11:46:01 28 C 9.79 g/m*3 28 C 0 km/h
1434 25-05-2009 11:58:02 28.7 C 9.61 g/m*3 28.7 C 0 km/h
1435 25-05-2009 12:10:01 29.7 C 9.85 g/m*3 29.7 C 0 km/h
1436 25-05-2009 12:22:01 29.8 C 9.6 g/m*3 29.8 C 0 km/h
1437 25-05-2009 12:34:01 30.6 C 9.08 g/m*3 30.6 C 0 km/h
1438 25-05-2009 12:46:01 31.3 C 8.78 g/m*3 31.3 C 0 km/h
1439 25-05-2009 12:58:01 31.5 C 8.55 g/m*3 31.5 C 0 km/h
1440 25-05-2009 13:10:01 31.8 C 8.02 g/m*3 31.8 C 0 km/h
1441 25-05-2009 13:22:00 31.8 C 7.35 g/m*3 31.8 C 0 km/h
1442 25-05-2009 13:34:01 32.2 C 7.85 g/m*3 32.2 C 0 km/h
1443 25-05-2009 13:46:00 32.4 C 6.9 g/m*3 32.4 C 0 km/h
1444 25-05-2009 13:58:00 32.3 C 7.2 g/m*3 32.3 C 0 km/h
1445 25-05-2009 14:10:00 32 C 7.09 g/m*3 32 C 0 km/h
1446 25-05-2009 14:22:59 32 C 7.76 g/m*3 32 C 0 km/h
1447 25-05-2009 14:34:00 32.3 C 7.2 g/m*3 32.3 C 0 km/h
1448 25-05-2009 14:46:59 32.6 C 6.97 g/m*3 32.6 C 0 km/h
1449 25-05-2009 14:58:59 32.6 C 7.67 g/m*3 32.6 C 0 km/h
1450 25-05-2009 15:10:59 33.2 C 7.55 g/m*3 33.2 C 0 km/h
Sensor: Nr:Datum:Temp:Abs-Feuchte:Windchill:Wind:
Aussen-T/F 1451 25-05-2009 15:22:00 33.3 C 7.23 g/m*3 33.3 C 0 km/h
1452 25-05-2009 15:34:59 33.3 C 7.23 g/m*3 33.3 C 0 km/h
1453 25-05-2009 15:46:59 33.4 C 7.27 g/m*3 33.4 C 0 km/h
1454 25-05-2009 15:58:59 33.6 C 7.35 g/m*3 33.6 C 0 km/h
1455 25-05-2009 16:10:59 33.1 C 7.52 g/m*3 33.1 C 0 km/h
1456 25-05-2009 16:22:59 33.1 C 8.59 g/m*3 33.1 C 0 km/h
1457 25-05-2009 16:34:59 32.4 C 10 g/m*3 32.4 C 0 km/h
1458 25-05-2009 16:46:58 31.9 C 10.75 g/m*3 31.9 C 0 km/h
1459 25-05-2009 16:58:58 31.3 C 11.38 g/m*3 31.3 C 0 km/h
1460 25-05-2009 17:10:59 30.6 C 11.9 g/m*3 30.6 C 0 km/h
1461 25-05-2009 17:22:58 29.8 C 12.6 g/m*3 29.8 C 0 km/h
1462 25-05-2009 17:34:58 29.1 C 12.71 g/m*3 29.1 C 0 km/h
1463 25-05-2009 17:46:58 28.2 C 12.92 g/m*3 28.2 C 0 km/h
1464 25-05-2009 17:58:58 28 C 12.51 g/m*3 28 C 0 km/h
1465 25-05-2009 18:10:57 27.6 C 11.97 g/m*3 27.6 C 0 km/h
1466 25-05-2009 18:22:58 26.8 C 7.64 g/m*3 26.8 C 0 km/h
1467 25-05-2009 18:34:57 26.4 C 7.47 g/m*3 26.4 C 0 km/h
1468 25-05-2009 18:46:57 25.9 C 7.26 g/m*3 25.9 C 0 km/h
1469 25-05-2009 18:58:57 25.8 C 8.19 g/m*3 25.8 C 0 km/h
1470 25-05-2009 19:10:57 25.2 C 7.92 g/m*3 25.2 C 0 km/h
1471 25-05-2009 19:22:57 25 C 8.06 g/m*3 25 C 0 km/h
1472 25-05-2009 19:34:57 25.3 C 7.96 g/m*3 25.3 C 0 km/h
1473 25-05-2009 19:46:57 25.5 C 8.76 g/m*3 25.5 C 0 km/h
1474 25-05-2009 19:58:57 25.4 C 8.48 g/m*3 25.4 C 0 km/h
1475 25-05-2009 20:10:57 25.5 C 9.23 g/m*3 25.5 C 0 km/h
Sensor: Nr:Datum:Temp:Abs-Feuchte:Windchill:Wind:
Aussen-T/F 1476 25-05-2009 20:22:56 25.8 C 9.15 g/m*3 25.8 C 0 km/h
1477 25-05-2009 20:34:56 26.2 C 8.86 g/m*3 26.2 C 0 km/h
1478 25-05-2009 20:46:56 26.1 C 10.04 g/m*3 26.1 C 0 km/h
1479 25-05-2009 20:58:56 25.5 C 9.94 g/m*3 25.5 C 0 km/h
1480 25-05-2009 21:10:56 24.9 C 10.3 g/m*3 24.9 C 0 km/h
1481 25-05-2009 21:22:56 24.1 C 10.28 g/m*3 24.1 C 0 km/h
1482 25-05-2009 21:34:56 23.4 C 10.09 g/m*3 23.4 C 0 km/h
1483 25-05-2009 21:46:55 22.8 C 9.96 g/m*3 22.8 C 0 km/h
1484 25-05-2009 21:58:55 22.4 C 9.93 g/m*3 22.4 C 0 km/h
1485 25-05-2009 22:10:55 22.1 C 9.96 g/m*3 22.1 C 0 km/h
1486 25-05-2009 22:23:57 21.9 C 9.84 g/m*3 21.9 C 0 km/h
1487 25-05-2009 22:35:57 21.7 C 9.92 g/m*3 21.7 C 0 km/h
1488 25-05-2009 22:47:57 21.7 C 10.3 g/m*3 21.7 C 0 km/h
1489 25-05-2009 22:59:57 21.5 C 10.37 g/m*3 21.5 C 0 km/h
1490 25-05-2009 23:11:57 21.2 C 10.38 g/m*3 21.2 C 0 km/h
1491 25-05-2009 23:23:57 21 C 10.26 g/m*3 21 C 0 km/h
1492 25-05-2009 23:35:57 20.8 C 10.5 g/m*3 20.8 C 0 km/h
1493 25-05-2009 23:47:57 20.5 C 10.5 g/m*3 20.5 C 0 km/h
1494 25-05-2009 23:59:57 20.4 C 10.61 g/m*3 20.4 C 0 km/h
1495 26-05-2009 00:11:57 20.2 C 10.84 g/m*3 20.2 C 0 km/h
1496 26-05-2009 00:23:57 20 C 10.89 g/m*3 20 C 0 km/h
1497 26-05-2009 00:35:57 19.9 C 11 g/m*3 19.9 C 0 km/h
1498 26-05-2009 00:47:57 19.7 C 11.04 g/m*3 19.7 C 0 km/h
1499 26-05-2009 00:59:57 19.5 C 11.24 g/m*3 19.5 C 0 km/h
1500 26-05-2009 01:11:57 19.3 C 11.11 g/m*3 19.3 C 0 km/h
Sensor: Nr:Datum:Temp:Abs-Feuchte:Windchill:Wind:
Aussen-T/F 1501 26-05-2009 01:23:58 19.2 C 11.05 g/m*3 19.2 C 0 km/h
1502 26-05-2009 01:35:58 18.9 C 11.18 g/m*3 18.9 C 0 km/h
1503 26-05-2009 01:47:58 18.9 C 11.5 g/m*3 18.9 C 0 km/h
1504 26-05-2009 01:59:58 19.1 C 11.47 g/m*3 19.1 C 0 km/h
1505 26-05-2009 02:11:58 18.8 C 11.43 g/m*3 18.8 C 0 km/h
1506 26-05-2009 02:23:58 18.6 C 11.3 g/m*3 18.6 C 0 km/h
1507 26-05-2009 02:35:58 18.5 C 11.39 g/m*3 18.5 C 0 km/h
1508 26-05-2009 02:47:58 18.3 C 11.41 g/m*3 18.3 C 0 km/h
1509 26-05-2009 02:59:58 18.3 C 11.41 g/m*3 18.3 C 0 km/h
1510 26-05-2009 03:11:58 18.4 C 11.48 g/m*3 18.4 C 0 km/h
1511 26-05-2009 03:23:58 18.4 C 11.48 g/m*3 18.4 C 0 km/h
1512 26-05-2009 03:35:58 18.5 C 11.55 g/m*3 18.5 C 0 km/h
1513 26-05-2009 03:47:58 18.3 C 11.41 g/m*3 18.3 C 0 km/h
1514 26-05-2009 03:59:58 18 C 11.37 g/m*3 18 C 0 km/h
1515 26-05-2009 04:11:58 17.9 C 11.45 g/m*3 17.9 C 0 km/h
1516 26-05-2009 04:23:58 17.7 C 11.47 g/m*3 17.7 C 0 km/h
1517 26-05-2009 04:35:58 17.5 C 11.48 g/m*3 17.5 C 0 km/h
1518 26-05-2009 04:47:58 17.4 C 11.56 g/m*3 17.4 C 0 km/h
1519 26-05-2009 04:59:58 17.3 C 11.34 g/m*3 17.3 C 0 km/h
1520 26-05-2009 05:11:58 17.2 C 11.42 g/m*3 17.2 C 0 km/h
1521 26-05-2009 05:23:58 17.2 C 11.42 g/m*3 17.2 C 0 km/h
1522 26-05-2009 05:35:59 17.4 C 11.86 g/m*3 17.4 C 0 km/h
1523 26-05-2009 05:47:59 17.6 C 11.85 g/m*3 17.6 C 0 km/h
1524 26-05-2009 05:59:59 17.6 C 11.55 g/m*3 17.6 C 0 km/h
1525 26-05-2009 06:11:59 17.6 C 11.7 g/m*3 17.6 C 0 km/h
Sensor: Nr:Datum:Temp:Abs-Feuchte:Windchill:Wind:
Aussen-T/F 1526 26-05-2009 06:23:59 17.7 C 11.77 g/m*3 17.7 C 0 km/h
1527 26-05-2009 06:35:56 18 C 11.83 g/m*3 18 C 0 km/h
1528 26-05-2009 06:47:56 18.2 C 11.81 g/m*3 18.2 C 0 km/h
1529 26-05-2009 06:59:56 18.4 C 12.11 g/m*3 18.4 C 0 km/h
1530 26-05-2009 07:11:56 18.5 C 12.02 g/m*3 18.5 C 0 km/h
1531 26-05-2009 07:23:56 18.7 C 12.17 g/m*3 18.7 C 0 km/h
1532 26-05-2009 07:35:56 18.7 C 12.01 g/m*3 18.7 C 0 km/h
1533 26-05-2009 07:47:55 19.1 C 11.97 g/m*3 19.1 C 0 km/h
1534 26-05-2009 07:59:55 19.3 C 11.94 g/m*3 19.3 C 0 km/h
1535 26-05-2009 08:11:56 19.6 C 12.15 g/m*3 19.6 C 0 km/h
1536 26-05-2009 08:23:55 20.1 C 12.17 g/m*3 20.1 C 0 km/h
1537 26-05-2009 08:35:55 20.9 C 10.93 g/m*3 20.9 C 0 km/h
1538 26-05-2009 08:47:55 21.4 C 9.75 g/m*3 21.4 C 0 km/h
1539 26-05-2009 08:59:55 21.5 C 9.43 g/m*3 21.5 C 0 km/h
1540 26-05-2009 09:11:55 21.4 C 9.94 g/m*3 21.4 C 0 km/h
1541 26-05-2009 09:23:54 20.4 C 10.61 g/m*3 20.4 C 0 km/h
1542 26-05-2009 09:35:54 21.2 C 10.75 g/m*3 21.2 C 0 km/h
1543 26-05-2009 09:47:55 21.8 C 10.55 g/m*3 21.8 C 0 km/h
1544 26-05-2009 09:59:55 22.5 C 10.39 g/m*3 22.5 C 0 km/h
1545 26-05-2009 10:11:54 23 C 10.07 g/m*3 23 C 0 km/h
1546 26-05-2009 10:23:54 22.8 C 9.75 g/m*3 22.8 C 0 km/h
1547 26-05-2009 10:35:54 22.9 C 10.01 g/m*3 22.9 C 0 km/h
1548 26-05-2009 10:47:54 23.1 C 9.72 g/m*3 23.1 C 0 km/h
1549 26-05-2009 10:59:55 23.7 C 9.84 g/m*3 23.7 C 0 km/h
1550 26-05-2009 11:11:53 23.8 C 9.9 g/m*3 23.8 C 0 km/h
Sensor: Nr:Datum:Temp:Abs-Feuchte:Windchill:Wind:
Aussen-T/F 1551 26-05-2009 11:23:53 23.6 C 10 g/m*3 23.6 C 0 km/h
1552 26-05-2009 11:35:54 23.3 C 10.04 g/m*3 23.3 C 0 km/h
1553 26-05-2009 11:47:53 23.8 C 9.9 g/m*3 23.8 C 0 km/h
1554 26-05-2009 11:59:53 24.4 C 9.79 g/m*3 24.4 C 0 km/h
1555 26-05-2009 12:11:53 24.4 C 8.9 g/m*3 24.4 C 0 km/h
1556 26-05-2009 12:23:53 23.1 C 8.68 g/m*3 23.1 C 0 km/h
1557 26-05-2009 12:35:53 24.3 C 9.29 g/m*3 24.3 C 0 km/h
1558 26-05-2009 12:47:52 25.4 C 8.71 g/m*3 25.4 C 0 km/h
1559 26-05-2009 12:59:52 24.3 C 8.41 g/m*3 24.3 C 0 km/h
1560 26-05-2009 13:11:53 25.6 C 8.33 g/m*3 25.6 C 0 km/h
1561 26-05-2009 13:23:53 26.5 C 8.26 g/m*3 26.5 C 0 km/h
1562 26-05-2009 13:35:52 26.5 C 7.76 g/m*3 26.5 C 0 km/h
1563 26-05-2009 13:47:52 25.7 C 7.66 g/m*3 25.7 C 0 km/h
1564 26-05-2009 13:59:52 26.1 C 7.83 g/m*3 26.1 C 0 km/h
1565 26-05-2009 14:11:52 25.6 C 7.86 g/m*3 25.6 C 0 km/h
1566 26-05-2009 14:23:52 24.7 C 7.47 g/m*3 24.7 C 0 km/h
1567 26-05-2009 14:35:51 24 C 7.61 g/m*3 24 C 0 km/h
1568 26-05-2009 14:47:52 23.6 C 7.87 g/m*3 23.6 C 0 km/h
1569 26-05-2009 14:59:53 24.6 C 7.88 g/m*3 24.6 C 0 km/h
1570 26-05-2009 15:11:51 24.1 C 7.88 g/m*3 24.1 C 0 km/h
1571 26-05-2009 15:23:51 25 C 7.6 g/m*3 25 C 0 km/h
1572 26-05-2009 15:35:51 23.8 C 7.31 g/m*3 23.8 C 0 km/h
1573 26-05-2009 15:47:51 24.3 C 7.08 g/m*3 24.3 C 0 km/h
1574 26-05-2009 15:59:51 24.5 C 7.39 g/m*3 24.5 C 0 km/h
1575 26-05-2009 16:05:51 24.7 C 7.47 g/m*3 24.7 C 0 km/h
Sensor: Nr:Datum:Temp:Abs-Feuchte:Windchill:Wind:
Aussen-T/F 1576 26-05-2009 16:21:50 25 C 7.37 g/m*3 25 C 0 km/h
1577 26-05-2009 16:33:51 24.9 C 7.55 g/m*3 24.9 C 0 km/h
1578 26-05-2009 16:45:50 24.3 C 7.08 g/m*3 24.3 C 0 km/h
1579 26-05-2009 16:57:50 23.9 C 7.14 g/m*3 23.9 C 0 km/h
1580 26-05-2009 17:09:50 23.3 C 7.32 g/m*3 23.3 C 0 km/h
1581 26-05-2009 17:21:50 24 C 7.61 g/m*3 24 C 0 km/h
1582 26-05-2009 17:33:50 24.3 C 7.52 g/m*3 24.3 C 0 km/h
1583 26-05-2009 17:45:49 24.4 C 7.57 g/m*3 24.4 C 0 km/h
1584 26-05-2009 17:57:49 23.7 C 7.7 g/m*3 23.7 C 0 km/h
1585 26-05-2009 18:09:50 22.9 C 7.77 g/m*3 22.9 C 0 km/h
1586 26-05-2009 18:21:50 21 C 7.88 g/m*3 21 C 0 km/h
1587 26-05-2009 18:33:49 18.4 C 9.75 g/m*3 18.4 C 0 km/h
1588 26-05-2009 18:45:49 17.5 C 11.03 g/m*3 17.5 C 0 km/h
1589 26-05-2009 18:57:49 17 C 11 g/m*3 17 C 0 km/h
1590 26-05-2009 19:09:49 17.1 C 11.06 g/m*3 17.1 C 0 km/h
1591 26-05-2009 19:21:49 17.1 C 10.77 g/m*3 17.1 C 0 km/h
1592 26-05-2009 19:33:49 15.7 C 9.5 g/m*3 15.7 C 0 km/h
1593 26-05-2009 19:45:49 16.2 C 9.65 g/m*3 16.2 C 0 km/h
1594 26-05-2009 19:57:49 16.5 C 9.55 g/m*3 16.5 C 0 km/h
1595 26-05-2009 20:09:49 16.6 C 8.9 g/m*3 16.6 C 0 km/h
1596 26-05-2009 20:21:48 16.3 C 8.88 g/m*3 16.3 C 0 km/h
1597 26-05-2009 20:33:49 15.5 C 9.65 g/m*3 15.5 C 0 km/h
1598 26-05-2009 20:45:48 15.1 C 9.93 g/m*3 15.1 C 0 km/h
1599 26-05-2009 20:57:48 14.6 C 9.64 g/m*3 14.6 C 0 km/h
1600 26-05-2009 21:09:48 14.5 C 9.33 g/m*3 14.5 C 0 km/h
Sensor: Nr:Datum:Temp:Abs-Feuchte:Windchill:Wind:
Aussen-T/F 1601 26-05-2009 21:21:47 14.8 C 9.37 g/m*3 14.8 C 0 km/h
1602 26-05-2009 21:33:47 15.1 C 8.64 g/m*3 15.1 C 0 km/h
1603 26-05-2009 21:45:48 15.2 C 8.57 g/m*3 15.2 C 0 km/h
1604 26-05-2009 21:57:48 15.1 C 8.39 g/m*3 15.1 C 0 km/h
1605 26-05-2009 22:09:47 15.1 C 8.39 g/m*3 15.1 C 0 km/h
1606 26-05-2009 22:21:47 14 C 7.6 g/m*3 14 C 0 km/h
1607 26-05-2009 22:34:01 13.7 C 7.22 g/m*3 13.7 C 0 km/h
1608 26-05-2009 22:46:01 13.2 C 6.54 g/m*3 13.2 C 0 km/h
1609 26-05-2009 22:58:01 12.8 C 6.61 g/m*3 12.8 C 0 km/h
1610 26-05-2009 23:10:01 12.5 C 6.49 g/m*3 12.5 C 0 km/h
1611 26-05-2009 23:22:01 12.3 C 6.41 g/m*3 12.3 C 0 km/h
1612 26-05-2009 23:34:01 12.2 C 6.47 g/m*3 12.2 C 0 km/h
1613 26-05-2009 23:46:01 12.2 C 6.58 g/m*3 12.2 C 0 km/h
1614 26-05-2009 23:58:01 12.1 C 6.65 g/m*3 12.1 C 0 km/h
1615 27-05-2009 00:10:02 12.4 C 6.88 g/m*3 12.4 C 0 km/h
1616 27-05-2009 00:22:02 12.4 C 6.88 g/m*3 12.4 C 0 km/h
1617 27-05-2009 00:34:02 12.2 C 6.91 g/m*3 12.2 C 0 km/h
1618 27-05-2009 00:46:02 12 C 6.93 g/m*3 12 C 0 km/h
1619 27-05-2009 00:58:02 11.6 C 7.07 g/m*3 11.6 C 0 km/h
1620 27-05-2009 01:10:02 11.5 C 7.13 g/m*3 11.5 C 0 km/h
1621 27-05-2009 01:22:02 11.4 C 7.08 g/m*3 11.4 C 0 km/h
1622 27-05-2009 01:34:02 11.2 C 6.99 g/m*3 11.2 C 0 km/h
1623 27-05-2009 01:46:02 11.1 C 6.95 g/m*3 11.1 C 0 km/h
1624 27-05-2009 01:58:02 10.9 C 6.96 g/m*3 10.9 C 0 km/h
1625 27-05-2009 02:10:02 10.7 C 6.97 g/m*3 10.7 C 0 km/h
Sensor: Nr:Datum:Temp:Abs-Feuchte:Windchill:Wind:
Aussen-T/F 1626 27-05-2009 02:22:02 10.4 C 6.94 g/m*3 10.4 C 0 km/h
1627 27-05-2009 02:34:02 10.2 C 6.85 g/m*3 10.2 C 0 km/h
1628 27-05-2009 02:46:02 10.2 C 6.76 g/m*3 10.2 C 0 km/h
1629 27-05-2009 02:58:02 10.3 C 6.7 g/m*3 10.3 C 0 km/h
1630 27-05-2009 03:10:02 10.1 C 6.71 g/m*3 10.1 C 0 km/h
1631 27-05-2009 03:22:02 9.8 C 6.77 g/m*3 9.8 C 0 km/h
1632 27-05-2009 03:34:02 9.6 C 6.78 g/m*3 9.6 C 0 km/h
1633 27-05-2009 03:46:02 9.6 C 6.78 g/m*3 9.6 C 0 km/h
1634 27-05-2009 03:58:02 9.5 C 6.74 g/m*3 9.5 C 0 km/h
1635 27-05-2009 04:10:02 9.4 C 6.69 g/m*3 9.4 C 0 km/h
1636 27-05-2009 04:22:03 9.3 C 6.65 g/m*3 9.3 C 0 km/h
1637 27-05-2009 04:34:03 9.2 C 6.7 g/m*3 9.2 C 0 km/h
1638 27-05-2009 04:46:03 9.2 C 6.7 g/m*3 9.2 C 0 km/h
1639 27-05-2009 04:58:03 9.2 C 6.7 g/m*3 9.2 C 0 km/h
1640 27-05-2009 05:10:03 9.1 C 6.74 g/m*3 9.1 C 0 km/h
1641 27-05-2009 05:22:03 9.1 C 6.74 g/m*3 9.1 C 0 km/h
1642 27-05-2009 05:34:03 9.3 C 6.83 g/m*3 9.3 C 0 km/h
1643 27-05-2009 05:46:03 9.2 C 6.79 g/m*3 9.2 C 0 km/h
1644 27-05-2009 05:58:03 9.2 C 6.7 g/m*3 9.2 C 0 km/h
1645 27-05-2009 06:10:03 9.3 C 6.74 g/m*3 9.3 C 0 km/h
1646 27-05-2009 06:22:03 9.3 C 6.83 g/m*3 9.3 C 0 km/h
1647 27-05-2009 06:34:03 9.3 C 6.74 g/m*3 9.3 C 0 km/h
1648 27-05-2009 06:46:03 9.5 C 6.83 g/m*3 9.5 C 0 km/h
1649 27-05-2009 06:58:03 9.7 C 6.82 g/m*3 9.7 C 0 km/h
1650 27-05-2009 07:10:02 9.8 C 6.87 g/m*3 9.8 C 0 km/h
Sensor: Nr:Datum:Temp:Abs-Feuchte:Windchill:Wind:
Aussen-T/F 1651 27-05-2009 07:22:02 9.9 C 6.82 g/m*3 9.9 C 0 km/h
1652 27-05-2009 07:34:01 10 C 6.77 g/m*3 10 C 0 km/h
1653 27-05-2009 07:46:02 10.2 C 6.76 g/m*3 10.2 C 0 km/h
1654 27-05-2009 07:58:02 10.5 C 6.89 g/m*3 10.5 C 0 km/h
1655 27-05-2009 08:10:01 10.7 C 6.97 g/m*3 10.7 C 0 km/h
1656 27-05-2009 08:22:02 11 C 6.91 g/m*3 11 C 0 km/h
1657 27-05-2009 08:34:01 11.3 C 6.94 g/m*3 11.3 C 0 km/h
1658 27-05-2009 08:46:01 11.7 C 7.01 g/m*3 11.7 C 0 km/h
1659 27-05-2009 08:58:01 12.2 C 6.91 g/m*3 12.2 C 0 km/h
1660 27-05-2009 09:10:01 12.4 C 6.88 g/m*3 12.4 C 0 km/h
1661 27-05-2009 09:22:01 12.9 C 6.88 g/m*3 12.9 C 0 km/h
1662 27-05-2009 09:34:02 13.2 C 6.77 g/m*3 13.2 C 0 km/h
1663 27-05-2009 09:46:01 13.5 C 6.78 g/m*3 13.5 C 0 km/h
1664 27-05-2009 09:58:01 13.7 C 6.63 g/m*3 13.7 C 0 km/h
1665 27-05-2009 10:10:02 14.3 C 6.51 g/m*3 14.3 C 0 km/h
1666 27-05-2009 10:22:01 14.7 C 6.3 g/m*3 14.7 C 0 km/h
1667 27-05-2009 10:34:01 14.9 C 6.37 g/m*3 14.9 C 0 km/h
1668 27-05-2009 10:46:01 15.3 C 6.27 g/m*3 15.3 C 0 km/h
1669 27-05-2009 10:58:01 15.7 C 6.02 g/m*3 15.7 C 0 km/h
1670 27-05-2009 11:10:01 15.8 C 6.06 g/m*3 15.8 C 0 km/h
1671 27-05-2009 11:22:02 16.1 C 5.76 g/m*3 16.1 C 0 km/h
1672 27-05-2009 11:34:01 16.9 C 6.18 g/m*3 16.9 C 0 km/h
1673 27-05-2009 11:46:02 17 C 5.64 g/m*3 17 C 0 km/h
1674 27-05-2009 11:58:02 17.5 C 5.37 g/m*3 17.5 C 0 km/h
1675 27-05-2009 12:10:01 18.8 C 5.31 g/m*3 18.8 C 0 km/h
Sensor: Nr:Datum:Temp:Abs-Feuchte:Windchill:Wind:
Aussen-T/F 1676 27-05-2009 12:22:02 18.5 C 4.75 g/m*3 18.5 C 0 km/h
1677 27-05-2009 12:34:01 19.1 C 4.59 g/m*3 19.1 C 0 km/h
1678 27-05-2009 12:46:02 19.6 C 4.39 g/m*3 19.6 C 0 km/h
1679 27-05-2009 12:58:02 17.8 C 4.1 g/m*3 17.8 C 0 km/h
1680 27-05-2009 13:10:01 20.1 C 4.35 g/m*3 20.1 C 0 km/h
1681 27-05-2009 13:22:01 20.3 C 4.57 g/m*3 20.3 C 0 km/h
1682 27-05-2009 13:34:02 20.1 C 3.82 g/m*3 20.1 C 0 km/h
1683 27-05-2009 13:46:01 20.8 C 3.8 g/m*3 20.8 C 0 km/h
1684 27-05-2009 13:58:01 19.5 C 3.36 g/m*3 19.5 C 0 km/h
1685 27-05-2009 14:10:02 19.6 C 3.71 g/m*3 19.6 C 0 km/h
1686 27-05-2009 14:22:01 19.8 C 3.76 g/m*3 19.8 C 0 km/h
1687 27-05-2009 14:34:01 19.9 C 3.44 g/m*3 19.9 C 0 km/h
1688 27-05-2009 14:46:01 20.1 C 3.48 g/m*3 20.1 C 0 km/h
1689 27-05-2009 14:58:01 19.4 C 3.84 g/m*3 19.4 C 0 km/h
1690 27-05-2009 15:10:01 19.2 C 4.12 g/m*3 19.2 C 0 km/h
1691 27-05-2009 15:22:01 19.3 C 4.31 g/m*3 19.3 C 0 km/h
1692 27-05-2009 15:34:01 19.3 C 4.31 g/m*3 19.3 C 0 km/h
1693 27-05-2009 15:46:01 19.3 C 4.48 g/m*3 19.3 C 0 km/h
1694 27-05-2009 15:58:01 19.5 C 4.53 g/m*3 19.5 C 0 km/h
1695 27-05-2009 16:10:01 19.9 C 4.64 g/m*3 19.9 C 0 km/h
1696 27-05-2009 16:22:02 19.4 C 4.34 g/m*3 19.4 C 0 km/h
1697 27-05-2009 16:34:01 20.3 C 4.57 g/m*3 20.3 C 0 km/h
1698 27-05-2009 16:46:02 19.6 C 4.56 g/m*3 19.6 C 0 km/h
1699 27-05-2009 16:58:02 19.5 C 4.7 g/m*3 19.5 C 0 km/h
1700 27-05-2009 17:10:01 19.1 C 4.43 g/m*3 19.1 C 0 km/h
Sensor: Nr:Datum:Temp:Abs-Feuchte:Windchill:Wind:
Aussen-T/F 1701 27-05-2009 17:22:01 19.3 C 4.81 g/m*3 19.3 C 0 km/h
1702 27-05-2009 17:34:02 18.4 C 4.72 g/m*3 18.4 C 0 km/h
1703 27-05-2009 17:46:01 17.9 C 4.89 g/m*3 17.9 C 0 km/h
1704 27-05-2009 17:58:01 18 C 4.76 g/m*3 18 C 0 km/h
1705 27-05-2009 18:10:02 17.5 C 4.62 g/m*3 17.5 C 0 km/h
1706 27-05-2009 18:22:01 17.4 C 4.45 g/m*3 17.4 C 0 km/h
1707 27-05-2009 18:34:02 17.2 C 4.39 g/m*3 17.2 C 0 km/h
1708 27-05-2009 18:46:01 17.5 C 4.62 g/m*3 17.5 C 0 km/h
1709 27-05-2009 18:58:01 17.4 C 4.74 g/m*3 17.4 C 0 km/h
1710 27-05-2009 19:10:02 17.5 C 4.92 g/m*3 17.5 C 0 km/h
1711 27-05-2009 19:22:01 17.7 C 4.98 g/m*3 17.7 C 0 km/h
1712 27-05-2009 19:34:01 17.3 C 4.86 g/m*3 17.3 C 0 km/h
1713 27-05-2009 19:46:01 17.2 C 5.13 g/m*3 17.2 C 0 km/h
1714 27-05-2009 19:58:01 17.1 C 5.09 g/m*3 17.1 C 0 km/h
1715 27-05-2009 20:10:01 16.8 C 5.15 g/m*3 16.8 C 0 km/h
1716 27-05-2009 20:22:02 16.6 C 5.23 g/m*3 16.6 C 0 km/h
1717 27-05-2009 20:34:01 16.3 C 5.13 g/m*3 16.3 C 0 km/h
1718 27-05-2009 20:46:02 16 C 5.31 g/m*3 16 C 0 km/h
1719 27-05-2009 20:58:02 15.5 C 5.02 g/m*3 15.5 C 0 km/h
1720 27-05-2009 21:10:01 15 C 5.26 g/m*3 15 C 0 km/h
1721 27-05-2009 21:22:01 14.7 C 5.54 g/m*3 14.7 C 0 km/h
1722 27-05-2009 21:34:01 14.4 C 5.56 g/m*3 14.4 C 0 km/h
1723 27-05-2009 21:46:01 14.5 C 5.72 g/m*3 14.5 C 0 km/h
1724 27-05-2009 21:58:01 14.5 C 5.72 g/m*3 14.5 C 0 km/h
1725 27-05-2009 22:10:01 14.3 C 5.77 g/m*3 14.3 C 0 km/h
Sensor: Nr:Datum:Temp:Abs-Feuchte:Windchill:Wind:
Aussen-T/F 1726 27-05-2009 22:22:40 14.2 C 5.74 g/m*3 14.2 C 0 km/h
1727 27-05-2009 22:34:40 13.8 C 6.2 g/m*3 13.8 C 0 km/h
1728 27-05-2009 22:46:40 13.3 C 6.12 g/m*3 13.3 C 0 km/h
1729 27-05-2009 22:58:40 13.5 C 6.32 g/m*3 13.5 C 0 km/h
1730 27-05-2009 23:10:41 13.2 C 6.2 g/m*3 13.2 C 0 km/h
1731 27-05-2009 23:22:41 13.2 C 6.09 g/m*3 13.2 C 0 km/h
1732 27-05-2009 23:34:41 13.3 C 5.89 g/m*3 13.3 C 0 km/h
1733 27-05-2009 23:46:41 13.6 C 5.77 g/m*3 13.6 C 0 km/h
1734 27-05-2009 23:58:41 13.6 C 5.77 g/m*3 13.6 C 0 km/h
1735 28-05-2009 00:10:41 13.4 C 5.7 g/m*3 13.4 C 0 km/h
1736 28-05-2009 00:22:41 13.4 C 5.58 g/m*3 13.4 C 0 km/h
1737 28-05-2009 00:34:41 13.4 C 5.7 g/m*3 13.4 C 0 km/h
1738 28-05-2009 00:46:41 13.3 C 5.66 g/m*3 13.3 C 0 km/h
1739 28-05-2009 00:58:41 13.2 C 5.74 g/m*3 13.2 C 0 km/h
1740 28-05-2009 01:10:41 13.2 C 5.86 g/m*3 13.2 C 0 km/h
1741 28-05-2009 01:22:41 13.1 C 5.93 g/m*3 13.1 C 0 km/h
1742 28-05-2009 01:34:41 13.1 C 6.05 g/m*3 13.1 C 0 km/h
1743 28-05-2009 01:46:41 13 C 6.12 g/m*3 13 C 0 km/h
1744 28-05-2009 01:58:41 13.1 C 6.28 g/m*3 13.1 C 0 km/h
1745 28-05-2009 02:10:41 13.1 C 6.28 g/m*3 13.1 C 0 km/h
1746 28-05-2009 02:22:41 12.9 C 6.65 g/m*3 12.9 C 0 km/h
1747 28-05-2009 02:34:41 12.3 C 7.06 g/m*3 12.3 C 0 km/h
1748 28-05-2009 02:46:41 12.7 C 6.79 g/m*3 12.7 C 0 km/h
1749 28-05-2009 02:58:41 12.9 C 6.65 g/m*3 12.9 C 0 km/h
1750 28-05-2009 03:10:41 13 C 6.46 g/m*3 13 C 0 km/h
Sensor: Nr:Datum:Temp:Abs-Feuchte:Windchill:Wind:
Aussen-T/F 1751 28-05-2009 03:22:42 13 C 6.58 g/m*3 13 C 0 km/h
1752 28-05-2009 03:34:42 12.7 C 6.68 g/m*3 12.7 C 0 km/h
1753 28-05-2009 03:46:42 12.7 C 6.79 g/m*3 12.7 C 0 km/h
1754 28-05-2009 03:58:42 12.8 C 6.83 g/m*3 12.8 C 0 km/h
1755 28-05-2009 04:10:42 12.9 C 6.88 g/m*3 12.9 C 0 km/h
1756 28-05-2009 04:22:42 13 C 6.92 g/m*3 13 C 0 km/h
1757 28-05-2009 04:34:42 13 C 6.92 g/m*3 13 C 0 km/h
1758 28-05-2009 04:46:42 12.9 C 7.1 g/m*3 12.9 C 0 km/h
1759 28-05-2009 04:58:42 12.9 C 7.1 g/m*3 12.9 C 0 km/h
1760 28-05-2009 05:10:42 12.8 C 7.17 g/m*3 12.8 C 0 km/h
1761 28-05-2009 05:22:40 12.8 C 7.39 g/m*3 12.8 C 0 km/h
1762 28-05-2009 05:34:40 12.8 C 7.39 g/m*3 12.8 C 0 km/h
1763 28-05-2009 05:46:40 12.9 C 7.55 g/m*3 12.9 C 0 km/h
1764 28-05-2009 05:58:40 13 C 7.48 g/m*3 13 C 0 km/h
1765 28-05-2009 06:10:39 13 C 7.48 g/m*3 13 C 0 km/h
1766 28-05-2009 06:22:39 13 C 7.48 g/m*3 13 C 0 km/h
1767 28-05-2009 06:34:39 13.1 C 7.53 g/m*3 13.1 C 0 km/h
1768 28-05-2009 06:46:39 13.2 C 7.58 g/m*3 13.2 C 0 km/h
1769 28-05-2009 06:58:40 13.2 C 7.58 g/m*3 13.2 C 0 km/h
1770 28-05-2009 07:10:38 13.3 C 7.63 g/m*3 13.3 C 0 km/h
1771 28-05-2009 07:22:39 13.4 C 7.67 g/m*3 13.4 C 0 km/h
1772 28-05-2009 07:34:38 13.5 C 7.72 g/m*3 13.5 C 0 km/h
1773 28-05-2009 07:46:38 13.6 C 7.89 g/m*3 13.6 C 0 km/h
1774 28-05-2009 07:58:39 13.6 C 7.77 g/m*3 13.6 C 0 km/h
1775 28-05-2009 08:10:38 13.7 C 7.82 g/m*3 13.7 C 0 km/h
Sensor: Nr:Datum:Temp:Abs-Feuchte:Windchill:Wind:
Aussen-T/F 1776 28-05-2009 08:22:38 13.9 C 7.91 g/m*3 13.9 C 0 km/h
1777 28-05-2009 08:34:38 14.1 C 8.01 g/m*3 14.1 C 0 km/h
1778 28-05-2009 08:46:38 14.6 C 8.01 g/m*3 14.6 C 0 km/h
1779 28-05-2009 08:58:38 14.8 C 7.85 g/m*3 14.8 C 0 km/h
1780 28-05-2009 09:10:38 15 C 7.95 g/m*3 15 C 0 km/h
1781 28-05-2009 09:22:37 14.9 C 8.03 g/m*3 14.9 C 0 km/h
1782 28-05-2009 09:34:37 14.9 C 8.16 g/m*3 14.9 C 0 km/h
1783 28-05-2009 09:46:37 15.2 C 8.05 g/m*3 15.2 C 0 km/h
1784 28-05-2009 09:58:37 15.3 C 8.23 g/m*3 15.3 C 0 km/h
1785 28-05-2009 10:10:37 15.4 C 8.15 g/m*3 15.4 C 0 km/h
1786 28-05-2009 10:22:37 15.7 C 8.16 g/m*3 15.7 C 0 km/h
1787 28-05-2009 10:34:37 15.3 C 8.23 g/m*3 15.3 C 0 km/h
1788 28-05-2009 10:46:37 15.4 C 8.28 g/m*3 15.4 C 0 km/h
1789 28-05-2009 10:58:37 16 C 8.31 g/m*3 16 C 0 km/h
1790 28-05-2009 11:10:36 16.4 C 8.37 g/m*3 16.4 C 0 km/h
1791 28-05-2009 11:22:36 16.6 C 8.33 g/m*3 16.6 C 0 km/h
1792 28-05-2009 11:34:36 16.8 C 8.44 g/m*3 16.8 C 0 km/h
1793 28-05-2009 11:46:36 16.7 C 8.53 g/m*3 16.7 C 0 km/h
1794 28-05-2009 11:58:37 16.6 C 8.48 g/m*3 16.6 C 0 km/h
1795 28-05-2009 12:10:35 16.2 C 8.55 g/m*3 16.2 C 0 km/h
1796 28-05-2009 12:22:36 15.6 C 9.04 g/m*3 15.6 C 0 km/h
1797 28-05-2009 12:34:36 14.9 C 9.81 g/m*3 14.9 C 0 km/h
1798 28-05-2009 12:46:35 14.9 C 10.07 g/m*3 14.9 C 0 km/h
1799 28-05-2009 12:58:35 15 C 10.39 g/m*3 15 C 0 km/h
1800 28-05-2009 13:10:36 15.6 C 10.91 g/m*3 15.6 C 0 km/h
Sensor: Nr:Datum:Temp:Abs-Feuchte:Windchill:Wind:
Aussen-T/F 1801 28-05-2009 13:22:35 15.8 C 10.9 g/m*3 15.8 C 0 km/h
1802 28-05-2009 13:34:35 15.7 C 10.84 g/m*3 15.7 C 0 km/h
1803 28-05-2009 13:46:34 16.8 C 11.72 g/m*3 16.8 C 0 km/h
1804 28-05-2009 13:58:34 17 C 11.14 g/m*3 17 C 0 km/h
1805 28-05-2009 14:10:35 16 C 10.49 g/m*3 16 C 0 km/h
1806 28-05-2009 14:22:35 16.7 C 11.51 g/m*3 16.7 C 0 km/h
1807 28-05-2009 14:34:34 18.2 C 11.35 g/m*3 18.2 C 0 km/h
1808 28-05-2009 14:46:35 18.5 C 10.6 g/m*3 18.5 C 0 km/h
1809 28-05-2009 14:58:35 17.9 C 10.54 g/m*3 17.9 C 0 km/h
1810 28-05-2009 15:10:34 16.8 C 10.44 g/m*3 16.8 C 0 km/h
1811 28-05-2009 15:22:34 17.1 C 10.77 g/m*3 17.1 C 0 km/h
1812 28-05-2009 15:34:33 18.3 C 10.16 g/m*3 18.3 C 0 km/h
1813 28-05-2009 15:46:34 19.3 C 9.62 g/m*3 19.3 C 0 km/h
1814 28-05-2009 15:58:35 18.5 C 9.97 g/m*3 18.5 C 0 km/h
1815 28-05-2009 16:10:33 18.5 C 9.49 g/m*3 18.5 C 0 km/h
1816 28-05-2009 16:22:33 18.3 C 9.22 g/m*3 18.3 C 0 km/h
1817 28-05-2009 16:34:34 20.3 C 9.5 g/m*3 20.3 C 0 km/h
1818 28-05-2009 16:46:33 20.6 C 8.95 g/m*3 20.6 C 0 km/h
1819 28-05-2009 16:58:33 19.4 C 9.01 g/m*3 19.4 C 0 km/h
1820 28-05-2009 17:10:33 19.1 C 9.02 g/m*3 19.1 C 0 km/h
1821 28-05-2009 17:22:33 19.7 C 9 g/m*3 19.7 C 0 km/h
1822 28-05-2009 17:34:33 19.4 C 9.01 g/m*3 19.4 C 0 km/h
1823 28-05-2009 17:46:33 19.3 C 8.79 g/m*3 19.3 C 0 km/h
1824 28-05-2009 17:58:33 18.9 C 7.94 g/m*3 18.9 C 0 km/h
1825 28-05-2009 18:10:32 18.7 C 8.33 g/m*3 18.7 C 0 km/h
Sensor: Nr:Datum:Temp:Abs-Feuchte:Windchill:Wind:
Aussen-T/F 1826 28-05-2009 18:22:33 18.4 C 8.49 g/m*3 18.4 C 0 km/h
1827 28-05-2009 18:34:32 18.3 C 8.44 g/m*3 18.3 C 0 km/h
1828 28-05-2009 18:46:32 18.1 C 8.65 g/m*3 18.1 C 0 km/h
1829 28-05-2009 18:58:32 18.5 C 8.7 g/m*3 18.5 C 0 km/h
1830 28-05-2009 19:10:32 18.5 C 9.02 g/m*3 18.5 C 0 km/h
1831 28-05-2009 19:22:31 18 C 9.06 g/m*3 18 C 0 km/h
1832 28-05-2009 19:34:31 17.7 C 9.35 g/m*3 17.7 C 0 km/h
1833 28-05-2009 19:46:31 17.5 C 9.09 g/m*3 17.5 C 0 km/h
1834 28-05-2009 19:58:31 17.5 C 9.09 g/m*3 17.5 C 0 km/h
1835 28-05-2009 20:10:31 17.5 C 8.95 g/m*3 17.5 C 0 km/h
1836 28-05-2009 20:22:31 17.5 C 9.09 g/m*3 17.5 C 0 km/h
1837 28-05-2009 20:34:31 17.5 C 9.09 g/m*3 17.5 C 0 km/h
1838 28-05-2009 20:46:31 17.4 C 8.74 g/m*3 17.4 C 0 km/h
1839 28-05-2009 20:58:32 17.2 C 8.64 g/m*3 17.2 C 0 km/h
1840 28-05-2009 21:10:31 16.6 C 8.76 g/m*3 16.6 C 0 km/h
1841 28-05-2009 21:22:31 16.2 C 8.55 g/m*3 16.2 C 0 km/h
1842 28-05-2009 21:34:30 16.3 C 8.05 g/m*3 16.3 C 0 km/h
1843 28-05-2009 21:47:31 16.2 C 8 g/m*3 16.2 C 0 km/h
1844 28-05-2009 21:59:31 16 C 8.17 g/m*3 16 C 0 km/h
1845 28-05-2009 22:11:31 15.8 C 8.21 g/m*3 15.8 C 0 km/h
1846 28-05-2009 22:23:31 15.6 C 8.25 g/m*3 15.6 C 0 km/h
1847 28-05-2009 22:35:31 15.5 C 8.2 g/m*3 15.5 C 0 km/h
1848 28-05-2009 22:47:31 15.7 C 8.16 g/m*3 15.7 C 0 km/h
1849 28-05-2009 22:59:31 15.8 C 8.08 g/m*3 15.8 C 0 km/h
1850 28-05-2009 23:11:31 15.8 C 8.08 g/m*3 15.8 C 0 km/h
Sensor: Nr:Datum:Temp:Abs-Feuchte:Windchill:Wind:
Aussen-T/F 1851 28-05-2009 23:23:31 15.6 C 7.98 g/m*3 15.6 C 0 km/h
1852 28-05-2009 23:35:31 15.5 C 7.93 g/m*3 15.5 C 0 km/h
1853 28-05-2009 23:47:31 15.6 C 7.98 g/m*3 15.6 C 0 km/h
1854 28-05-2009 23:59:31 15.6 C 7.71 g/m*3 15.6 C 0 km/h
1855 29-05-2009 00:11:31 15.6 C 7.71 g/m*3 15.6 C 0 km/h
1856 29-05-2009 00:23:31 15.4 C 7.62 g/m*3 15.4 C 0 km/h
1857 29-05-2009 00:35:31 15.1 C 7.61 g/m*3 15.1 C 0 km/h
1858 29-05-2009 00:47:31 14.6 C 7.76 g/m*3 14.6 C 0 km/h
1859 29-05-2009 00:59:31 14.2 C 7.69 g/m*3 14.2 C 0 km/h
1860 29-05-2009 01:11:32 13.9 C 7.91 g/m*3 13.9 C 0 km/h
1861 29-05-2009 01:23:32 13.5 C 7.84 g/m*3 13.5 C 0 km/h
1862 29-05-2009 01:35:32 13.2 C 7.92 g/m*3 13.2 C 0 km/h
1863 29-05-2009 01:47:32 13 C 7.94 g/m*3 13 C 0 km/h
1864 29-05-2009 01:59:32 12.8 C 8.06 g/m*3 12.8 C 0 km/h
1865 29-05-2009 02:11:32 12.5 C 8.03 g/m*3 12.5 C 0 km/h
1866 29-05-2009 02:23:32 12.2 C 7.88 g/m*3 12.2 C 0 km/h
1867 29-05-2009 02:35:32 12.1 C 7.94 g/m*3 12.1 C 0 km/h
1868 29-05-2009 02:47:32 11.8 C 8 g/m*3 11.8 C 0 km/h
1869 29-05-2009 02:59:32 11.6 C 8 g/m*3 11.6 C 0 km/h
1870 29-05-2009 03:11:32 11.4 C 8.01 g/m*3 11.4 C 0 km/h
1871 29-05-2009 03:23:32 11.1 C 7.86 g/m*3 11.1 C 0 km/h
1872 29-05-2009 03:35:32 10.8 C 7.81 g/m*3 10.8 C 0 km/h
1873 29-05-2009 03:47:32 10.6 C 7.71 g/m*3 10.6 C 0 km/h
1874 29-05-2009 03:59:32 10.5 C 7.76 g/m*3 10.5 C 0 km/h
1875 29-05-2009 04:11:32 10.2 C 7.61 g/m*3 10.2 C 0 km/h
Sensor: Nr:Datum:Temp:Abs-Feuchte:Windchill:Wind:
Aussen-T/F 1876 29-05-2009 04:23:32 10.1 C 7.56 g/m*3 10.1 C 0 km/h
1877 29-05-2009 04:35:32 9.9 C 7.56 g/m*3 9.9 C 0 km/h
1878 29-05-2009 04:47:32 9.7 C 7.56 g/m*3 9.7 C 0 km/h
1879 29-05-2009 04:59:32 9.6 C 7.51 g/m*3 9.6 C 0 km/h
1880 29-05-2009 05:11:33 9.4 C 7.42 g/m*3 9.4 C 0 km/h
1881 29-05-2009 05:23:33 9.4 C 7.51 g/m*3 9.4 C 0 km/h
1882 29-05-2009 05:35:33 9.4 C 7.6 g/m*3 9.4 C 0 km/h
1883 29-05-2009 05:47:33 9.3 C 7.55 g/m*3 9.3 C 0 km/h
1884 29-05-2009 05:59:33 9.2 C 7.59 g/m*3 9.2 C 0 km/h
1885 29-05-2009 06:11:33 9.1 C 7.54 g/m*3 9.1 C 0 km/h
1886 29-05-2009 06:23:33 9.1 C 7.63 g/m*3 9.1 C 0 km/h
1887 29-05-2009 06:35:33 9.2 C 7.68 g/m*3 9.2 C 0 km/h
1888 29-05-2009 06:47:33 9.2 C 7.68 g/m*3 9.2 C 0 km/h
1889 29-05-2009 06:59:33 9.3 C 7.73 g/m*3 9.3 C 0 km/h
1890 29-05-2009 07:11:31 9.5 C 7.83 g/m*3 9.5 C 0 km/h
1891 29-05-2009 07:23:30 9.5 C 7.74 g/m*3 9.5 C 0 km/h
1892 29-05-2009 07:35:31 9.7 C 7.84 g/m*3 9.7 C 0 km/h
1893 29-05-2009 07:47:30 9.8 C 7.79 g/m*3 9.8 C 0 km/h
1894 29-05-2009 07:59:30 10.2 C 7.9 g/m*3 10.2 C 0 km/h
1895 29-05-2009 08:11:30 10.5 C 7.76 g/m*3 10.5 C 0 km/h
1896 29-05-2009 08:23:30 11.1 C 7.05 g/m*3 11.1 C 0 km/h
1897 29-05-2009 08:35:30 11.4 C 6.47 g/m*3 11.4 C 0 km/h
1898 29-05-2009 08:47:29 11.8 C 6.31 g/m*3 11.8 C 0 km/h
1899 29-05-2009 08:59:29 12.2 C 6.15 g/m*3 12.2 C 0 km/h
1900 29-05-2009 09:11:29 12.7 C 5.57 g/m*3 12.7 C 0 km/h
Sensor: Nr:Datum:Temp:Abs-Feuchte:Windchill:Wind:
Aussen-T/F 1901 29-05-2009 09:23:30 13.2 C 5.17 g/m*3 13.2 C 0 km/h
1902 29-05-2009 09:35:29 13.6 C 4.71 g/m*3 13.6 C 0 km/h
1903 29-05-2009 09:47:29 13.9 C 4.68 g/m*3 13.9 C 0 km/h
1904 29-05-2009 09:59:29 14.1 C 3.76 g/m*3 14.1 C 0 km/h
1905 29-05-2009 10:11:29 14.7 C 3.9 g/m*3 14.7 C 0 km/h
1906 29-05-2009 10:23:29 15 C 4.1 g/m*3 15 C 0 km/h
1907 29-05-2009 10:35:28 15.9 C 4.33 g/m*3 15.9 C 0 km/h
1908 29-05-2009 10:47:29 15.7 C 4.01 g/m*3 15.7 C 0 km/h
1909 29-05-2009 10:59:29 16.6 C 4.24 g/m*3 16.6 C 0 km/h
1910 29-05-2009 11:11:28 17.5 C 3.73 g/m*3 17.5 C 0 km/h
1911 29-05-2009 11:23:28 17 C 3.04 g/m*3 17 C 0 km/h
1912 29-05-2009 11:35:28 17.6 C 3.75 g/m*3 17.6 C 0 km/h
1913 29-05-2009 11:47:28 18.8 C 3.7 g/m*3 18.8 C 0 km/h
1914 29-05-2009 11:59:28 19.6 C 3.55 g/m*3 19.6 C 0 km/h
1915 29-05-2009 12:11:28 20.3 C 3.52 g/m*3 20.3 C 0 km/h
1916 29-05-2009 12:23:27 20.4 C 3.54 g/m*3 20.4 C 0 km/h
1917 29-05-2009 12:35:28 21.7 C 3.82 g/m*3 21.7 C 0 km/h
1918 29-05-2009 12:47:27 22.6 C 4.02 g/m*3 22.6 C 0 km/h
1919 29-05-2009 12:59:27 23.2 C 4.16 g/m*3 23.2 C 0 km/h
1920 29-05-2009 13:11:27 23.4 C 4.21 g/m*3 23.4 C 0 km/h
1921 29-05-2009 13:23:27 23.7 C 4.28 g/m*3 23.7 C 0 km/h
1922 29-05-2009 13:35:27 24.7 C 4.53 g/m*3 24.7 C 0 km/h
1923 29-05-2009 13:47:27 24.8 C 4.55 g/m*3 24.8 C 0 km/h
1924 29-05-2009 13:59:27 24 C 4.35 g/m*3 24 C 0 km/h
1925 29-05-2009 14:11:26 23 C 4.11 g/m*3 23 C 0 km/h
Sensor: Nr:Datum:Temp:Abs-Feuchte:Windchill:Wind:
Aussen-T/F 1926 29-05-2009 14:23:26 23.1 C 4.13 g/m*3 23.1 C 0 km/h
1927 29-05-2009 14:35:26 22.6 C 4.02 g/m*3 22.6 C 0 km/h
1928 29-05-2009 14:47:26 23.3 C 4.18 g/m*3 23.3 C 0 km/h
1929 29-05-2009 14:59:26 24.6 C 4.5 g/m*3 24.6 C 0 km/h
1930 29-05-2009 15:11:26 25 C 4.6 g/m*3 25 C 0 km/h
1931 29-05-2009 15:23:26 25.6 C 4.76 g/m*3 25.6 C 0 km/h
1932 29-05-2009 15:35:26 26.6 C 5.03 g/m*3 26.6 C 0 km/h
1933 29-05-2009 15:47:26 26.2 C 4.92 g/m*3 26.2 C 0 km/h
1934 29-05-2009 15:59:26 26.1 C 4.9 g/m*3 26.1 C 0 km/h
1935 29-05-2009 16:11:25 27.3 C 5.23 g/m*3 27.3 C 0 km/h
1936 29-05-2009 16:23:25 27.4 C 5.26 g/m*3 27.4 C 0 km/h
1937 29-05-2009 16:35:25 28.4 C 5.56 g/m*3 28.4 C 0 km/h
1938 29-05-2009 16:47:25 27.8 C 5.38 g/m*3 27.8 C 0 km/h
1939 29-05-2009 16:59:25 26.4 C 4.98 g/m*3 26.4 C 0 km/h
1940 29-05-2009 17:11:24 28 C 5.44 g/m*3 28 C 0 km/h
1941 29-05-2009 17:23:25 28 C 5.44 g/m*3 28 C 0 km/h
1942 29-05-2009 17:35:25 29 C 5.74 g/m*3 29 C 0 km/h
1943 29-05-2009 17:47:24 28.8 C 5.68 g/m*3 28.8 C 0 km/h
1944 29-05-2009 17:59:24 28.3 C 5.53 g/m*3 28.3 C 0 km/h
1945 29-05-2009 18:11:25 27.9 C 5.41 g/m*3 27.9 C 0 km/h
1946 29-05-2009 18:23:24 28.6 C 5.62 g/m*3 28.6 C 0 km/h
1947 29-05-2009 18:35:24 28.7 C 5.65 g/m*3 28.7 C 0 km/h
1948 29-05-2009 18:47:24 27.6 C 5.32 g/m*3 27.6 C 0 km/h
1949 29-05-2009 18:59:24 27.1 C 5.18 g/m*3 27.1 C 0 km/h
1950 29-05-2009 19:11:24 26.9 C 5.12 g/m*3 26.9 C 0 km/h
Sensor: Nr:Datum:Temp:Abs-Feuchte:Windchill:Wind:
Aussen-T/F 1951 29-05-2009 19:23:24 26.8 C 5.09 g/m*3 26.8 C 0 km/h
1952 29-05-2009 19:35:23 26.6 C 5.03 g/m*3 26.6 C 0 km/h
1953 29-05-2009 19:47:24 26.2 C 4.92 g/m*3 26.2 C 0 km/h
1954 29-05-2009 19:59:24 25.5 C 4.73 g/m*3 25.5 C 0 km/h
1955 29-05-2009 20:11:23 24.5 C 4.48 g/m*3 24.5 C 0 km/h
1956 29-05-2009 20:23:23 23.7 C 4.28 g/m*3 23.7 C 0 km/h
1957 29-05-2009 20:35:02 23.2 C 4.16 g/m*3 23.2 C 0 km/h
1958 29-05-2009 20:47:02 22.5 C 4.39 g/m*3 22.5 C 0 km/h
1959 29-05-2009 20:59:02 21.6 C 5.12 g/m*3 21.6 C 0 km/h
1960 29-05-2009 21:11:02 20.2 C 5.07 g/m*3 20.2 C 0 km/h
1961 29-05-2009 21:23:02 19.1 C 4.92 g/m*3 19.1 C 0 km/h
1962 29-05-2009 21:35:01 18.4 C 5.03 g/m*3 18.4 C 0 km/h
1963 29-05-2009 21:47:02 18.1 C 4.94 g/m*3 18.1 C 0 km/h
1964 29-05-2009 21:59:02 18 C 4.92 g/m*3 18 C 0 km/h
1965 29-05-2009 22:11:01 17.8 C 5.16 g/m*3 17.8 C 0 km/h
1966 29-05-2009 22:23:01 17.4 C 5.04 g/m*3 17.4 C 0 km/h
1967 29-05-2009 22:35:01 16.8 C 5.15 g/m*3 16.8 C 0 km/h
1968 29-05-2009 22:48:02 16.4 C 5.02 g/m*3 16.4 C 0 km/h
1969 29-05-2009 23:00:02 16.2 C 5.1 g/m*3 16.2 C 0 km/h
1970 29-05-2009 23:12:02 15.7 C 5.08 g/m*3 15.7 C 0 km/h
1971 29-05-2009 23:24:03 15.4 C 5.12 g/m*3 15.4 C 0 km/h
1972 29-05-2009 23:36:03 15 C 5.13 g/m*3 15 C 0 km/h
1973 29-05-2009 23:48:03 14.5 C 5.6 g/m*3 14.5 C 0 km/h
1974 30-05-2009 00:00:03 14.4 C 5.44 g/m*3 14.4 C 0 km/h
1975 30-05-2009 00:12:03 14.3 C 5.65 g/m*3 14.3 C 0 km/h
Sensor: Nr:Datum:Temp:Abs-Feuchte:Windchill:Wind:
Aussen-T/F 1976 30-05-2009 00:24:03 14.1 C 5.46 g/m*3 14.1 C 0 km/h
1977 30-05-2009 00:36:03 13.8 C 5.48 g/m*3 13.8 C 0 km/h
1978 30-05-2009 00:48:03 13.5 C 5.38 g/m*3 13.5 C 0 km/h
1979 30-05-2009 01:00:03 13.4 C 5.46 g/m*3 13.4 C 0 km/h
1980 30-05-2009 01:12:03 13 C 5.67 g/m*3 13 C 0 km/h
1981 30-05-2009 01:24:03 12.8 C 5.71 g/m*3 12.8 C 0 km/h
1982 30-05-2009 01:36:03 12.7 C 5.57 g/m*3 12.7 C 0 km/h
1983 30-05-2009 01:48:03 12.4 C 5.79 g/m*3 12.4 C 0 km/h
1984 30-05-2009 02:00:03 12.1 C 5.9 g/m*3 12.1 C 0 km/h
1985 30-05-2009 02:12:03 11.9 C 6.04 g/m*3 11.9 C 0 km/h
1986 30-05-2009 02:24:03 11.6 C 6.03 g/m*3 11.6 C 0 km/h
1987 30-05-2009 02:36:03 11.5 C 5.99 g/m*3 11.5 C 0 km/h
1988 30-05-2009 02:48:03 11.5 C 6.09 g/m*3 11.5 C 0 km/h
1989 30-05-2009 03:00:03 11.4 C 5.95 g/m*3 11.4 C 0 km/h
1990 30-05-2009 03:12:03 11.4 C 5.75 g/m*3 11.4 C 0 km/h
1991 30-05-2009 03:24:04 11.5 C 5.68 g/m*3 11.5 C 0 km/h
1992 30-05-2009 03:36:04 11.4 C 5.75 g/m*3 11.4 C 0 km/h
1993 30-05-2009 03:48:04 11.3 C 5.71 g/m*3 11.3 C 0 km/h
1994 30-05-2009 04:00:04 11.1 C 5.74 g/m*3 11.1 C 0 km/h
1995 30-05-2009 04:12:04 11 C 5.91 g/m*3 11 C 0 km/h
1996 30-05-2009 04:24:04 10.8 C 5.93 g/m*3 10.8 C 0 km/h
1997 30-05-2009 04:36:04 10.8 C 5.93 g/m*3 10.8 C 0 km/h
1998 30-05-2009 04:48:04 10.7 C 5.89 g/m*3 10.7 C 0 km/h
1999 30-05-2009 05:00:04 10.6 C 5.95 g/m*3 10.6 C 0 km/h
2000 30-05-2009 05:12:04 10.4 C 5.88 g/m*3 10.4 C 0 km/h
Sensor: Nr:Datum:Temp:Abs-Feuchte:Windchill:Wind:
Aussen-T/F 2001 30-05-2009 05:24:04 10.2 C 6.19 g/m*3 10.2 C 0 km/h
2002 30-05-2009 05:36:04 10.1 C 6.34 g/m*3 10.1 C 0 km/h
2003 30-05-2009 05:48:04 10 C 6.58 g/m*3 10 C 0 km/h
2004 30-05-2009 06:00:04 9.9 C 6.54 g/m*3 9.9 C 0 km/h
2005 30-05-2009 06:12:04 9.9 C 6.54 g/m*3 9.9 C 0 km/h
2006 30-05-2009 06:24:04 9.9 C 6.54 g/m*3 9.9 C 0 km/h
2007 30-05-2009 06:36:04 9.9 C 6.72 g/m*3 9.9 C 0 km/h
2008 30-05-2009 06:48:04 10 C 6.67 g/m*3 10 C 0 km/h
2009 30-05-2009 07:00:04 10.1 C 6.71 g/m*3 10.1 C 0 km/h
2010 30-05-2009 07:12:04 10.3 C 6.9 g/m*3 10.3 C 0 km/h
2011 30-05-2009 07:24:05 10.5 C 6.89 g/m*3 10.5 C 0 km/h
2012 30-05-2009 07:36:02 10.8 C 6.92 g/m*3 10.8 C 0 km/h
2013 30-05-2009 07:48:02 11.1 C 6.95 g/m*3 11.1 C 0 km/h
2014 30-05-2009 08:00:02 11.4 C 6.98 g/m*3 11.4 C 0 km/h
2015 30-05-2009 08:12:01 11.7 C 6.9 g/m*3 11.7 C 0 km/h
2016 30-05-2009 08:24:02 12.3 C 6.84 g/m*3 12.3 C 0 km/h
2017 30-05-2009 08:36:02 12.7 C 6.68 g/m*3 12.7 C 0 km/h
2018 30-05-2009 08:48:01 13.4 C 6.51 g/m*3 13.4 C 0 km/h
2019 30-05-2009 09:00:01 13.8 C 6.31 g/m*3 13.8 C 0 km/h
2020 30-05-2009 09:12:02 14.2 C 6.35 g/m*3 14.2 C 0 km/h
2021 30-05-2009 09:24:01 14.8 C 6.33 g/m*3 14.8 C 0 km/h
2022 30-05-2009 09:36:01 15.3 C 6.4 g/m*3 15.3 C 0 km/h
2023 30-05-2009 09:48:01 15.9 C 6.37 g/m*3 15.9 C 0 km/h
2024 30-05-2009 10:00:01 16.5 C 6.32 g/m*3 16.5 C 0 km/h
2025 30-05-2009 10:12:01 16.9 C 6.04 g/m*3 16.9 C 0 km/h
Sensor: Nr:Datum:Temp:Abs-Feuchte:Windchill:Wind:
Aussen-T/F 2026 30-05-2009 10:24:00 17.6 C 6.15 g/m*3 17.6 C 0 km/h
2027 30-05-2009 10:36:00 18.2 C 6.22 g/m*3 18.2 C 0 km/h
2028 30-05-2009 10:48:00 18.9 C 6.48 g/m*3 18.9 C 0 km/h
2029 30-05-2009 11:00:00 19.6 C 6.25 g/m*3 19.6 C 0 km/h
2030 30-05-2009 11:12:00 19.6 C 6.25 g/m*3 19.6 C 0 km/h
2031 30-05-2009 11:24:00 19.9 C 6.19 g/m*3 19.9 C 0 km/h
2032 30-05-2009 11:36:00 20.6 C 6.26 g/m*3 20.6 C 0 km/h
2033 30-05-2009 11:48:00 21.2 C 5.93 g/m*3 21.2 C 0 km/h
2034 30-05-2009 12:00:00 21.4 C 5.44 g/m*3 21.4 C 0 km/h
2035 30-05-2009 12:12:59 23 C 5.34 g/m*3 23 C 0 km/h
2036 30-05-2009 12:24:00 21.6 C 5.5 g/m*3 21.6 C 0 km/h
2037 30-05-2009 12:36:00 22.1 C 5.08 g/m*3 22.1 C 0 km/h
2038 30-05-2009 12:48:59 22 C 5.05 g/m*3 22 C 0 km/h
2039 30-05-2009 13:00:59 21.5 C 5.09 g/m*3 21.5 C 0 km/h
2040 30-05-2009 13:11:59 24.3 C 5.09 g/m*3 24.3 C 0 km/h
2041 30-05-2009 13:24:59 26.5 C 5.01 g/m*3 26.5 C 0 km/h
2042 30-05-2009 13:36:59 26.6 C 5.03 g/m*3 26.6 C 0 km/h
2043 30-05-2009 13:48:58 25.8 C 4.82 g/m*3 25.8 C 0 km/h
2044 30-05-2009 14:00:59 24.9 C 4.58 g/m*3 24.9 C 0 km/h
2045 30-05-2009 14:13:00 23.2 C 4.16 g/m*3 23.2 C 0 km/h
2046 30-05-2009 14:24:58 22.7 C 4.65 g/m*3 22.7 C 0 km/h
2047 30-05-2009 14:36:58 24.1 C 4.38 g/m*3 24.1 C 0 km/h
2048 30-05-2009 14:48:58 25.7 C 4.79 g/m*3 25.7 C 0 km/h
2049 30-05-2009 15:00:58 25.4 C 4.71 g/m*3 25.4 C 0 km/h
2050 30-05-2009 15:12:58 25.1 C 4.63 g/m*3 25.1 C 0 km/h
Sensor: Nr:Datum:Temp:Abs-Feuchte:Windchill:Wind:
Aussen-T/F 2051 30-05-2009 15:24:58 25.7 C 4.79 g/m*3 25.7 C 0 km/h
2052 30-05-2009 15:36:57 26.6 C 5.03 g/m*3 26.6 C 0 km/h
2053 30-05-2009 15:48:58 25.3 C 4.68 g/m*3 25.3 C 0 km/h
2054 30-05-2009 16:00:57 26 C 4.87 g/m*3 26 C 0 km/h
2055 30-05-2009 16:12:57 27.5 C 5.29 g/m*3 27.5 C 0 km/h
2056 30-05-2009 16:24:57 28.2 C 5.5 g/m*3 28.2 C 0 km/h
2057 30-05-2009 16:36:58 28.2 C 5.5 g/m*3 28.2 C 0 km/h
2058 30-05-2009 16:48:57 29.1 C 5.78 g/m*3 29.1 C 0 km/h
2059 30-05-2009 17:00:57 28.6 C 5.62 g/m*3 28.6 C 0 km/h
2060 30-05-2009 17:12:57 28.3 C 5.53 g/m*3 28.3 C 0 km/h
2061 30-05-2009 17:24:57 26.9 C 5.12 g/m*3 26.9 C 0 km/h
2062 30-05-2009 17:36:57 25.1 C 4.63 g/m*3 25.1 C 0 km/h
2063 30-05-2009 17:48:56 27.9 C 5.41 g/m*3 27.9 C 0 km/h
2064 30-05-2009 18:00:56 28.6 C 5.62 g/m*3 28.6 C 0 km/h
2065 30-05-2009 18:12:57 29.4 C 5.87 g/m*3 29.4 C 0 km/h
2066 30-05-2009 18:24:56 26.6 C 5.03 g/m*3 26.6 C 0 km/h
2067 30-05-2009 18:36:56 25.2 C 4.66 g/m*3 25.2 C 0 km/h
2068 30-05-2009 18:48:55 25.7 C 4.79 g/m*3 25.7 C 0 km/h
2069 30-05-2009 19:00:56 26.9 C 5.12 g/m*3 26.9 C 0 km/h
2070 30-05-2009 19:12:56 27.2 C 5.2 g/m*3 27.2 C 0 km/h
2071 30-05-2009 19:24:56 27.1 C 5.18 g/m*3 27.1 C 0 km/h
2072 30-05-2009 19:36:55 26.8 C 5.09 g/m*3 26.8 C 0 km/h
2073 30-05-2009 19:48:56 26.1 C 4.9 g/m*3 26.1 C 0 km/h
2074 30-05-2009 20:00:55 25.5 C 4.73 g/m*3 25.5 C 0 km/h
2075 30-05-2009 20:12:55 25.1 C 4.86 g/m*3 25.1 C 0 km/h
Sensor: Nr:Datum:Temp:Abs-Feuchte:Windchill:Wind:
Aussen-T/F 2076 30-05-2009 20:24:55 24.5 C 4.92 g/m*3 24.5 C 0 km/h
2077 30-05-2009 20:36:55 23.6 C 5.32 g/m*3 23.6 C 0 km/h
2078 30-05-2009 20:48:55 22.6 C 5.42 g/m*3 22.6 C 0 km/h
2079 30-05-2009 21:00:55 21.6 C 5.88 g/m*3 21.6 C 0 km/h
2080 30-05-2009 21:12:56 20.9 C 6.19 g/m*3 20.9 C 0 km/h
2081 30-05-2009 21:24:54 20.4 C 6.19 g/m*3 20.4 C 0 km/h
2082 30-05-2009 21:36:54 19.7 C 6.28 g/m*3 19.7 C 0 km/h
2083 30-05-2009 21:48:54 19.6 C 6.58 g/m*3 19.6 C 0 km/h
2084 30-05-2009 22:00:54 18.9 C 6.48 g/m*3 18.9 C 0 km/h
2085 30-05-2009 22:12:54 18.7 C 6.72 g/m*3 18.7 C 0 km/h
2086 30-05-2009 22:24:54 18.2 C 6.53 g/m*3 18.2 C 0 km/h
2087 30-05-2009 22:36:54 17.8 C 6.68 g/m*3 17.8 C 0 km/h
2088 30-05-2009 22:48:54 17.5 C 6.71 g/m*3 17.5 C 0 km/h
2089 30-05-2009 23:01:54 17.5 C 6.86 g/m*3 17.5 C 0 km/h
2090 30-05-2009 23:13:54 17.3 C 6.78 g/m*3 17.3 C 0 km/h
2091 30-05-2009 23:25:54 17.2 C 6.88 g/m*3 17.2 C 0 km/h
2092 30-05-2009 23:37:54 17 C 6.95 g/m*3 17 C 0 km/h
2093 30-05-2009 23:49:54 17 C 6.95 g/m*3 17 C 0 km/h
2094 31-05-2009 00:01:54 16.6 C 6.92 g/m*3 16.6 C 0 km/h
2095 31-05-2009 00:13:54 16.4 C 7.12 g/m*3 16.4 C 0 km/h
2096 31-05-2009 00:25:54 16.3 C 7.21 g/m*3 16.3 C 0 km/h
2097 31-05-2009 00:37:54 16.6 C 7.35 g/m*3 16.6 C 0 km/h
2098 31-05-2009 00:49:55 16.7 C 7.39 g/m*3 16.7 C 0 km/h
2099 31-05-2009 01:01:55 16.7 C 7.39 g/m*3 16.7 C 0 km/h
2100 31-05-2009 01:13:55 16.4 C 7.4 g/m*3 16.4 C 0 km/h
Sensor: Nr:Datum:Temp:Abs-Feuchte:Windchill:Wind:
Aussen-T/F 2101 31-05-2009 01:25:55 16 C 7.36 g/m*3 16 C 0 km/h
2102 31-05-2009 01:37:55 15.5 C 7.4 g/m*3 15.5 C 0 km/h
2103 31-05-2009 01:49:55 15.6 C 7.71 g/m*3 15.6 C 0 km/h
2104 31-05-2009 02:01:55 15.8 C 7.67 g/m*3 15.8 C 0 km/h
2105 31-05-2009 02:13:55 15.8 C 7.67 g/m*3 15.8 C 0 km/h
2106 31-05-2009 02:25:55 15.7 C 7.76 g/m*3 15.7 C 0 km/h
2107 31-05-2009 02:37:55 15.9 C 7.85 g/m*3 15.9 C 0 km/h
2108 31-05-2009 02:49:55 15.9 C 7.85 g/m*3 15.9 C 0 km/h
2109 31-05-2009 03:01:55 15.8 C 7.81 g/m*3 15.8 C 0 km/h
2110 31-05-2009 03:13:55 15.9 C 7.72 g/m*3 15.9 C 0 km/h
2111 31-05-2009 03:25:55 15.6 C 7.71 g/m*3 15.6 C 0 km/h
2112 31-05-2009 03:37:55 15.5 C 7.8 g/m*3 15.5 C 0 km/h
2113 31-05-2009 03:49:55 15.5 C 7.8 g/m*3 15.5 C 0 km/h
2114 31-05-2009 04:01:55 15.6 C 7.98 g/m*3 15.6 C 0 km/h
2115 31-05-2009 04:13:55 15.5 C 7.93 g/m*3 15.5 C 0 km/h
2116 31-05-2009 04:25:55 15.2 C 7.92 g/m*3 15.2 C 0 km/h
2117 31-05-2009 04:37:56 15.4 C 8.01 g/m*3 15.4 C 0 km/h
2118 31-05-2009 04:49:56 15.5 C 8.06 g/m*3 15.5 C 0 km/h
2119 31-05-2009 05:01:56 15.5 C 8.06 g/m*3 15.5 C 0 km/h
2120 31-05-2009 05:13:56 15.4 C 8.01 g/m*3 15.4 C 0 km/h
2121 31-05-2009 05:25:56 15.4 C 8.01 g/m*3 15.4 C 0 km/h
2122 31-05-2009 05:37:56 15.4 C 8.01 g/m*3 15.4 C 0 km/h
2123 31-05-2009 05:49:56 15.4 C 8.15 g/m*3 15.4 C 0 km/h
2124 31-05-2009 06:01:56 15.3 C 8.1 g/m*3 15.3 C 0 km/h
2125 31-05-2009 06:13:56 15.4 C 8.28 g/m*3 15.4 C 0 km/h
Sensor: Nr:Datum:Temp:Abs-Feuchte:Windchill:Wind:
Aussen-T/F 2126 31-05-2009 06:25:56 15.6 C 8.38 g/m*3 15.6 C 0 km/h
2127 31-05-2009 06:37:56 15.8 C 8.35 g/m*3 15.8 C 0 km/h
2128 31-05-2009 06:49:56 15.9 C 8.4 g/m*3 15.9 C 0 km/h
2129 31-05-2009 07:01:56 16 C 8.31 g/m*3 16 C 0 km/h
2130 31-05-2009 07:13:56 15.9 C 8.26 g/m*3 15.9 C 0 km/h
2131 31-05-2009 07:25:56 16 C 8.31 g/m*3 16 C 0 km/h
2132 31-05-2009 07:37:56 16 C 8.58 g/m*3 16 C 0 km/h
2133 31-05-2009 07:49:56 16 C 8.58 g/m*3 16 C 0 km/h
2134 31-05-2009 08:01:54 15.9 C 8.67 g/m*3 15.9 C 0 km/h
2135 31-05-2009 08:13:54 16.2 C 8.83 g/m*3 16.2 C 0 km/h
2136 31-05-2009 08:25:54 16.7 C 8.95 g/m*3 16.7 C 0 km/h
2137 31-05-2009 08:37:53 17.5 C 8.8 g/m*3 17.5 C 0 km/h
2138 31-05-2009 08:49:54 17.6 C 8.7 g/m*3 17.6 C 0 km/h
2139 31-05-2009 09:01:53 17.7 C 8.75 g/m*3 17.7 C 0 km/h
2140 31-05-2009 09:13:53 18.3 C 8.6 g/m*3 18.3 C 0 km/h
2141 31-05-2009 09:25:53 18.6 C 8.59 g/m*3 18.6 C 0 km/h
2142 31-05-2009 09:37:54 18.9 C 8.59 g/m*3 18.9 C 0 km/h
2143 31-05-2009 09:49:53 18.9 C 8.26 g/m*3 18.9 C 0 km/h
2144 31-05-2009 10:01:53 19.3 C 8.29 g/m*3 19.3 C 0 km/h
2145 31-05-2009 10:13:53 20.1 C 8.34 g/m*3 20.1 C 0 km/h
2146 31-05-2009 10:25:53 20.4 C 7.96 g/m*3 20.4 C 0 km/h
2147 31-05-2009 10:37:53 20.5 C 8.01 g/m*3 20.5 C 0 km/h
2148 31-05-2009 10:49:52 20.5 C 8.19 g/m*3 20.5 C 0 km/h
2149 31-05-2009 11:01:53 20.9 C 8.01 g/m*3 20.9 C 0 km/h
2150 31-05-2009 11:13:54 21.2 C 7.78 g/m*3 21.2 C 0 km/h
Sensor: Nr:Datum:Temp:Abs-Feuchte:Windchill:Wind:
Aussen-T/F 2151 31-05-2009 11:25:52 21.4 C 7.5 g/m*3 21.4 C 0 km/h
2152 31-05-2009 11:37:52 21.9 C 7.53 g/m*3 21.9 C 0 km/h
2153 31-05-2009 11:49:51 22.4 C 7.35 g/m*3 22.4 C 0 km/h
2154 31-05-2009 12:01:52 23.3 C 7.11 g/m*3 23.3 C 0 km/h
2155 31-05-2009 12:13:52 23.9 C 7.14 g/m*3 23.9 C 0 km/h
2156 31-05-2009 12:25:52 23 C 6.78 g/m*3 23 C 0 km/h
2157 31-05-2009 12:37:51 22.7 C 7.07 g/m*3 22.7 C 0 km/h
2158 31-05-2009 12:49:52 22.2 C 7.07 g/m*3 22.2 C 0 km/h
2159 31-05-2009 13:01:51 23.1 C 6.82 g/m*3 23.1 C 0 km/h
2160 31-05-2009 13:13:51 25.6 C 6.43 g/m*3 25.6 C 0 km/h
2161 31-05-2009 13:25:51 26.1 C 5.39 g/m*3 26.1 C 0 km/h
2162 31-05-2009 13:37:51 23.5 C 6.13 g/m*3 23.5 C 0 km/h
2163 31-05-2009 13:49:51 23.1 C 5.99 g/m*3 23.1 C 0 km/h
2164 31-05-2009 14:01:51 24.5 C 6.49 g/m*3 24.5 C 0 km/h
2165 31-05-2009 14:13:51 25 C 6.22 g/m*3 25 C 0 km/h
2166 31-05-2009 14:25:50 25.4 C 5.89 g/m*3 25.4 C 0 km/h
2167 31-05-2009 14:37:51 25.7 C 5.99 g/m*3 25.7 C 0 km/h
2168 31-05-2009 14:49:50 25.6 C 5.95 g/m*3 25.6 C 0 km/h
2169 31-05-2009 15:01:50 25.8 C 5.3 g/m*3 25.8 C 0 km/h
2170 31-05-2009 15:13:50 26.3 C 5.2 g/m*3 26.3 C 0 km/h
2171 31-05-2009 15:25:50 25.6 C 5 g/m*3 25.6 C 0 km/h
2172 31-05-2009 15:37:50 26.7 C 5.32 g/m*3 26.7 C 0 km/h
2173 31-05-2009 15:49:49 27.4 C 5.26 g/m*3 27.4 C 0 km/h
2174 31-05-2009 16:01:50 27.1 C 5.18 g/m*3 27.1 C 0 km/h
2175 31-05-2009 16:13:50 27.1 C 5.18 g/m*3 27.1 C 0 km/h
Sensor: Nr:Datum:Temp:Abs-Feuchte:Windchill:Wind:
Aussen-T/F 2176 31-05-2009 16:25:50 28.1 C 5.47 g/m*3 28.1 C 0 km/h
2177 31-05-2009 16:37:49 27.1 C 5.18 g/m*3 27.1 C 0 km/h
2178 31-05-2009 16:49:50 27 C 5.15 g/m*3 27 C 0 km/h
2179 31-05-2009 17:01:49 25.4 C 5.41 g/m*3 25.4 C 0 km/h
2180 31-05-2009 17:13:49 25.5 C 5.21 g/m*3 25.5 C 0 km/h
2181 31-05-2009 17:25:49 25.8 C 5.3 g/m*3 25.8 C 0 km/h
2182 31-05-2009 17:37:48 25.8 C 5.54 g/m*3 25.8 C 0 km/h
2183 31-05-2009 17:49:49 25.5 C 5.21 g/m*3 25.5 C 0 km/h
2184 31-05-2009 18:01:48 24.8 C 5.46 g/m*3 24.8 C 0 km/h
2185 31-05-2009 18:13:48 27.5 C 5.29 g/m*3 27.5 C 0 km/h
2186 31-05-2009 18:25:48 25.6 C 5.24 g/m*3 25.6 C 0 km/h
2187 31-05-2009 18:37:49 25.7 C 5.75 g/m*3 25.7 C 0 km/h
2188 31-05-2009 18:49:48 27 C 5.4 g/m*3 27 C 0 km/h
2189 31-05-2009 19:01:48 27.5 C 5.56 g/m*3 27.5 C 0 km/h
2190 31-05-2009 19:13:48 27.5 C 5.56 g/m*3 27.5 C 0 km/h
2191 31-05-2009 19:25:48 27.6 C 5.59 g/m*3 27.6 C 0 km/h
2192 31-05-2009 19:37:47 26.8 C 5.6 g/m*3 26.8 C 0 km/h
2193 31-05-2009 19:49:48 25.6 C 5.95 g/m*3 25.6 C 0 km/h
2194 31-05-2009 20:01:47 24.1 C 5.69 g/m*3 24.1 C 0 km/h
2195 31-05-2009 20:13:47 24.1 C 5.91 g/m*3 24.1 C 0 km/h
2196 31-05-2009 20:25:48 23.3 C 6.06 g/m*3 23.3 C 0 km/h
2197 31-05-2009 20:37:47 22.9 C 6.34 g/m*3 22.9 C 0 km/h
2198 31-05-2009 20:49:47 22.2 C 6.48 g/m*3 22.2 C 0 km/h
2199 31-05-2009 21:01:47 21.4 C 6.75 g/m*3 21.4 C 0 km/h
2200 31-05-2009 21:13:47 20.8 C 6.88 g/m*3 20.8 C 0 km/h
Sensor: Nr:Datum:Temp:Abs-Feuchte:Windchill:Wind:
Aussen-T/F 2201 31-05-2009 21:25:47 20 C 6.57 g/m*3 20 C 0 km/h
2202 31-05-2009 21:37:46 19.6 C 6.75 g/m*3 19.6 C 0 km/h
2203 31-05-2009 21:49:47 19.2 C 6.76 g/m*3 19.2 C 0 km/h
2204 31-05-2009 22:01:46 18.9 C 6.97 g/m*3 18.9 C 0 km/h
2205 31-05-2009 22:13:46 18.6 C 7 g/m*3 18.6 C 0 km/h
2206 31-05-2009 22:25:46 18.4 C 7.08 g/m*3 18.4 C 0 km/h
2207 31-05-2009 22:37:46 18 C 7.07 g/m*3 18 C 0 km/h
2208 31-05-2009 22:49:01 17.8 C 7.29 g/m*3 17.8 C 0 km/h
2209 31-05-2009 23:01:01 17.7 C 7.24 g/m*3 17.7 C 0 km/h
2210 31-05-2009 23:13:01 17.4 C 7.26 g/m*3 17.4 C 0 km/h
2211 31-05-2009 23:25:01 17.2 C 7.32 g/m*3 17.2 C 0 km/h
2212 31-05-2009 23:37:01 16.9 C 7.34 g/m*3 16.9 C 0 km/h
2213 31-05-2009 23:49:00 16.6 C 7.35 g/m*3 16.6 C 0 km/h
2214 01-06-2009 00:01:00 16.6 C 7.49 g/m*3 16.6 C 0 km/h
2215 01-06-2009 00:13:00 16.3 C 7.49 g/m*3 16.3 C 0 km/h
2216 01-06-2009 00:26:01 16.1 C 7.54 g/m*3 16.1 C 0 km/h
2217 01-06-2009 00:38:01 15.9 C 7.85 g/m*3 15.9 C 0 km/h
2218 01-06-2009 00:50:01 15.6 C 7.85 g/m*3 15.6 C 0 km/h
2219 01-06-2009 01:02:01 15.6 C 7.98 g/m*3 15.6 C 0 km/h
2220 01-06-2009 01:14:01 15.2 C 7.92 g/m*3 15.2 C 0 km/h
2221 01-06-2009 01:26:01 14.9 C 7.9 g/m*3 14.9 C 0 km/h
2222 01-06-2009 01:38:01 14.8 C 8.11 g/m*3 14.8 C 0 km/h
2223 01-06-2009 01:50:01 14.6 C 8.01 g/m*3 14.6 C 0 km/h
2224 01-06-2009 02:02:01 14.5 C 7.96 g/m*3 14.5 C 0 km/h
2225 01-06-2009 02:14:01 14.3 C 8.11 g/m*3 14.3 C 0 km/h
Sensor: Nr:Datum:Temp:Abs-Feuchte:Windchill:Wind:
Aussen-T/F 2226 01-06-2009 02:26:01 14.1 C 8.13 g/m*3 14.1 C 0 km/h
2227 01-06-2009 02:38:01 13.7 C 8.05 g/m*3 13.7 C 0 km/h
2228 01-06-2009 02:50:01 13.8 C 8.22 g/m*3 13.8 C 0 km/h
2229 01-06-2009 03:02:01 13.6 C 8.24 g/m*3 13.6 C 0 km/h
2230 01-06-2009 03:14:01 13.4 C 8.25 g/m*3 13.4 C 0 km/h
2231 01-06-2009 03:26:01 13.3 C 8.2 g/m*3 13.3 C 0 km/h
2232 01-06-2009 03:38:01 13.1 C 8.22 g/m*3 13.1 C 0 km/h
2233 01-06-2009 03:50:01 13 C 8.28 g/m*3 13 C 0 km/h
2234 01-06-2009 04:02:01 12.9 C 8.34 g/m*3 12.9 C 0 km/h
2235 01-06-2009 04:14:02 12.8 C 8.4 g/m*3 12.8 C 0 km/h
2236 01-06-2009 04:26:02 12.6 C 8.3 g/m*3 12.6 C 0 km/h
2237 01-06-2009 04:38:02 12.5 C 8.36 g/m*3 12.5 C 0 km/h
2238 01-06-2009 04:50:02 12.4 C 8.3 g/m*3 12.4 C 0 km/h
2239 01-06-2009 05:02:02 12.2 C 8.2 g/m*3 12.2 C 0 km/h
2240 01-06-2009 05:14:02 12.3 C 8.25 g/m*3 12.3 C 0 km/h
2241 01-06-2009 05:26:02 12.4 C 8.41 g/m*3 12.4 C 0 km/h
2242 01-06-2009 05:38:02 12.6 C 8.52 g/m*3 12.6 C 0 km/h
2243 01-06-2009 05:50:02 12.8 C 8.51 g/m*3 12.8 C 0 km/h
2244 01-06-2009 06:02:02 12.8 C 8.51 g/m*3 12.8 C 0 km/h
2245 01-06-2009 06:14:02 13 C 8.39 g/m*3 13 C 0 km/h
2246 01-06-2009 06:26:02 13.2 C 8.5 g/m*3 13.2 C 0 km/h
2247 01-06-2009 06:38:02 13.2 C 8.38 g/m*3 13.2 C 0 km/h
2248 01-06-2009 06:50:02 13.5 C 8.54 g/m*3 13.5 C 0 km/h
2249 01-06-2009 07:02:02 13.5 C 8.54 g/m*3 13.5 C 0 km/h
2250 01-06-2009 07:14:02 13.6 C 8.59 g/m*3 13.6 C 0 km/h
Sensor: Nr:Datum:Temp:Abs-Feuchte:Windchill:Wind:
Aussen-T/F 2251 01-06-2009 07:26:02 13.8 C 8.7 g/m*3 13.8 C 0 km/h
2252 01-06-2009 07:38:02 14.3 C 8.72 g/m*3 14.3 C 0 km/h
2253 01-06-2009 07:50:02 14.4 C 8.65 g/m*3 14.4 C 0 km/h
2254 01-06-2009 08:02:03 14.3 C 8.72 g/m*3 14.3 C 0 km/h
2255 01-06-2009 08:14:03 14.5 C 8.83 g/m*3 14.5 C 0 km/h
2256 01-06-2009 08:26:03 15.1 C 8.9 g/m*3 15.1 C 0 km/h
2257 01-06-2009 08:38:01 15.9 C 8.94 g/m*3 15.9 C 0 km/h
2258 01-06-2009 08:50:01 16.9 C 8.92 g/m*3 16.9 C 0 km/h
2259 01-06-2009 09:02:00 17.1 C 8.73 g/m*3 17.1 C 0 km/h
2260 01-06-2009 09:14:00 17.6 C 9 g/m*3 17.6 C 0 km/h
2261 01-06-2009 09:26:01 18.2 C 8.7 g/m*3 18.2 C 0 km/h
2262 01-06-2009 09:38:01 18.3 C 8.76 g/m*3 18.3 C 0 km/h
2263 01-06-2009 09:50:00 18.7 C 8.81 g/m*3 18.7 C 0 km/h
2264 01-06-2009 10:02:01 19.6 C 8.78 g/m*3 19.6 C 0 km/h
2265 01-06-2009 10:14:01 20.1 C 8.52 g/m*3 20.1 C 0 km/h
2266 01-06-2009 10:26:00 20.8 C 8.87 g/m*3 20.8 C 0 km/h
2267 01-06-2009 10:38:00 21.7 C 9.16 g/m*3 21.7 C 0 km/h
2268 01-06-2009 10:50:00 22.1 C 8.39 g/m*3 22.1 C 0 km/h
2269 01-06-2009 11:14:00 22.5 C 8.39 g/m*3 22.5 C 0 km/h
2270 01-06-2009 11:14:00 22.8 C 8.53 g/m*3 22.8 C 0 km/h
2271 01-06-2009 11:14:00 22.5 C 8.39 g/m*3 22.5 C 0 km/h
2272 01-06-2009 11:14:00 22.8 C 8.53 g/m*3 22.8 C 0 km/h
2273 01-06-2009 11:26:00 22.6 C 8.44 g/m*3 22.6 C 0 km/h
2274 01-06-2009 11:37:59 23.3 C 8.15 g/m*3 23.3 C 0 km/h
2275 01-06-2009 11:50:59 24.5 C 8.06 g/m*3 24.5 C 0 km/h
Sensor: Nr:Datum:Temp:Abs-Feuchte:Windchill:Wind:
Aussen-T/F 2276 01-06-2009 12:02:59 24.5 C 7.83 g/m*3 24.5 C 0 km/h
2277 01-06-2009 12:14:58 25.7 C 7.42 g/m*3 25.7 C 0 km/h
2278 01-06-2009 12:26:58 26.5 C 7.76 g/m*3 26.5 C 0 km/h
2279 01-06-2009 12:38:59 26.8 C 7.38 g/m*3 26.8 C 0 km/h
2280 01-06-2009 12:50:58 26.2 C 7.39 g/m*3 26.2 C 0 km/h
2281 01-06-2009 13:02:58 25.4 C 8.24 g/m*3 25.4 C 0 km/h
2282 01-06-2009 13:14:59 24.8 C 8.65 g/m*3 24.8 C 0 km/h
2283 01-06-2009 13:26:59 25.6 C 8.09 g/m*3 25.6 C 0 km/h
2284 01-06-2009 13:38:58 25.7 C 8.38 g/m*3 25.7 C 0 km/h
2285 01-06-2009 13:50:58 24.4 C 8.46 g/m*3 24.4 C 0 km/h
2286 01-06-2009 14:02:58 19.6 C 9.12 g/m*3 19.6 C 0 km/h
2287 01-06-2009 14:14:58 19 C 11.73 g/m*3 19 C 0 km/h
2288 01-06-2009 14:26:59 20.1 C 12.69 g/m*3 20.1 C 0 km/h
2289 01-06-2009 14:38:57 22.4 C 11.12 g/m*3 22.4 C 0 km/h
2290 01-06-2009 14:50:57 22.7 C 11.11 g/m*3 22.7 C 0 km/h
2291 01-06-2009 15:02:57 22.1 C 12.1 g/m*3 22.1 C 0 km/h
2292 01-06-2009 15:14:57 22.6 C 12.25 g/m*3 22.6 C 0 km/h
2293 01-06-2009 15:26:57 23.7 C 11.55 g/m*3 23.7 C 0 km/h
2294 01-06-2009 15:38:57 23.6 C 11.91 g/m*3 23.6 C 0 km/h
2295 01-06-2009 15:50:57 24.6 C 11.25 g/m*3 24.6 C 0 km/h
2296 01-06-2009 16:02:57 25.9 C 9.44 g/m*3 25.9 C 0 km/h
2297 01-06-2009 16:14:56 26.9 C 8.7 g/m*3 26.9 C 0 km/h
2298 01-06-2009 16:26:56 28.8 C 7.39 g/m*3 28.8 C 0 km/h
2299 01-06-2009 16:38:56 29.4 C 6.75 g/m*3 29.4 C 0 km/h
2300 01-06-2009 16:50:56 25.6 C 6.9 g/m*3 25.6 C 0 km/h
Sensor: Nr:Datum:Temp:Abs-Feuchte:Windchill:Wind:
Aussen-T/F 2301 01-06-2009 17:02:56 21.6 C 11.57 g/m*3 21.6 C 0 km/h
2302 01-06-2009 17:14:56 22.4 C 11.72 g/m*3 22.4 C 0 km/h
2303 01-06-2009 17:26:56 23.3 C 11.5 g/m*3 23.3 C 0 km/h
2304 01-06-2009 17:38:56 24.3 C 10.4 g/m*3 24.3 C 0 km/h
2305 01-06-2009 17:50:56 24.7 C 9.96 g/m*3 24.7 C 0 km/h
2306 01-06-2009 18:02:55 24.7 C 9.51 g/m*3 24.7 C 0 km/h
2307 01-06-2009 18:14:56 25.4 C 8.95 g/m*3 25.4 C 0 km/h
2308 01-06-2009 18:26:57 25.9 C 9.44 g/m*3 25.9 C 0 km/h
2309 01-06-2009 18:38:55 28 C 8.16 g/m*3 28 C 0 km/h
2310 01-06-2009 18:50:55 27.4 C 8.95 g/m*3 27.4 C 0 km/h
2311 01-06-2009 19:02:54 25.6 C 8.81 g/m*3 25.6 C 0 km/h
2312 01-06-2009 19:14:55 23.7 C 8.34 g/m*3 23.7 C 0 km/h
2313 01-06-2009 19:26:55 24.2 C 8.14 g/m*3 24.2 C 0 km/h
2314 01-06-2009 19:38:55 25.3 C 8.19 g/m*3 25.3 C 0 km/h
2315 01-06-2009 19:50:54 25.3 C 7.73 g/m*3 25.3 C 0 km/h
2316 01-06-2009 20:02:55 25.2 C 7.68 g/m*3 25.2 C 0 km/h
2317 01-06-2009 20:14:54 24.9 C 7.78 g/m*3 24.9 C 0 km/h
2318 01-06-2009 20:26:54 24.5 C 7.61 g/m*3 24.5 C 0 km/h
2319 01-06-2009 20:38:54 23.7 C 7.49 g/m*3 23.7 C 0 km/h
2320 01-06-2009 20:50:54 22.6 C 7.83 g/m*3 22.6 C 0 km/h
2321 01-06-2009 21:02:53 22.1 C 8.59 g/m*3 22.1 C 0 km/h
2322 01-06-2009 21:14:54 21.1 C 8.48 g/m*3 21.1 C 0 km/h
2323 01-06-2009 21:26:54 20.3 C 8.62 g/m*3 20.3 C 0 km/h
2324 01-06-2009 21:38:54 19.7 C 8.49 g/m*3 19.7 C 0 km/h
2325 01-06-2009 21:50:53 19.3 C 8.63 g/m*3 19.3 C 0 km/h
Sensor: Nr:Datum:Temp:Abs-Feuchte:Windchill:Wind:
Aussen-T/F 2326 01-06-2009 22:02:54 19 C 8.64 g/m*3 19 C 0 km/h
2327 01-06-2009 22:14:53 18.6 C 8.91 g/m*3 18.6 C 0 km/h
2328 01-06-2009 22:26:53 18.4 C 8.81 g/m*3 18.4 C 0 km/h
2329 01-06-2009 22:39:09 18.1 C 8.96 g/m*3 18.1 C 0 km/h
2330 01-06-2009 22:51:09 17.8 C 9.11 g/m*3 17.8 C 0 km/h
2331 01-06-2009 23:03:09 17.4 C 8.89 g/m*3 17.4 C 0 km/h
2332 01-06-2009 23:15:09 17.2 C 8.93 g/m*3 17.2 C 0 km/h
2333 01-06-2009 23:27:09 17 C 9.12 g/m*3 17 C 0 km/h
2334 01-06-2009 23:39:09 16.9 C 9.21 g/m*3 16.9 C 0 km/h
2335 01-06-2009 23:51:09 16.6 C 9.18 g/m*3 16.6 C 0 km/h
2336 02-06-2009 00:03:09 16.4 C 9.21 g/m*3 16.4 C 0 km/h
2337 02-06-2009 00:15:09 16.1 C 9.18 g/m*3 16.1 C 0 km/h
2338 02-06-2009 00:27:09 16 C 9.26 g/m*3 16 C 0 km/h
2339 02-06-2009 00:39:09 15.8 C 9.56 g/m*3 15.8 C 0 km/h
2340 02-06-2009 00:51:09 15.5 C 9.65 g/m*3 15.5 C 0 km/h
2341 02-06-2009 01:03:09 15.3 C 9.66 g/m*3 15.3 C 0 km/h
2342 02-06-2009 01:15:09 15 C 9.62 g/m*3 15 C 0 km/h
2343 02-06-2009 01:27:10 14.9 C 9.69 g/m*3 14.9 C 0 km/h
2344 02-06-2009 01:39:10 14.7 C 9.82 g/m*3 14.7 C 0 km/h
2345 02-06-2009 01:51:10 14.6 C 9.76 g/m*3 14.6 C 0 km/h
2346 02-06-2009 02:03:10 14.4 C 9.64 g/m*3 14.4 C 0 km/h
2347 02-06-2009 02:15:10 14.1 C 9.59 g/m*3 14.1 C 0 km/h
2348 02-06-2009 02:27:10 14 C 9.65 g/m*3 14 C 0 km/h
2349 02-06-2009 02:39:10 13.7 C 9.59 g/m*3 13.7 C 0 km/h
2350 02-06-2009 02:51:10 13.7 C 9.59 g/m*3 13.7 C 0 km/h
Sensor: Nr:Datum:Temp:Abs-Feuchte:Windchill:Wind:
Aussen-T/F 2351 02-06-2009 03:03:10 13.7 C 9.59 g/m*3 13.7 C 0 km/h
2352 02-06-2009 03:15:10 13.5 C 9.59 g/m*3 13.5 C 0 km/h
2353 02-06-2009 03:27:10 13.4 C 9.53 g/m*3 13.4 C 0 km/h
2354 02-06-2009 03:39:10 13.4 C 9.53 g/m*3 13.4 C 0 km/h
2355 02-06-2009 03:51:10 13.4 C 9.53 g/m*3 13.4 C 0 km/h
2356 02-06-2009 04:03:10 13.4 C 9.42 g/m*3 13.4 C 0 km/h
2357 02-06-2009 04:15:10 13.2 C 9.3 g/m*3 13.2 C 0 km/h
2358 02-06-2009 04:27:10 13 C 9.19 g/m*3 13 C 0 km/h
2359 02-06-2009 04:39:10 12.9 C 9.35 g/m*3 12.9 C 0 km/h
2360 02-06-2009 04:51:10 12.8 C 9.3 g/m*3 12.8 C 0 km/h
2361 02-06-2009 05:03:10 12.7 C 9.35 g/m*3 12.7 C 0 km/h
2362 02-06-2009 05:15:11 12.5 C 9.24 g/m*3 12.5 C 0 km/h
2363 02-06-2009 05:27:11 12.4 C 9.18 g/m*3 12.4 C 0 km/h
2364 02-06-2009 05:39:11 12.4 C 9.18 g/m*3 12.4 C 0 km/h
2365 02-06-2009 05:51:11 12.4 C 9.18 g/m*3 12.4 C 0 km/h
2366 02-06-2009 06:03:11 12.4 C 9.18 g/m*3 12.4 C 0 km/h
2367 02-06-2009 06:15:11 12.6 C 9.18 g/m*3 12.6 C 0 km/h
2368 02-06-2009 06:27:11 12.9 C 8.9 g/m*3 12.9 C 0 km/h
2369 02-06-2009 06:39:54 13.1 C 8.22 g/m*3 13.1 C 0 km/h
2370 02-06-2009 06:51:54 13.5 C 7.95 g/m*3 13.5 C 0 km/h
2371 02-06-2009 07:03:53 13.6 C 7.77 g/m*3 13.6 C 0 km/h
2372 02-06-2009 07:15:54 13.7 C 7.7 g/m*3 13.7 C 0 km/h
2373 02-06-2009 07:27:54 13.8 C 7.86 g/m*3 13.8 C 0 km/h
2374 02-06-2009 07:39:53 13.7 C 7.7 g/m*3 13.7 C 0 km/h
2375 02-06-2009 07:51:53 14 C 7.6 g/m*3 14 C 0 km/h
Sensor: Nr:Datum:Temp:Abs-Feuchte:Windchill:Wind:
Aussen-T/F 2376 02-06-2009 08:03:53 14.2 C 7.82 g/m*3 14.2 C 0 km/h
2377 02-06-2009 08:15:53 14.4 C 7.91 g/m*3 14.4 C 0 km/h
2378 02-06-2009 08:27:53 14.6 C 7.63 g/m*3 14.6 C 0 km/h
2379 02-06-2009 08:39:53 14.7 C 7.68 g/m*3 14.7 C 0 km/h
2380 02-06-2009 08:51:53 15.1 C 7.74 g/m*3 15.1 C 0 km/h
2381 02-06-2009 09:03:53 15.5 C 7.8 g/m*3 15.5 C 0 km/h
2382 02-06-2009 09:15:52 15.8 C 7.81 g/m*3 15.8 C 0 km/h
2383 02-06-2009 09:27:52 16 C 7.63 g/m*3 16 C 0 km/h
2384 02-06-2009 09:39:53 16.5 C 7.86 g/m*3 16.5 C 0 km/h
2385 02-06-2009 09:51:52 17 C 7.81 g/m*3 17 C 0 km/h
2386 02-06-2009 10:03:52 17.6 C 7.8 g/m*3 17.6 C 0 km/h
2387 02-06-2009 10:15:51 18 C 7.83 g/m*3 18 C 0 km/h
2388 02-06-2009 10:27:51 18.3 C 7.82 g/m*3 18.3 C 0 km/h
2389 02-06-2009 10:39:52 18.8 C 7.73 g/m*3 18.8 C 0 km/h
2390 02-06-2009 10:51:51 18.8 C 7.57 g/m*3 18.8 C 0 km/h
2391 02-06-2009 11:03:51 19.3 C 7.8 g/m*3 19.3 C 0 km/h
2392 02-06-2009 11:15:52 19.5 C 7.89 g/m*3 19.5 C 0 km/h
2393 02-06-2009 11:27:52 20.6 C 8.23 g/m*3 20.6 C 0 km/h
2394 02-06-2009 11:39:51 20.5 C 8.19 g/m*3 20.5 C 0 km/h
2395 02-06-2009 11:51:51 20.8 C 8.15 g/m*3 20.8 C 0 km/h
2396 02-06-2009 12:03:51 21.8 C 7.87 g/m*3 21.8 C 0 km/h
2397 02-06-2009 12:15:51 22.4 C 7.75 g/m*3 22.4 C 0 km/h
2398 02-06-2009 12:27:51 23.8 C 7.74 g/m*3 23.8 C 0 km/h
2399 02-06-2009 12:39:50 23.2 C 7.28 g/m*3 23.2 C 0 km/h
2400 02-06-2009 12:51:51 23.8 C 7.31 g/m*3 23.8 C 0 km/h
Sensor: Nr:Datum:Temp:Abs-Feuchte:Windchill:Wind:
Aussen-T/F 2401 02-06-2009 13:03:50 24.1 C 7 g/m*3 24.1 C 0 km/h
2402 02-06-2009 13:15:50 24.3 C 6.86 g/m*3 24.3 C 0 km/h
2403 02-06-2009 13:27:50 24.4 C 6.45 g/m*3 24.4 C 0 km/h
2404 02-06-2009 13:39:50 24.6 C 5.85 g/m*3 24.6 C 0 km/h
2405 02-06-2009 13:51:50 24.4 C 5.56 g/m*3 24.4 C 0 km/h
2406 02-06-2009 14:03:50 24.3 C 5.53 g/m*3 24.3 C 0 km/h
2407 02-06-2009 14:15:49 24.6 C 5.85 g/m*3 24.6 C 0 km/h
2408 02-06-2009 14:27:49 24 C 5.87 g/m*3 24 C 0 km/h
2409 02-06-2009 14:39:50 25.2 C 5.82 g/m*3 25.2 C 0 km/h
2410 02-06-2009 14:51:49 24.6 C 5.63 g/m*3 24.6 C 0 km/h
2411 02-06-2009 15:03:49 24.7 C 5.21 g/m*3 24.7 C 0 km/h
2412 02-06-2009 15:15:48 25.4 C 5.41 g/m*3 25.4 C 0 km/h
2413 02-06-2009 15:27:48 25.7 C 5.03 g/m*3 25.7 C 0 km/h
2414 02-06-2009 15:39:49 25.9 C 5.57 g/m*3 25.9 C 0 km/h
2415 02-06-2009 15:51:48 27 C 5.4 g/m*3 27 C 0 km/h
2416 02-06-2009 16:03:48 26.5 C 5.76 g/m*3 26.5 C 0 km/h
2417 02-06-2009 16:15:49 26 C 5.11 g/m*3 26 C 0 km/h
2418 02-06-2009 16:27:49 26.7 C 5.06 g/m*3 26.7 C 0 km/h
2419 02-06-2009 16:39:48 27.1 C 5.18 g/m*3 27.1 C 0 km/h
2420 02-06-2009 16:51:48 27 C 5.15 g/m*3 27 C 0 km/h
2421 02-06-2009 17:03:48 27.8 C 5.38 g/m*3 27.8 C 0 km/h
2422 02-06-2009 17:15:48 27.5 C 5.29 g/m*3 27.5 C 0 km/h
2423 02-06-2009 17:27:49 27.1 C 5.18 g/m*3 27.1 C 0 km/h
2424 02-06-2009 17:39:47 27.8 C 5.38 g/m*3 27.8 C 0 km/h
2425 02-06-2009 17:51:48 27.6 C 5.32 g/m*3 27.6 C 0 km/h
Sensor: Nr:Datum:Temp:Abs-Feuchte:Windchill:Wind:
Aussen-T/F 2426 02-06-2009 18:03:48 27.8 C 5.38 g/m*3 27.8 C 0 km/h
2427 02-06-2009 18:15:47 28.1 C 5.47 g/m*3 28.1 C 0 km/h
2428 02-06-2009 18:27:47 28.5 C 5.59 g/m*3 28.5 C 0 km/h
2429 02-06-2009 18:39:47 29.2 C 5.81 g/m*3 29.2 C 0 km/h
2430 02-06-2009 18:51:47 27.5 C 5.29 g/m*3 27.5 C 0 km/h
2431 02-06-2009 19:03:47 28.6 C 5.62 g/m*3 28.6 C 0 km/h
2432 02-06-2009 19:15:46 28.2 C 5.5 g/m*3 28.2 C 0 km/h
2433 02-06-2009 19:27:46 28.1 C 5.47 g/m*3 28.1 C 0 km/h
2434 02-06-2009 19:39:47 27.4 C 5.26 g/m*3 27.4 C 0 km/h
2435 02-06-2009 19:51:46 27.9 C 5.68 g/m*3 27.9 C 0 km/h
2436 02-06-2009 20:03:46 27.6 C 5.59 g/m*3 27.6 C 0 km/h
2437 02-06-2009 20:15:46 27.3 C 5.49 g/m*3 27.3 C 0 km/h
2438 02-06-2009 20:27:46 26.4 C 5.73 g/m*3 26.4 C 0 km/h
2439 02-06-2009 20:39:46 25.3 C 5.85 g/m*3 25.3 C 0 km/h
2440 02-06-2009 20:51:46 24.2 C 5.72 g/m*3 24.2 C 0 km/h
2441 02-06-2009 21:03:45 23.9 C 5.62 g/m*3 23.9 C 0 km/h
2442 02-06-2009 21:15:46 23.3 C 5.23 g/m*3 23.3 C 0 km/h
2443 02-06-2009 21:27:46 22.7 C 5.46 g/m*3 22.7 C 0 km/h
2444 02-06-2009 21:39:45 22.4 C 5.56 g/m*3 22.4 C 0 km/h
2445 02-06-2009 21:51:13 22.1 C 5.47 g/m*3 22.1 C 0 km/h
2446 02-06-2009 22:03:13 21.7 C 5.72 g/m*3 21.7 C 0 km/h
2447 02-06-2009 22:15:13 21.5 C 5.66 g/m*3 21.5 C 0 km/h
2448 02-06-2009 22:27:13 21.2 C 5.56 g/m*3 21.2 C 0 km/h
2449 02-06-2009 22:39:13 20.9 C 5.83 g/m*3 20.9 C 0 km/h
2450 02-06-2009 22:51:13 20.6 C 5.91 g/m*3 20.6 C 0 km/h
Sensor: Nr:Datum:Temp:Abs-Feuchte:Windchill:Wind:
Aussen-T/F 2451 02-06-2009 23:03:13 20.3 C 5.8 g/m*3 20.3 C 0 km/h
2452 02-06-2009 23:15:13 20.2 C 5.77 g/m*3 20.2 C 0 km/h
2453 02-06-2009 23:27:45 19.9 C 5.84 g/m*3 19.9 C 0 km/h
2454 02-06-2009 23:39:45 19.7 C 5.77 g/m*3 19.7 C 0 km/h
2455 02-06-2009 23:51:45 19.9 C 6.01 g/m*3 19.9 C 0 km/h
2456 03-06-2009 00:03:45 19.7 C 5.77 g/m*3 19.7 C 0 km/h
2457 03-06-2009 00:15:45 19.4 C 5.67 g/m*3 19.4 C 0 km/h
2458 03-06-2009 00:27:45 19 C 5.38 g/m*3 19 C 0 km/h
2459 03-06-2009 00:39:44 18.6 C 5.57 g/m*3 18.6 C 0 km/h
2460 03-06-2009 00:51:45 18.2 C 5.44 g/m*3 18.2 C 0 km/h
2461 03-06-2009 01:03:44 17.9 C 5.5 g/m*3 17.9 C 0 km/h
2462 03-06-2009 01:15:44 17.7 C 5.43 g/m*3 17.7 C 0 km/h
2463 03-06-2009 01:27:44 17.3 C 5.3 g/m*3 17.3 C 0 km/h
2464 03-06-2009 01:39:44 17.1 C 5.24 g/m*3 17.1 C 0 km/h
2465 03-06-2009 01:51:44 16.8 C 5.29 g/m*3 16.8 C 0 km/h
2466 03-06-2009 02:03:44 16.4 C 5.16 g/m*3 16.4 C 0 km/h
2467 03-06-2009 02:15:43 16 C 5.18 g/m*3 16 C 0 km/h
2468 03-06-2009 02:27:43 15.7 C 5.22 g/m*3 15.7 C 0 km/h
2469 03-06-2009 02:39:44 15.4 C 5.65 g/m*3 15.4 C 0 km/h
2470 03-06-2009 02:52:45 15.1 C 5.81 g/m*3 15.1 C 0 km/h
2471 03-06-2009 03:04:45 15 C 5.77 g/m*3 15 C 0 km/h
2472 03-06-2009 03:16:45 14.6 C 5.88 g/m*3 14.6 C 0 km/h
2473 03-06-2009 03:28:45 14.4 C 5.81 g/m*3 14.4 C 0 km/h
2474 03-06-2009 03:40:45 14.2 C 5.74 g/m*3 14.2 C 0 km/h
2475 03-06-2009 03:52:45 13.8 C 5.96 g/m*3 13.8 C 0 km/h
Sensor: Nr:Datum:Temp:Abs-Feuchte:Windchill:Wind:
Aussen-T/F 2476 03-06-2009 04:04:45 13.7 C 6.04 g/m*3 13.7 C 0 km/h
2477 03-06-2009 04:16:44 13.6 C 6 g/m*3 13.6 C 0 km/h
2478 03-06-2009 04:28:44 13.5 C 5.97 g/m*3 13.5 C 0 km/h
2479 03-06-2009 04:40:45 13.3 C 6.01 g/m*3 13.3 C 0 km/h
2480 03-06-2009 04:52:44 13.1 C 5.93 g/m*3 13.1 C 0 km/h
2481 03-06-2009 05:04:44 13 C 5.9 g/m*3 13 C 0 km/h
2482 03-06-2009 05:16:44 13 C 5.9 g/m*3 13 C 0 km/h
2483 03-06-2009 05:28:44 12.8 C 5.94 g/m*3 12.8 C 0 km/h
2484 03-06-2009 05:40:44 12.7 C 6.01 g/m*3 12.7 C 0 km/h
2485 03-06-2009 05:52:44 12.7 C 6.01 g/m*3 12.7 C 0 km/h
2486 03-06-2009 06:04:43 12.9 C 6.2 g/m*3 12.9 C 0 km/h
2487 03-06-2009 06:16:43 13 C 6.24 g/m*3 13 C 0 km/h
2488 03-06-2009 06:28:43 13 C 6.24 g/m*3 13 C 0 km/h
2489 03-06-2009 06:40:43 13 C 6.35 g/m*3 13 C 0 km/h
2490 03-06-2009 06:52:43 12.9 C 6.54 g/m*3 12.9 C 0 km/h
2491 03-06-2009 07:04:42 12.8 C 6.27 g/m*3 12.8 C 0 km/h
2492 03-06-2009 07:16:43 12.7 C 6.35 g/m*3 12.7 C 0 km/h
2493 03-06-2009 07:28:43 12.5 C 6.05 g/m*3 12.5 C 0 km/h
2494 03-06-2009 07:40:43 12.8 C 6.16 g/m*3 12.8 C 0 km/h
2495 03-06-2009 07:52:42 12.9 C 6.2 g/m*3 12.9 C 0 km/h
2496 03-06-2009 08:04:43 12.8 C 5.94 g/m*3 12.8 C 0 km/h
2497 03-06-2009 08:16:42 12.8 C 5.94 g/m*3 12.8 C 0 km/h
2498 03-06-2009 08:28:42 13 C 5.9 g/m*3 13 C 0 km/h
2499 03-06-2009 08:40:42 13 C 5.67 g/m*3 13 C 0 km/h
2500 03-06-2009 08:52:42 13.1 C 5.48 g/m*3 13.1 C 0 km/h
Sensor: Nr:Datum:Temp:Abs-Feuchte:Windchill:Wind:
Aussen-T/F 2501 03-06-2009 09:04:42 13.5 C 5.5 g/m*3 13.5 C 0 km/h
2502 03-06-2009 09:16:41 13.9 C 5.39 g/m*3 13.9 C 0 km/h
2503 03-06-2009 09:28:41 13.9 C 5.04 g/m*3 13.9 C 0 km/h
2504 03-06-2009 09:40:41 14.6 C 5.13 g/m*3 14.6 C 0 km/h
2505 03-06-2009 09:52:41 14.7 C 5.67 g/m*3 14.7 C 0 km/h
2506 03-06-2009 10:04:41 14.2 C 5.62 g/m*3 14.2 C 0 km/h
2507 03-06-2009 10:16:41 14.9 C 5.23 g/m*3 14.9 C 0 km/h
2508 03-06-2009 10:28:41 14.6 C 5.63 g/m*3 14.6 C 0 km/h
2509 03-06-2009 10:40:41 15 C 5.39 g/m*3 15 C 0 km/h
2510 03-06-2009 10:52:41 15.4 C 5.26 g/m*3 15.4 C 0 km/h
2511 03-06-2009 11:04:40 14.9 C 5.23 g/m*3 14.9 C 0 km/h
2512 03-06-2009 11:16:41 15.2 C 5.19 g/m*3 15.2 C 0 km/h
2513 03-06-2009 11:28:41 16 C 5.31 g/m*3 16 C 0 km/h
2514 03-06-2009 11:40:40 16.8 C 5.43 g/m*3 16.8 C 0 km/h
2515 03-06-2009 11:52:40 17 C 5.21 g/m*3 17 C 0 km/h
2516 03-06-2009 12:04:40 16.7 C 4.97 g/m*3 16.7 C 0 km/h
2517 03-06-2009 12:16:40 16.8 C 4.86 g/m*3 16.8 C 0 km/h
2518 03-06-2009 12:28:40 17.7 C 4.98 g/m*3 17.7 C 0 km/h
2519 03-06-2009 12:40:39 17.9 C 4.73 g/m*3 17.9 C 0 km/h
2520 03-06-2009 12:52:40 18.8 C 4.83 g/m*3 18.8 C 0 km/h
2521 03-06-2009 13:04:40 17.3 C 4.42 g/m*3 17.3 C 0 km/h
2522 03-06-2009 13:16:39 18.2 C 4.66 g/m*3 18.2 C 0 km/h
2523 03-06-2009 13:28:39 19.5 C 4.53 g/m*3 19.5 C 0 km/h
2524 03-06-2009 13:40:39 18.4 C 4.09 g/m*3 18.4 C 0 km/h
2525 03-06-2009 13:52:39 19.8 C 4.27 g/m*3 19.8 C 0 km/h
Sensor: Nr:Datum:Temp:Abs-Feuchte:Windchill:Wind:
Aussen-T/F 2526 03-06-2009 14:04:39 19.3 C 4.15 g/m*3 19.3 C 0 km/h
2527 03-06-2009 14:16:38 20.1 C 4.35 g/m*3 20.1 C 0 km/h
2528 03-06-2009 14:28:38 19.3 C 4.31 g/m*3 19.3 C 0 km/h
2529 03-06-2009 14:40:39 19.1 C 4.43 g/m*3 19.1 C 0 km/h
2530 03-06-2009 14:52:38 19.7 C 4.92 g/m*3 19.7 C 0 km/h
2531 03-06-2009 15:04:38 20.5 C 4.45 g/m*3 20.5 C 0 km/h
2532 03-06-2009 15:16:39 20 C 4.67 g/m*3 20 C 0 km/h
2533 03-06-2009 15:28:39 20.8 C 4.53 g/m*3 20.8 C 0 km/h
2534 03-06-2009 15:40:38 20.4 C 4.6 g/m*3 20.4 C 0 km/h
2535 03-06-2009 15:52:37 20.9 C 4.55 g/m*3 20.9 C 0 km/h
2536 03-06-2009 16:04:38 20.1 C 4.52 g/m*3 20.1 C 0 km/h
2537 03-06-2009 16:16:38 20.4 C 4.42 g/m*3 20.4 C 0 km/h
2538 03-06-2009 16:28:38 20.2 C 4.55 g/m*3 20.2 C 0 km/h
2539 03-06-2009 16:40:37 20.3 C 4.75 g/m*3 20.3 C 0 km/h
2540 03-06-2009 16:52:38 20 C 4.32 g/m*3 20 C 0 km/h
2541 03-06-2009 17:04:37 20.3 C 4.57 g/m*3 20.3 C 0 km/h
2542 03-06-2009 17:16:37 20.6 C 4.65 g/m*3 20.6 C 0 km/h
2543 03-06-2009 17:28:37 20.7 C 4.32 g/m*3 20.7 C 0 km/h
2544 03-06-2009 17:40:36 19.4 C 4.34 g/m*3 19.4 C 0 km/h
2545 03-06-2009 17:52:37 20.6 C 4.12 g/m*3 20.6 C 0 km/h
2546 03-06-2009 18:04:36 19.2 C 3.79 g/m*3 19.2 C 0 km/h
2547 03-06-2009 18:16:36 20.3 C 4.05 g/m*3 20.3 C 0 km/h
2548 03-06-2009 18:28:36 19.3 C 3.98 g/m*3 19.3 C 0 km/h
2549 03-06-2009 18:40:37 20 C 4.32 g/m*3 20 C 0 km/h
2550 03-06-2009 18:52:36 19 C 4.24 g/m*3 19 C 0 km/h
Sensor: Nr:Datum:Temp:Abs-Feuchte:Windchill:Wind:
Aussen-T/F 2551 03-06-2009 19:04:36 19.1 C 4.26 g/m*3 19.1 C 0 km/h
2552 03-06-2009 19:16:36 18.8 C 4.51 g/m*3 18.8 C 0 km/h
2553 03-06-2009 19:28:36 18.1 C 4.64 g/m*3 18.1 C 0 km/h
2554 03-06-2009 19:40:36 18 C 4.61 g/m*3 18 C 0 km/h
2555 03-06-2009 19:52:36 18 C 4.76 g/m*3 18 C 0 km/h
2556 03-06-2009 20:04:36 17.7 C 4.83 g/m*3 17.7 C 0 km/h
2557 03-06-2009 20:16:36 16.9 C 5.03 g/m*3 16.9 C 0 km/h
2558 03-06-2009 20:28:36 16.6 C 5.09 g/m*3 16.6 C 0 km/h
2559 03-06-2009 20:40:35 16.4 C 5.02 g/m*3 16.4 C 0 km/h
2560 03-06-2009 20:52:34 16.5 C 4.91 g/m*3 16.5 C 0 km/h
2561 03-06-2009 21:04:35 16.1 C 4.8 g/m*3 16.1 C 0 km/h
2562 03-06-2009 21:16:35 16 C 4.77 g/m*3 16 C 0 km/h
2563 03-06-2009 21:28:35 15.9 C 4.88 g/m*3 15.9 C 0 km/h
2564 03-06-2009 21:40:34 15.5 C 4.63 g/m*3 15.5 C 0 km/h
2565 03-06-2009 21:52:35 15.4 C 4.73 g/m*3 15.4 C 0 km/h
2566 03-06-2009 22:05:35 15.3 C 4.7 g/m*3 15.3 C 0 km/h
2567 03-06-2009 22:17:35 15.2 C 4.67 g/m*3 15.2 C 0 km/h
2568 03-06-2009 22:29:35 15 C 4.62 g/m*3 15 C 0 km/h
2569 03-06-2009 22:41:35 14.7 C 4.78 g/m*3 14.7 C 0 km/h
2570 03-06-2009 22:53:35 14.9 C 4.84 g/m*3 14.9 C 0 km/h
2571 03-06-2009 23:05:35 14.8 C 4.69 g/m*3 14.8 C 0 km/h
2572 03-06-2009 23:17:35 14.6 C 4.88 g/m*3 14.6 C 0 km/h
2573 03-06-2009 23:29:36 14.5 C 4.97 g/m*3 14.5 C 0 km/h
2574 03-06-2009 23:41:36 14.2 C 5.01 g/m*3 14.2 C 0 km/h
2575 03-06-2009 23:53:36 14 C 5.07 g/m*3 14 C 0 km/h
Sensor: Nr:Datum:Temp:Abs-Feuchte:Windchill:Wind:
Aussen-T/F 2576 04-06-2009 00:05:36 13.7 C 5.21 g/m*3 13.7 C 0 km/h
2577 04-06-2009 00:17:36 13.7 C 5.33 g/m*3 13.7 C 0 km/h
2578 04-06-2009 00:29:36 13.4 C 5.23 g/m*3 13.4 C 0 km/h
2579 04-06-2009 00:41:36 13.1 C 5.14 g/m*3 13.1 C 0 km/h
2580 04-06-2009 00:53:36 13 C 5.22 g/m*3 13 C 0 km/h
2581 04-06-2009 01:05:36 12.7 C 5.34 g/m*3 12.7 C 0 km/h
2582 04-06-2009 01:17:36 12.6 C 5.42 g/m*3 12.6 C 0 km/h
2583 04-06-2009 01:29:36 12.7 C 5.45 g/m*3 12.7 C 0 km/h
2584 04-06-2009 01:41:36 12.6 C 5.42 g/m*3 12.6 C 0 km/h
2585 04-06-2009 01:53:36 12.5 C 5.5 g/m*3 12.5 C 0 km/h
2586 04-06-2009 02:05:36 12.5 C 4.95 g/m*3 12.5 C 0 km/h
2587 04-06-2009 02:17:36 12.4 C 4.7 g/m*3 12.4 C 0 km/h
2588 04-06-2009 02:29:36 12 C 4.48 g/m*3 12 C 0 km/h
2589 04-06-2009 02:41:36 11.9 C 4.45 g/m*3 11.9 C 0 km/h
2590 04-06-2009 02:53:36 11.7 C 4.18 g/m*3 11.7 C 0 km/h
2591 04-06-2009 03:05:36 11.5 C 4.13 g/m*3 11.5 C 0 km/h
2592 04-06-2009 03:17:37 11.2 C 3.95 g/m*3 11.2 C 0 km/h
2593 04-06-2009 03:29:37 11 C 4 g/m*3 11 C 0 km/h
2594 04-06-2009 03:41:37 10.8 C 4.15 g/m*3 10.8 C 0 km/h
2595 04-06-2009 03:53:37 10.9 C 4.28 g/m*3 10.9 C 0 km/h
2596 04-06-2009 04:05:37 10.8 C 4.15 g/m*3 10.8 C 0 km/h
2597 04-06-2009 04:17:37 10.7 C 4.22 g/m*3 10.7 C 0 km/h
2598 04-06-2009 04:29:37 10.6 C 4.29 g/m*3 10.6 C 0 km/h
2599 04-06-2009 04:41:37 10.6 C 4.39 g/m*3 10.6 C 0 km/h
2600 04-06-2009 04:53:37 10.7 C 4.62 g/m*3 10.7 C 0 km/h
Sensor: Nr:Datum:Temp:Abs-Feuchte:Windchill:Wind:
Aussen-T/F 2601 04-06-2009 05:05:37 10.5 C 4.85 g/m*3 10.5 C 0 km/h
2602 04-06-2009 05:17:37 10.5 C 4.95 g/m*3 10.5 C 0 km/h
2603 04-06-2009 05:29:37 10.6 C 5.08 g/m*3 10.6 C 0 km/h
2604 04-06-2009 05:41:37 10.7 C 5.11 g/m*3 10.7 C 0 km/h
2605 04-06-2009 05:53:37 10.7 C 5.01 g/m*3 10.7 C 0 km/h
2606 04-06-2009 06:05:37 10.7 C 5.11 g/m*3 10.7 C 0 km/h
2607 04-06-2009 06:17:37 10.7 C 5.01 g/m*3 10.7 C 0 km/h
2608 04-06-2009 06:29:37 10.5 C 4.75 g/m*3 10.5 C 0 km/h
2609 04-06-2009 06:41:37 10.6 C 4.78 g/m*3 10.6 C 0 km/h
2610 04-06-2009 06:53:35 10.7 C 4.91 g/m*3 10.7 C 0 km/h
2611 04-06-2009 07:05:35 10.7 C 4.91 g/m*3 10.7 C 0 km/h
2612 04-06-2009 07:17:35 11 C 4.8 g/m*3 11 C 0 km/h
2613 04-06-2009 07:29:35 10.8 C 5.04 g/m*3 10.8 C 0 km/h
2614 04-06-2009 07:41:35 10.8 C 5.34 g/m*3 10.8 C 0 km/h
2615 04-06-2009 07:53:35 11 C 5.31 g/m*3 11 C 0 km/h
2616 04-06-2009 08:05:34 11.6 C 5.4 g/m*3 11.6 C 0 km/h
2617 04-06-2009 08:17:34 11.8 C 5.37 g/m*3 11.8 C 0 km/h
2618 04-06-2009 08:29:34 11.9 C 5.3 g/m*3 11.9 C 0 km/h
2619 04-06-2009 08:41:34 12.2 C 5.18 g/m*3 12.2 C 0 km/h
2620 04-06-2009 08:53:34 12.5 C 5.17 g/m*3 12.5 C 0 km/h
2621 04-06-2009 09:05:33 13 C 4.88 g/m*3 13 C 0 km/h
2622 04-06-2009 09:17:34 12.8 C 4.59 g/m*3 12.8 C 0 km/h
2623 04-06-2009 09:29:34 12.3 C 4.13 g/m*3 12.3 C 0 km/h
2624 04-06-2009 09:41:34 12.7 C 4.23 g/m*3 12.7 C 0 km/h
2625 04-06-2009 09:53:33 12.9 C 4.51 g/m*3 12.9 C 0 km/h
Sensor: Nr:Datum:Temp:Abs-Feuchte:Windchill:Wind:
Aussen-T/F 2626 04-06-2009 10:05:34 13 C 4.2 g/m*3 13 C 0 km/h
2627 04-06-2009 10:17:33 13.1 C 4.45 g/m*3 13.1 C 0 km/h
2628 04-06-2009 10:29:33 14.1 C 4.49 g/m*3 14.1 C 0 km/h
2629 04-06-2009 10:41:33 13.5 C 4.33 g/m*3 13.5 C 0 km/h
2630 04-06-2009 10:53:33 13.2 C 4.36 g/m*3 13.2 C 0 km/h
2631 04-06-2009 11:05:33 14 C 4.46 g/m*3 14 C 0 km/h
2632 04-06-2009 11:17:32 14.7 C 4.53 g/m*3 14.7 C 0 km/h
2633 04-06-2009 11:29:32 13.3 C 4.04 g/m*3 13.3 C 0 km/h
2634 04-06-2009 11:41:32 13.1 C 3.99 g/m*3 13.1 C 0 km/h
2635 04-06-2009 11:53:32 13.5 C 4.33 g/m*3 13.5 C 0 km/h
2636 04-06-2009 12:05:32 14.7 C 4.53 g/m*3 14.7 C 0 km/h
2637 04-06-2009 12:17:32 14.5 C 4.35 g/m*3 14.5 C 0 km/h
2638 04-06-2009 12:29:32 14.6 C 4.25 g/m*3 14.6 C 0 km/h
2639 04-06-2009 12:41:32 14.4 C 3.96 g/m*3 14.4 C 0 km/h
2640 04-06-2009 12:53:32 14.7 C 4.28 g/m*3 14.7 C 0 km/h
2641 04-06-2009 13:05:31 14.7 C 4.41 g/m*3 14.7 C 0 km/h
2642 04-06-2009 13:17:32 15.7 C 4.01 g/m*3 15.7 C 0 km/h
2643 04-06-2009 13:29:32 15.6 C 3.72 g/m*3 15.6 C 0 km/h
2644 04-06-2009 13:41:31 14.9 C 3.95 g/m*3 14.9 C 0 km/h
2645 04-06-2009 13:53:31 14.4 C 3.96 g/m*3 14.4 C 0 km/h
2646 04-06-2009 14:05:31 15.1 C 4.13 g/m*3 15.1 C 0 km/h
2647 04-06-2009 14:17:31 16.2 C 4.14 g/m*3 16.2 C 0 km/h
2648 04-06-2009 14:29:31 15.3 C 3.79 g/m*3 15.3 C 0 km/h
2649 04-06-2009 14:41:31 14.8 C 3.67 g/m*3 14.8 C 0 km/h
2650 04-06-2009 14:53:30 15.8 C 3.9 g/m*3 15.8 C 0 km/h
Sensor: Nr:Datum:Temp:Abs-Feuchte:Windchill:Wind:
Aussen-T/F 2651 04-06-2009 15:05:30 16.3 C 4.16 g/m*3 16.3 C 0 km/h
2652 04-06-2009 15:17:30 17.5 C 3.88 g/m*3 17.5 C 0 km/h
2653 04-06-2009 15:29:30 16.1 C 3.56 g/m*3 16.1 C 0 km/h
2654 04-06-2009 15:41:30 15.9 C 3.79 g/m*3 15.9 C 0 km/h
2655 04-06-2009 15:53:30 16.4 C 3.77 g/m*3 16.4 C 0 km/h
2656 04-06-2009 16:05:30 16.3 C 3.75 g/m*3 16.3 C 0 km/h
2657 04-06-2009 16:17:30 16.2 C 3.59 g/m*3 16.2 C 0 km/h
2658 04-06-2009 16:29:30 17.2 C 3.66 g/m*3 17.2 C 0 km/h
2659 04-06-2009 16:41:30 16.5 C 3.51 g/m*3 16.5 C 0 km/h
2660 04-06-2009 16:53:29 16.2 C 3.72 g/m*3 16.2 C 0 km/h
2661 04-06-2009 17:05:29 16.1 C 3.84 g/m*3 16.1 C 0 km/h
2662 04-06-2009 17:17:29 16.4 C 3.91 g/m*3 16.4 C 0 km/h
2663 04-06-2009 17:29:29 15.6 C 3.86 g/m*3 15.6 C 0 km/h
2664 04-06-2009 17:41:29 15.6 C 3.99 g/m*3 15.6 C 0 km/h
2665 04-06-2009 17:53:28 16.2 C 4.14 g/m*3 16.2 C 0 km/h
2666 04-06-2009 18:05:29 16 C 4.09 g/m*3 16 C 0 km/h
2667 04-06-2009 18:17:29 15.8 C 4.17 g/m*3 15.8 C 0 km/h
2668 04-06-2009 18:29:29 16.1 C 4.25 g/m*3 16.1 C 0 km/h
2669 04-06-2009 18:41:29 15.4 C 4.07 g/m*3 15.4 C 0 km/h
2670 04-06-2009 18:53:28 15.7 C 4.28 g/m*3 15.7 C 0 km/h
2671 04-06-2009 19:05:28 15.3 C 4.18 g/m*3 15.3 C 0 km/h
2672 04-06-2009 19:17:28 15.4 C 4.2 g/m*3 15.4 C 0 km/h
2673 04-06-2009 19:29:28 15.4 C 4.34 g/m*3 15.4 C 0 km/h
2674 04-06-2009 19:41:28 14.7 C 4.41 g/m*3 14.7 C 0 km/h
2675 04-06-2009 19:53:28 15.1 C 4.52 g/m*3 15.1 C 0 km/h
Sensor: Nr:Datum:Temp:Abs-Feuchte:Windchill:Wind:
Aussen-T/F 2676 04-06-2009 20:05:28 14.9 C 4.59 g/m*3 14.9 C 0 km/h
2677 04-06-2009 20:17:27 14.9 C 4.59 g/m*3 14.9 C 0 km/h
2678 04-06-2009 20:29:27 14.7 C 4.66 g/m*3 14.7 C 0 km/h
2679 04-06-2009 20:41:27 14.5 C 4.73 g/m*3 14.5 C 0 km/h
2680 04-06-2009 20:53:27 14.1 C 4.61 g/m*3 14.1 C 0 km/h
2681 04-06-2009 21:05:27 14 C 4.7 g/m*3 14 C 0 km/h
2682 04-06-2009 21:17:27 13.8 C 4.77 g/m*3 13.8 C 0 km/h
2683 04-06-2009 21:29:27 13.7 C 4.86 g/m*3 13.7 C 0 km/h
2684 04-06-2009 21:41:27 13.5 C 4.91 g/m*3 13.5 C 0 km/h
2685 04-06-2009 21:53:27 13.5 C 5.03 g/m*3 13.5 C 0 km/h
2686 04-06-2009 22:06:22 13.3 C 4.97 g/m*3 13.3 C 0 km/h
2687 04-06-2009 22:18:22 13.2 C 4.94 g/m*3 13.2 C 0 km/h
2688 04-06-2009 22:30:22 13 C 4.99 g/m*3 13 C 0 km/h
2689 04-06-2009 22:42:22 13 C 4.88 g/m*3 13 C 0 km/h
2690 04-06-2009 22:54:22 12.9 C 4.96 g/m*3 12.9 C 0 km/h
2691 04-06-2009 23:06:22 12.7 C 5.01 g/m*3 12.7 C 0 km/h
2692 04-06-2009 23:18:22 12.4 C 4.92 g/m*3 12.4 C 0 km/h
2693 04-06-2009 23:30:22 12.2 C 4.86 g/m*3 12.2 C 0 km/h
2694 04-06-2009 23:42:22 12.1 C 4.93 g/m*3 12.1 C 0 km/h
2695 04-06-2009 23:54:22 12 C 5.01 g/m*3 12 C 0 km/h
2696 05-06-2009 00:06:22 11.7 C 5.12 g/m*3 11.7 C 0 km/h
2697 05-06-2009 00:18:22 11.7 C 5.12 g/m*3 11.7 C 0 km/h
2698 05-06-2009 00:30:22 11.6 C 5.09 g/m*3 11.6 C 0 km/h
2699 05-06-2009 00:42:22 11.4 C 4.82 g/m*3 11.4 C 0 km/h
2700 05-06-2009 00:54:22 11.2 C 4.76 g/m*3 11.2 C 0 km/h
Sensor: Nr:Datum:Temp:Abs-Feuchte:Windchill:Wind:
Aussen-T/F 2701 05-06-2009 01:06:22 11.2 C 4.66 g/m*3 11.2 C 0 km/h
2702 05-06-2009 01:18:22 11.1 C 4.63 g/m*3 11.1 C 0 km/h
2703 05-06-2009 01:30:22 11 C 4.6 g/m*3 11 C 0 km/h
2704 05-06-2009 01:42:22 10.9 C 4.67 g/m*3 10.9 C 0 km/h
2705 05-06-2009 01:54:23 10.8 C 4.65 g/m*3 10.8 C 0 km/h
2706 05-06-2009 02:06:23 10.7 C 4.71 g/m*3 10.7 C 0 km/h
2707 05-06-2009 02:18:23 10.4 C 4.72 g/m*3 10.4 C 0 km/h
2708 05-06-2009 02:30:23 10 C 4.7 g/m*3 10 C 0 km/h
2709 05-06-2009 02:42:23 9.6 C 4.76 g/m*3 9.6 C 0 km/h
2710 05-06-2009 02:54:23 9.2 C 4.91 g/m*3 9.2 C 0 km/h
2711 05-06-2009 03:06:23 9.2 C 5 g/m*3 9.2 C 0 km/h
2712 05-06-2009 03:18:23 9.3 C 5.03 g/m*3 9.3 C 0 km/h
2713 05-06-2009 03:30:23 9.2 C 5 g/m*3 9.2 C 0 km/h
2714 05-06-2009 03:42:23 9 C 5.11 g/m*3 9 C 0 km/h
2715 05-06-2009 03:54:23 8.6 C 5.16 g/m*3 8.6 C 0 km/h
2716 05-06-2009 04:06:23 8.6 C 5.16 g/m*3 8.6 C 0 km/h
2717 05-06-2009 04:18:23 8.6 C 5.24 g/m*3 8.6 C 0 km/h
2718 05-06-2009 04:30:23 8.5 C 5.21 g/m*3 8.5 C 0 km/h
2719 05-06-2009 04:42:23 8.5 C 5.29 g/m*3 8.5 C 0 km/h
2720 05-06-2009 04:54:23 8.5 C 5.38 g/m*3 8.5 C 0 km/h
2721 05-06-2009 05:06:23 8.4 C 5.34 g/m*3 8.4 C 0 km/h
2722 05-06-2009 05:18:23 8.1 C 5.33 g/m*3 8.1 C 0 km/h
2723 05-06-2009 05:30:23 8.2 C 5.44 g/m*3 8.2 C 0 km/h
2724 05-06-2009 05:42:23 8.4 C 5.6 g/m*3 8.4 C 0 km/h
2725 05-06-2009 05:54:24 8.5 C 5.64 g/m*3 8.5 C 0 km/h
Sensor: Nr:Datum:Temp:Abs-Feuchte:Windchill:Wind:
Aussen-T/F 2726 05-06-2009 06:06:24 8.5 C 5.72 g/m*3 8.5 C 0 km/h
2727 05-06-2009 06:18:24 8.5 C 5.64 g/m*3 8.5 C 0 km/h
2728 05-06-2009 06:30:24 8.5 C 5.72 g/m*3 8.5 C 0 km/h
2729 05-06-2009 06:42:24 8.5 C 5.72 g/m*3 8.5 C 0 km/h
2730 05-06-2009 06:54:24 8.7 C 5.79 g/m*3 8.7 C 0 km/h
2731 05-06-2009 07:06:28 8.8 C 5.83 g/m*3 8.8 C 0 km/h
2732 05-06-2009 07:18:27 8.9 C 5.78 g/m*3 8.9 C 0 km/h
2733 05-06-2009 07:30:28 9.2 C 5.63 g/m*3 9.2 C 0 km/h
2734 05-06-2009 07:42:28 10 C 5.64 g/m*3 10 C 0 km/h
2735 05-06-2009 07:54:27 10.2 C 5.52 g/m*3 10.2 C 0 km/h
2736 05-06-2009 08:06:27 10.5 C 5.63 g/m*3 10.5 C 0 km/h
2737 05-06-2009 08:18:27 10.8 C 5.63 g/m*3 10.8 C 0 km/h
2738 05-06-2009 08:30:27 10.6 C 5.56 g/m*3 10.6 C 0 km/h
2739 05-06-2009 08:42:27 10.2 C 5.61 g/m*3 10.2 C 0 km/h
2740 05-06-2009 08:54:26 10.4 C 5.78 g/m*3 10.4 C 0 km/h
2741 05-06-2009 09:06:27 11.5 C 5.78 g/m*3 11.5 C 0 km/h
2742 05-06-2009 09:18:26 12.3 C 5.43 g/m*3 12.3 C 0 km/h
2743 05-06-2009 09:30:26 12.7 C 5.12 g/m*3 12.7 C 0 km/h
2744 05-06-2009 09:42:26 11.8 C 4.95 g/m*3 11.8 C 0 km/h
2745 05-06-2009 09:54:26 12.1 C 5.25 g/m*3 12.1 C 0 km/h
2746 05-06-2009 10:06:26 12.7 C 5.12 g/m*3 12.7 C 0 km/h
2747 05-06-2009 10:18:25 13.1 C 5.02 g/m*3 13.1 C 0 km/h
2748 05-06-2009 10:30:26 12.3 C 4.67 g/m*3 12.3 C 0 km/h
2749 05-06-2009 10:42:26 13.3 C 4.97 g/m*3 13.3 C 0 km/h
2750 05-06-2009 10:54:26 12.6 C 4.54 g/m*3 12.6 C 0 km/h
Sensor: Nr:Datum:Temp:Abs-Feuchte:Windchill:Wind:
Aussen-T/F 2751 05-06-2009 11:06:25 12.3 C 4.56 g/m*3 12.3 C 0 km/h
2752 05-06-2009 11:18:26 13 C 4.76 g/m*3 13 C 0 km/h
2753 05-06-2009 11:30:25 13.4 C 4.65 g/m*3 13.4 C 0 km/h
2754 05-06-2009 11:42:25 14 C 4.34 g/m*3 14 C 0 km/h
2755 05-06-2009 11:54:25 14.3 C 4.18 g/m*3 14.3 C 0 km/h
2756 05-06-2009 12:06:24 14.6 C 4.38 g/m*3 14.6 C 0 km/h
2757 05-06-2009 12:18:25 15.3 C 4.44 g/m*3 15.3 C 0 km/h
2758 05-06-2009 12:30:25 15.6 C 4.26 g/m*3 15.6 C 0 km/h
2759 05-06-2009 12:42:25 16.1 C 4.25 g/m*3 16.1 C 0 km/h
2760 05-06-2009 12:54:24 16.6 C 4.38 g/m*3 16.6 C 0 km/h
2761 05-06-2009 13:06:25 18.5 C 4.43 g/m*3 18.5 C 0 km/h
2762 05-06-2009 13:18:24 17.7 C 4.22 g/m*3 17.7 C 0 km/h
2763 05-06-2009 13:30:24 17.2 C 4.25 g/m*3 17.2 C 0 km/h
2764 05-06-2009 13:42:25 16.6 C 4.1 g/m*3 16.6 C 0 km/h
2765 05-06-2009 13:54:24 16.2 C 4 g/m*3 16.2 C 0 km/h
2766 05-06-2009 14:06:24 16.5 C 4.07 g/m*3 16.5 C 0 km/h
2767 05-06-2009 14:18:23 16.8 C 4.15 g/m*3 16.8 C 0 km/h
2768 05-06-2009 14:30:23 16.6 C 3.96 g/m*3 16.6 C 0 km/h
2769 05-06-2009 14:42:23 16.2 C 3.86 g/m*3 16.2 C 0 km/h
2770 05-06-2009 14:54:23 16.4 C 4.19 g/m*3 16.4 C 0 km/h
2771 05-06-2009 15:06:23 16.8 C 4.15 g/m*3 16.8 C 0 km/h
2772 05-06-2009 15:18:23 16.4 C 3.77 g/m*3 16.4 C 0 km/h
2773 05-06-2009 15:30:23 16 C 3.95 g/m*3 16 C 0 km/h
2774 05-06-2009 15:42:23 15.9 C 3.93 g/m*3 15.9 C 0 km/h
2775 05-06-2009 15:54:23 15.6 C 3.72 g/m*3 15.6 C 0 km/h
Sensor: Nr:Datum:Temp:Abs-Feuchte:Windchill:Wind:
Aussen-T/F 2776 05-06-2009 16:06:22 16.8 C 3.86 g/m*3 16.8 C 0 km/h
2777 05-06-2009 16:18:22 17.6 C 4.05 g/m*3 17.6 C 0 km/h
2778 05-06-2009 16:30:23 18.4 C 4.09 g/m*3 18.4 C 0 km/h
2779 05-06-2009 16:42:23 18.9 C 4.05 g/m*3 18.9 C 0 km/h
2780 05-06-2009 16:54:22 20.1 C 4 g/m*3 20.1 C 0 km/h
2781 05-06-2009 17:06:21 20 C 3.46 g/m*3 20 C 0 km/h
2782 05-06-2009 17:18:22 18.4 C 3.3 g/m*3 18.4 C 0 km/h
2783 05-06-2009 17:30:22 20.4 C 3.71 g/m*3 20.4 C 0 km/h
2784 05-06-2009 17:42:22 20.7 C 3.6 g/m*3 20.7 C 0 km/h
2785 05-06-2009 17:54:21 22 C 3.88 g/m*3 22 C 0 km/h
2786 05-06-2009 18:06:22 22.9 C 4.09 g/m*3 22.9 C 0 km/h
2787 05-06-2009 18:18:21 22.9 C 4.09 g/m*3 22.9 C 0 km/h
2788 05-06-2009 18:30:21 22.1 C 3.9 g/m*3 22.1 C 0 km/h
2789 05-06-2009 18:42:21 21 C 3.66 g/m*3 21 C 0 km/h
2790 05-06-2009 18:54:21 20.7 C 3.6 g/m*3 20.7 C 0 km/h
2791 05-06-2009 19:06:21 21 C 3.66 g/m*3 21 C 0 km/h
2792 05-06-2009 19:18:20 20.2 C 3.5 g/m*3 20.2 C 0 km/h
2793 05-06-2009 19:30:20 18.5 C 3.48 g/m*3 18.5 C 0 km/h
2794 05-06-2009 19:42:20 17.7 C 3.92 g/m*3 17.7 C 0 km/h
2795 05-06-2009 19:54:20 17.9 C 3.97 g/m*3 17.9 C 0 km/h
2796 05-06-2009 20:06:20 17.7 C 4.07 g/m*3 17.7 C 0 km/h
2797 05-06-2009 20:18:20 17.2 C 4.25 g/m*3 17.2 C 0 km/h
2798 05-06-2009 20:30:20 16.9 C 4.6 g/m*3 16.9 C 0 km/h
2799 05-06-2009 20:42:20 16 C 4.63 g/m*3 16 C 0 km/h
2800 05-06-2009 20:54:20 15 C 4.62 g/m*3 15 C 0 km/h
Sensor: Nr:Datum:Temp:Abs-Feuchte:Windchill:Wind:
Aussen-T/F 2801 05-06-2009 21:06:20 14.2 C 4.76 g/m*3 14.2 C 0 km/h
2802 05-06-2009 21:18:20 13.4 C 4.77 g/m*3 13.4 C 0 km/h
2803 05-06-2009 21:30:19 13 C 4.65 g/m*3 13 C 0 km/h
2804 05-06-2009 21:42:19 12.7 C 4.9 g/m*3 12.7 C 0 km/h
2805 05-06-2009 21:54:20 12.2 C 4.86 g/m*3 12.2 C 0 km/h
2806 05-06-2009 22:06:19 11.9 C 4.87 g/m*3 11.9 C 0 km/h
2807 05-06-2009 22:18:19 11.8 C 5.05 g/m*3 11.8 C 0 km/h
2808 05-06-2009 22:31:19 11.4 C 5.03 g/m*3 11.4 C 0 km/h
2809 05-06-2009 22:43:19 11.1 C 5.04 g/m*3 11.1 C 0 km/h
2810 05-06-2009 22:55:19 11 C 5.1 g/m*3 11 C 0 km/h
2811 05-06-2009 23:07:19 10.8 C 5.14 g/m*3 10.8 C 0 km/h
2812 05-06-2009 23:19:19 10.5 C 5.14 g/m*3 10.5 C 0 km/h
2813 05-06-2009 23:31:19 10.4 C 5.2 g/m*3 10.4 C 0 km/h
2814 05-06-2009 23:43:19 10.1 C 5.2 g/m*3 10.1 C 0 km/h
2815 05-06-2009 23:55:20 10 C 5.17 g/m*3 10 C 0 km/h
2816 06-06-2009 00:07:20 9.8 C 5.29 g/m*3 9.8 C 0 km/h
2817 06-06-2009 00:19:20 9.7 C 5.35 g/m*3 9.7 C 0 km/h
2818 06-06-2009 00:31:20 9.5 C 5.37 g/m*3 9.5 C 0 km/h
2819 06-06-2009 00:43:20 9.1 C 5.32 g/m*3 9.1 C 0 km/h
2820 06-06-2009 00:55:20 8.9 C 5.43 g/m*3 8.9 C 0 km/h
2821 06-06-2009 01:07:20 8.8 C 5.4 g/m*3 8.8 C 0 km/h
2822 06-06-2009 01:19:20 8.6 C 5.33 g/m*3 8.6 C 0 km/h
2823 06-06-2009 01:31:20 8.6 C 5.41 g/m*3 8.6 C 0 km/h
2824 06-06-2009 01:43:20 8.5 C 5.55 g/m*3 8.5 C 0 km/h
2825 06-06-2009 01:55:20 8.3 C 5.48 g/m*3 8.3 C 0 km/h
Sensor: Nr:Datum:Temp:Abs-Feuchte:Windchill:Wind:
Aussen-T/F 2826 06-06-2009 02:07:20 8.2 C 5.53 g/m*3 8.2 C 0 km/h
2827 06-06-2009 02:19:20 8.1 C 5.49 g/m*3 8.1 C 0 km/h
2828 06-06-2009 02:31:20 8.1 C 5.57 g/m*3 8.1 C 0 km/h
2829 06-06-2009 02:43:20 8.1 C 5.66 g/m*3 8.1 C 0 km/h
2830 06-06-2009 02:55:20 8.1 C 5.66 g/m*3 8.1 C 0 km/h
2831 06-06-2009 03:07:20 8 C 5.79 g/m*3 8 C 0 km/h
2832 06-06-2009 03:19:20 7.8 C 5.79 g/m*3 7.8 C 0 km/h
2833 06-06-2009 03:31:20 7.6 C 5.8 g/m*3 7.6 C 0 km/h
2834 06-06-2009 03:43:20 7.5 C 5.84 g/m*3 7.5 C 0 km/h
2835 06-06-2009 03:55:20 7.4 C 5.81 g/m*3 7.4 C 0 km/h
2836 06-06-2009 04:07:21 7.4 C 5.81 g/m*3 7.4 C 0 km/h
2837 06-06-2009 04:19:21 7.4 C 5.81 g/m*3 7.4 C 0 km/h
2838 06-06-2009 04:31:21 7.3 C 5.85 g/m*3 7.3 C 0 km/h
2839 06-06-2009 04:43:21 7.1 C 5.77 g/m*3 7.1 C 0 km/h
2840 06-06-2009 04:55:21 7.2 C 5.89 g/m*3 7.2 C 0 km/h
2841 06-06-2009 05:07:21 7.4 C 5.96 g/m*3 7.4 C 0 km/h
2842 06-06-2009 05:19:21 7.6 C 6.04 g/m*3 7.6 C 0 km/h
2843 06-06-2009 05:31:21 7.8 C 6.04 g/m*3 7.8 C 0 km/h
2844 06-06-2009 05:43:21 8 C 6.04 g/m*3 8 C 0 km/h
2845 06-06-2009 05:55:21 8.1 C 6.07 g/m*3 8.1 C 0 km/h
2846 06-06-2009 06:07:21 8.2 C 6.11 g/m*3 8.2 C 0 km/h
2847 06-06-2009 06:19:21 8.4 C 6.19 g/m*3 8.4 C 0 km/h
2848 06-06-2009 06:31:21 8.7 C 6.23 g/m*3 8.7 C 0 km/h
2849 06-06-2009 06:43:21 8.7 C 6.05 g/m*3 8.7 C 0 km/h
2850 06-06-2009 06:55:21 8.9 C 6.13 g/m*3 8.9 C 0 km/h
Sensor: Nr:Datum:Temp:Abs-Feuchte:Windchill:Wind:
Aussen-T/F 2851 06-06-2009 07:07:21 8.9 C 6.13 g/m*3 8.9 C 0 km/h
2852 06-06-2009 07:19:21 8.9 C 6.13 g/m*3 8.9 C 0 km/h
2853 06-06-2009 07:31:21 8.6 C 6.27 g/m*3 8.6 C 0 km/h
2854 06-06-2009 07:43:21 8.6 C 6.44 g/m*3 8.6 C 0 km/h
2855 06-06-2009 07:55:21 8.6 C 6.62 g/m*3 8.6 C 0 km/h
2856 06-06-2009 08:07:22 8.6 C 6.79 g/m*3 8.6 C 0 km/h
2857 06-06-2009 08:19:22 8.6 C 6.96 g/m*3 8.6 C 0 km/h
2858 06-06-2009 08:31:22 8.3 C 7.08 g/m*3 8.3 C 0 km/h
2859 06-06-2009 08:43:22 8.3 C 7.33 g/m*3 8.3 C 0 km/h
2860 06-06-2009 08:55:22 8.2 C 7.37 g/m*3 8.2 C 0 km/h
2861 06-06-2009 09:07:19 8.5 C 7.6 g/m*3 8.5 C 0 km/h
2862 06-06-2009 09:19:19 8.4 C 7.63 g/m*3 8.4 C 0 km/h
2863 06-06-2009 09:31:20 8.7 C 7.78 g/m*3 8.7 C 0 km/h
2864 06-06-2009 09:43:20 8.7 C 7.87 g/m*3 8.7 C 0 km/h
2865 06-06-2009 09:55:19 8.9 C 7.97 g/m*3 8.9 C 0 km/h
2866 06-06-2009 10:07:19 9.1 C 7.99 g/m*3 9.1 C 0 km/h
2867 06-06-2009 10:19:19 9.1 C 7.99 g/m*3 9.1 C 0 km/h
2868 06-06-2009 10:31:19 8.9 C 7.97 g/m*3 8.9 C 0 km/h
2869 06-06-2009 10:43:19 9 C 7.93 g/m*3 9 C 0 km/h
2870 06-06-2009 10:55:18 9 C 7.93 g/m*3 9 C 0 km/h
2871 06-06-2009 11:07:19 9 C 7.93 g/m*3 9 C 0 km/h
2872 06-06-2009 11:19:18 9 C 7.93 g/m*3 9 C 0 km/h
2873 06-06-2009 11:31:18 9.2 C 8.13 g/m*3 9.2 C 0 km/h
2874 06-06-2009 11:43:18 9.2 C 8.13 g/m*3 9.2 C 0 km/h
2875 06-06-2009 11:55:18 9 C 8.02 g/m*3 9 C 0 km/h
Sensor: Nr:Datum:Temp:Abs-Feuchte:Windchill:Wind:
Aussen-T/F 2876 06-06-2009 12:07:17 9.2 C 8.13 g/m*3 9.2 C 0 km/h
2877 06-06-2009 12:19:18 9.4 C 8.32 g/m*3 9.4 C 0 km/h
2878 06-06-2009 12:31:18 9.3 C 8.27 g/m*3 9.3 C 0 km/h
2879 06-06-2009 12:43:18 9.3 C 8.27 g/m*3 9.3 C 0 km/h
2880 06-06-2009 12:55:17 9.5 C 8.37 g/m*3 9.5 C 0 km/h
2881 06-06-2009 13:07:18 9.6 C 8.43 g/m*3 9.6 C 0 km/h
2882 06-06-2009 13:19:17 9.7 C 8.48 g/m*3 9.7 C 0 km/h
2883 06-06-2009 13:31:17 9.7 C 8.57 g/m*3 9.7 C 0 km/h
2884 06-06-2009 13:43:17 9.7 C 8.57 g/m*3 9.7 C 0 km/h
2885 06-06-2009 13:55:17 9.6 C 8.52 g/m*3 9.6 C 0 km/h
2886 06-06-2009 14:07:17 9.8 C 8.63 g/m*3 9.8 C 0 km/h
2887 06-06-2009 14:19:16 9.8 C 8.63 g/m*3 9.8 C 0 km/h
2888 06-06-2009 14:31:16 9.8 C 8.63 g/m*3 9.8 C 0 km/h
2889 06-06-2009 14:43:16 9.6 C 8.43 g/m*3 9.6 C 0 km/h
2890 06-06-2009 14:55:16 9.5 C 8.37 g/m*3 9.5 C 0 km/h
2891 06-06-2009 15:07:16 9.5 C 8.37 g/m*3 9.5 C 0 km/h
2892 06-06-2009 15:19:15 9.4 C 8.32 g/m*3 9.4 C 0 km/h
2893 06-06-2009 15:31:16 9.5 C 8.37 g/m*3 9.5 C 0 km/h
2894 06-06-2009 15:43:16 9.7 C 8.57 g/m*3 9.7 C 0 km/h
2895 06-06-2009 15:55:15 9.8 C 8.63 g/m*3 9.8 C 0 km/h
2896 06-06-2009 16:07:15 10.1 C 8.7 g/m*3 10.1 C 0 km/h
2897 06-06-2009 16:19:16 10.1 C 8.7 g/m*3 10.1 C 0 km/h
2898 06-06-2009 16:31:15 9.9 C 8.68 g/m*3 9.9 C 0 km/h
2899 06-06-2009 16:43:15 10 C 8.64 g/m*3 10 C 0 km/h
2900 06-06-2009 16:55:15 9.9 C 8.68 g/m*3 9.9 C 0 km/h
Sensor: Nr:Datum:Temp:Abs-Feuchte:Windchill:Wind:
Aussen-T/F 2901 06-06-2009 17:07:15 9.9 C 8.59 g/m*3 9.9 C 0 km/h
2902 06-06-2009 17:19:15 9.9 C 8.59 g/m*3 9.9 C 0 km/h
2903 06-06-2009 17:31:14 10.1 C 8.61 g/m*3 10.1 C 0 km/h
2904 06-06-2009 17:43:14 10.3 C 8.71 g/m*3 10.3 C 0 km/h
2905 06-06-2009 17:55:15 10.4 C 8.67 g/m*3 10.4 C 0 km/h
2906 06-06-2009 18:07:14 10.5 C 8.73 g/m*3 10.5 C 0 km/h
2907 06-06-2009 18:19:14 10.9 C 8.95 g/m*3 10.9 C 0 km/h
2908 06-06-2009 18:31:02 10.7 C 8.64 g/m*3 10.7 C 0 km/h
2909 06-06-2009 18:43:02 10.8 C 8.7 g/m*3 10.8 C 0 km/h
2910 06-06-2009 18:55:01 10.7 C 8.45 g/m*3 10.7 C 0 km/h
2911 06-06-2009 19:07:02 10.8 C 8.5 g/m*3 10.8 C 0 km/h
2912 06-06-2009 19:19:01 10.9 C 8.45 g/m*3 10.9 C 0 km/h
2913 06-06-2009 19:31:01 11.1 C 8.56 g/m*3 11.1 C 0 km/h
2914 06-06-2009 19:43:01 11 C 8.51 g/m*3 11 C 0 km/h
2915 06-06-2009 19:55:01 10.9 C 8.65 g/m*3 10.9 C 0 km/h
2916 06-06-2009 20:07:01 10.5 C 8.34 g/m*3 10.5 C 0 km/h
2917 06-06-2009 20:19:00 10.4 C 8.29 g/m*3 10.4 C 0 km/h
2918 06-06-2009 20:31:00 10.4 C 8.38 g/m*3 10.4 C 0 km/h
2919 06-06-2009 20:43:00 10.4 C 8.38 g/m*3 10.4 C 0 km/h
2920 06-06-2009 20:55:00 10.3 C 8.33 g/m*3 10.3 C 0 km/h
2921 06-06-2009 21:07:00 10.3 C 8.43 g/m*3 10.3 C 0 km/h
2922 06-06-2009 21:18:59 10.2 C 8.37 g/m*3 10.2 C 0 km/h
2923 06-06-2009 21:31:00 10.2 C 8.37 g/m*3 10.2 C 0 km/h
2924 06-06-2009 21:43:00 10.1 C 8.32 g/m*3 10.1 C 0 km/h
2925 06-06-2009 21:55:59 9.8 C 8.26 g/m*3 9.8 C 0 km/h
Sensor: Nr:Datum:Temp:Abs-Feuchte:Windchill:Wind:
Aussen-T/F 2926 06-06-2009 22:07:59 9.5 C 8.1 g/m*3 9.5 C 0 km/h
2927 06-06-2009 22:19:00 9.4 C 8.14 g/m*3 9.4 C 0 km/h
2928 06-06-2009 22:31:59 9.4 C 8.23 g/m*3 9.4 C 0 km/h
2929 06-06-2009 22:43:59 9.5 C 8.28 g/m*3 9.5 C 0 km/h
2930 06-06-2009 22:55:59 9.6 C 8.43 g/m*3 9.6 C 0 km/h
2931 06-06-2009 23:07:59 9.5 C 8.37 g/m*3 9.5 C 0 km/h
2932 06-06-2009 23:19:59 9.5 C 8.37 g/m*3 9.5 C 0 km/h
2933 06-06-2009 23:31:58 9.2 C 8.13 g/m*3 9.2 C 0 km/h
2934 06-06-2009 23:43:58 8.8 C 8.01 g/m*3 8.8 C 0 km/h
2935 06-06-2009 23:55:59 8.5 C 7.85 g/m*3 8.5 C 0 km/h
2936 07-06-2009 00:07:59 8.5 C 7.85 g/m*3 8.5 C 0 km/h
2937 07-06-2009 00:19:59 8.3 C 7.75 g/m*3 8.3 C 0 km/h
2938 07-06-2009 00:31:58 8.1 C 7.66 g/m*3 8.1 C 0 km/h
2939 07-06-2009 00:43:58 7.9 C 7.64 g/m*3 7.9 C 0 km/h
2940 07-06-2009 00:55:58 8 C 7.61 g/m*3 8 C 0 km/h
2941 07-06-2009 01:07:57 8 C 7.69 g/m*3 8 C 0 km/h
2942 07-06-2009 01:19:58 8 C 7.69 g/m*3 8 C 0 km/h
2943 07-06-2009 01:31:58 7.9 C 7.72 g/m*3 7.9 C 0 km/h
2944 07-06-2009 01:43:58 7.9 C 7.72 g/m*3 7.9 C 0 km/h
2945 07-06-2009 01:55:57 8.1 C 7.74 g/m*3 8.1 C 0 km/h
2946 07-06-2009 02:07:58 8.2 C 7.87 g/m*3 8.2 C 0 km/h
2947 07-06-2009 02:19:57 8.4 C 7.97 g/m*3 8.4 C 0 km/h
2948 07-06-2009 02:31:57 8.4 C 7.97 g/m*3 8.4 C 0 km/h
2949 07-06-2009 02:43:57 8.4 C 7.97 g/m*3 8.4 C 0 km/h
2950 07-06-2009 02:56:59 8.4 C 7.97 g/m*3 8.4 C 0 km/h
Sensor: Nr:Datum:Temp:Abs-Feuchte:Windchill:Wind:
Aussen-T/F 2951 07-06-2009 03:08:59 8.5 C 8.11 g/m*3 8.5 C 0 km/h
2952 07-06-2009 03:20:59 8.5 C 8.11 g/m*3 8.5 C 0 km/h
2953 07-06-2009 03:32:58 8.5 C 8.11 g/m*3 8.5 C 0 km/h
2954 07-06-2009 03:44:58 8.4 C 8.06 g/m*3 8.4 C 0 km/h
2955 07-06-2009 03:56:58 8.4 C 8.06 g/m*3 8.4 C 0 km/h
2956 07-06-2009 04:08:58 8.5 C 8.11 g/m*3 8.5 C 0 km/h
2957 07-06-2009 04:20:58 8.5 C 8.11 g/m*3 8.5 C 0 km/h
2958 07-06-2009 04:32:58 8.5 C 8.11 g/m*3 8.5 C 0 km/h
2959 07-06-2009 04:44:57 8.5 C 8.11 g/m*3 8.5 C 0 km/h
2960 07-06-2009 04:56:57 8.5 C 8.11 g/m*3 8.5 C 0 km/h
2961 07-06-2009 05:08:58 8.6 C 8.16 g/m*3 8.6 C 0 km/h
2962 07-06-2009 05:20:58 8.6 C 8.16 g/m*3 8.6 C 0 km/h
2963 07-06-2009 05:32:57 8.6 C 8.16 g/m*3 8.6 C 0 km/h
2964 07-06-2009 05:44:57 8.7 C 8.22 g/m*3 8.7 C 0 km/h
2965 07-06-2009 05:56:57 8.8 C 8.27 g/m*3 8.8 C 0 km/h
2966 07-06-2009 06:08:57 8.9 C 8.32 g/m*3 8.9 C 0 km/h
2967 07-06-2009 06:20:57 9.1 C 8.34 g/m*3 9.1 C 0 km/h
2968 07-06-2009 06:32:57 9.3 C 8.45 g/m*3 9.3 C 0 km/h
2969 07-06-2009 06:44:57 9.5 C 8.56 g/m*3 9.5 C 0 km/h
2970 07-06-2009 06:56:57 9.5 C 8.56 g/m*3 9.5 C 0 km/h
2971 07-06-2009 07:08:57 9.6 C 8.61 g/m*3 9.6 C 0 km/h
2972 07-06-2009 07:20:56 10 C 8.74 g/m*3 10 C 0 km/h
2973 07-06-2009 07:32:57 10.2 C 8.76 g/m*3 10.2 C 0 km/h
2974 07-06-2009 07:44:01 10.3 C 8.43 g/m*3 10.3 C 0 km/h
2975 07-06-2009 07:56:01 10.7 C 8.45 g/m*3 10.7 C 0 km/h
Sensor: Nr:Datum:Temp:Abs-Feuchte:Windchill:Wind:
Aussen-T/F 2976 07-06-2009 08:08:01 11 C 8.01 g/m*3 11 C 0 km/h
2977 07-06-2009 08:20:01 11.4 C 8.01 g/m*3 11.4 C 0 km/h
2978 07-06-2009 08:32:01 11.7 C 7.84 g/m*3 11.7 C 0 km/h
2979 07-06-2009 08:44:01 11.9 C 7.52 g/m*3 11.9 C 0 km/h
2980 07-06-2009 08:56:01 12.4 C 7.32 g/m*3 12.4 C 0 km/h
2981 07-06-2009 09:08:01 13.1 C 7.42 g/m*3 13.1 C 0 km/h
2982 07-06-2009 09:20:01 13.6 C 7.3 g/m*3 13.6 C 0 km/h
2983 07-06-2009 09:32:00 14 C 7.48 g/m*3 14 C 0 km/h
2984 07-06-2009 09:44:00 14.1 C 7.52 g/m*3 14.1 C 0 km/h
2985 07-06-2009 09:56:00 14.3 C 7.62 g/m*3 14.3 C 0 km/h
2986 07-06-2009 10:08:00 14.4 C 7.42 g/m*3 14.4 C 0 km/h
2987 07-06-2009 10:20:59 14.9 C 7.77 g/m*3 14.9 C 0 km/h
2988 07-06-2009 10:32:00 15.5 C 7.93 g/m*3 15.5 C 0 km/h
2989 07-06-2009 10:44:00 15.9 C 7.72 g/m*3 15.9 C 0 km/h
2990 07-06-2009 10:56:59 16.4 C 7.54 g/m*3 16.4 C 0 km/h
2991 07-06-2009 11:08:59 16.9 C 7.91 g/m*3 16.9 C 0 km/h
2992 07-06-2009 11:20:00 17.2 C 7.91 g/m*3 17.2 C 0 km/h
2993 07-06-2009 11:32:59 17 C 7.81 g/m*3 17 C 0 km/h
2994 07-06-2009 11:44:59 16.1 C 7.81 g/m*3 16.1 C 0 km/h
2995 07-06-2009 11:56:59 17.5 C 7.9 g/m*3 17.5 C 0 km/h
2996 07-06-2009 12:08:59 17.1 C 7.42 g/m*3 17.1 C 0 km/h
2997 07-06-2009 12:20:59 17.7 C 7.69 g/m*3 17.7 C 0 km/h
2998 07-06-2009 12:32:59 17.3 C 7.81 g/m*3 17.3 C 0 km/h
2999 07-06-2009 12:44:58 17.1 C 8.3 g/m*3 17.1 C 0 km/h
3000 07-06-2009 12:56:58 16.8 C 8.86 g/m*3 16.8 C 0 km/h
Sensor: Nr:Datum:Temp:Abs-Feuchte:Windchill:Wind:
Aussen-T/F 3001 07-06-2009 13:08:59 16.6 C 8.48 g/m*3 16.6 C 0 km/h
3002 07-06-2009 13:20:59 16.4 C 8.79 g/m*3 16.4 C 0 km/h
3003 07-06-2009 13:32:59 17.4 C 8.89 g/m*3 17.4 C 0 km/h
3004 07-06-2009 13:44:58 19.3 C 8.13 g/m*3 19.3 C 0 km/h
3005 07-06-2009 13:56:58 19.2 C 7.91 g/m*3 19.2 C 0 km/h
3006 07-06-2009 14:08:57 19.4 C 8.34 g/m*3 19.4 C 0 km/h
3007 07-06-2009 14:20:58 18.9 C 8.26 g/m*3 18.9 C 0 km/h
3008 07-06-2009 14:32:58 18.9 C 8.42 g/m*3 18.9 C 0 km/h
3009 07-06-2009 14:44:57 18.7 C 8.65 g/m*3 18.7 C 0 km/h
3010 07-06-2009 14:56:57 19.1 C 8.69 g/m*3 19.1 C 0 km/h
3011 07-06-2009 15:08:58 19.1 C 8.36 g/m*3 19.1 C 0 km/h
3012 07-06-2009 15:20:57 17.3 C 8.99 g/m*3 17.3 C 0 km/h
3013 07-06-2009 15:32:58 16 C 10.22 g/m*3 16 C 0 km/h
3014 07-06-2009 15:44:57 15.5 C 10.31 g/m*3 15.5 C 0 km/h
3015 07-06-2009 15:56:57 15.1 C 10.45 g/m*3 15.1 C 0 km/h
3016 07-06-2009 16:08:57 14.8 C 10.64 g/m*3 14.8 C 0 km/h
3017 07-06-2009 16:20:56 15.6 C 11.57 g/m*3 15.6 C 0 km/h
3018 07-06-2009 16:32:57 16 C 11.72 g/m*3 16 C 0 km/h
3019 07-06-2009 16:44:56 16.3 C 11.52 g/m*3 16.3 C 0 km/h
3020 07-06-2009 16:56:56 17.2 C 11.57 g/m*3 17.2 C 0 km/h
3021 07-06-2009 17:08:56 17.6 C 10.8 g/m*3 17.6 C 0 km/h
3022 07-06-2009 17:20:56 18.9 C 10.85 g/m*3 18.9 C 0 km/h
3023 07-06-2009 17:32:56 19.5 C 10.07 g/m*3 19.5 C 0 km/h
3024 07-06-2009 17:44:56 18.4 C 9.75 g/m*3 18.4 C 0 km/h
3025 07-06-2009 17:56:56 18.3 C 9.85 g/m*3 18.3 C 0 km/h
Sensor: Nr:Datum:Temp:Abs-Feuchte:Windchill:Wind:
Aussen-T/F 3026 07-06-2009 18:08:55 18.8 C 9.34 g/m*3 18.8 C 0 km/h
3027 07-06-2009 18:20:56 17.3 C 7.51 g/m*3 17.3 C 0 km/h
3028 07-06-2009 18:32:55 17 C 8.54 g/m*3 17 C 0 km/h
3029 07-06-2009 18:44:55 18 C 8.29 g/m*3 18 C 0 km/h
3030 07-06-2009 18:56:55 19.2 C 7.75 g/m*3 19.2 C 0 km/h
3031 07-06-2009 19:08:55 20.4 C 7.61 g/m*3 20.4 C 0 km/h
3032 07-06-2009 19:20:55 20.4 C 7.25 g/m*3 20.4 C 0 km/h
3033 07-06-2009 19:32:55 20.3 C 7.03 g/m*3 20.3 C 0 km/h
3034 07-06-2009 19:44:55 19.8 C 7.34 g/m*3 19.8 C 0 km/h
3035 07-06-2009 19:56:55 20.3 C 7.39 g/m*3 20.3 C 0 km/h
3036 07-06-2009 20:08:54 20.3 C 7.39 g/m*3 20.3 C 0 km/h
3037 07-06-2009 20:20:55 20 C 7.09 g/m*3 20 C 0 km/h
3038 07-06-2009 20:32:54 18.7 C 6.88 g/m*3 18.7 C 0 km/h
3039 07-06-2009 20:44:54 17.6 C 7.05 g/m*3 17.6 C 0 km/h
3040 07-06-2009 20:56:55 16.6 C 7.06 g/m*3 16.6 C 0 km/h
3041 07-06-2009 21:08:53 16.1 C 6.99 g/m*3 16.1 C 0 km/h
3042 07-06-2009 21:20:54 15.8 C 7.54 g/m*3 15.8 C 0 km/h
3043 07-06-2009 21:32:54 15.2 C 7.79 g/m*3 15.2 C 0 km/h
3044 07-06-2009 21:44:53 14.7 C 7.93 g/m*3 14.7 C 0 km/h
3045 07-06-2009 21:56:53 14.1 C 7.77 g/m*3 14.1 C 0 km/h
3046 07-06-2009 22:09:55 13.5 C 7.37 g/m*3 13.5 C 0 km/h
3047 07-06-2009 22:21:55 13 C 7.03 g/m*3 13 C 0 km/h
3048 07-06-2009 22:33:55 12.7 C 7.01 g/m*3 12.7 C 0 km/h
3049 07-06-2009 22:45:55 12.5 C 6.93 g/m*3 12.5 C 0 km/h
3050 07-06-2009 22:57:55 12.3 C 6.84 g/m*3 12.3 C 0 km/h
Sensor: Nr:Datum:Temp:Abs-Feuchte:Windchill:Wind:
Aussen-T/F 3051 07-06-2009 23:09:55 12 C 6.71 g/m*3 12 C 0 km/h
3052 07-06-2009 23:21:55 11.8 C 6.84 g/m*3 11.8 C 0 km/h
3053 07-06-2009 23:33:55 11.6 C 6.96 g/m*3 11.6 C 0 km/h
3054 07-06-2009 23:45:55 11.5 C 7.02 g/m*3 11.5 C 0 km/h
3055 07-06-2009 23:57:55 11.3 C 7.04 g/m*3 11.3 C 0 km/h
3056 08-06-2009 00:09:55 11.2 C 7.1 g/m*3 11.2 C 0 km/h
3057 08-06-2009 00:21:55 11.3 C 7.14 g/m*3 11.3 C 0 km/h
3058 08-06-2009 00:33:55 10.8 C 7.12 g/m*3 10.8 C 0 km/h
3059 08-06-2009 00:45:55 10.6 C 7.22 g/m*3 10.6 C 0 km/h
3060 08-06-2009 00:57:56 10.7 C 7.17 g/m*3 10.7 C 0 km/h
3061 08-06-2009 01:09:56 10.7 C 7.07 g/m*3 10.7 C 0 km/h
3062 08-06-2009 01:21:56 10.4 C 7.04 g/m*3 10.4 C 0 km/h
3063 08-06-2009 01:33:56 10.1 C 7.09 g/m*3 10.1 C 0 km/h
3064 08-06-2009 01:45:56 10.2 C 6.95 g/m*3 10.2 C 0 km/h
3065 08-06-2009 01:57:56 10.6 C 6.83 g/m*3 10.6 C 0 km/h
3066 08-06-2009 02:09:56 11.4 C 6.57 g/m*3 11.4 C 0 km/h
3067 08-06-2009 02:21:56 11.7 C 6.69 g/m*3 11.7 C 0 km/h
3068 08-06-2009 02:33:56 11.6 C 6.76 g/m*3 11.6 C 0 km/h
3069 08-06-2009 02:45:56 11.6 C 6.76 g/m*3 11.6 C 0 km/h
3070 08-06-2009 02:57:56 11.8 C 6.84 g/m*3 11.8 C 0 km/h
3071 08-06-2009 03:09:56 11 C 7.41 g/m*3 11 C 0 km/h
3072 08-06-2009 03:21:56 10.9 C 7.76 g/m*3 10.9 C 0 km/h
3073 08-06-2009 03:33:56 11.2 C 7.8 g/m*3 11.2 C 0 km/h
3074 08-06-2009 03:45:56 11.1 C 7.66 g/m*3 11.1 C 0 km/h
3075 08-06-2009 03:57:56 11 C 7.61 g/m*3 11 C 0 km/h
Sensor: Nr:Datum:Temp:Abs-Feuchte:Windchill:Wind:
Aussen-T/F 3076 08-06-2009 04:09:56 11.1 C 7.76 g/m*3 11.1 C 0 km/h
3077 08-06-2009 04:21:56 11.1 C 7.76 g/m*3 11.1 C 0 km/h
3078 08-06-2009 04:33:56 11.1 C 7.76 g/m*3 11.1 C 0 km/h
3079 08-06-2009 04:45:56 11.1 C 7.76 g/m*3 11.1 C 0 km/h
3080 08-06-2009 04:57:57 11.1 C 7.86 g/m*3 11.1 C 0 km/h
3081 08-06-2009 05:09:57 11.2 C 7.91 g/m*3 11.2 C 0 km/h
3082 08-06-2009 05:21:57 11.2 C 7.8 g/m*3 11.2 C 0 km/h
3083 08-06-2009 05:33:57 11.2 C 7.91 g/m*3 11.2 C 0 km/h
3084 08-06-2009 05:45:57 11.3 C 7.96 g/m*3 11.3 C 0 km/h
3085 08-06-2009 05:57:57 11.5 C 7.75 g/m*3 11.5 C 0 km/h
3086 08-06-2009 06:09:57 11.5 C 7.85 g/m*3 11.5 C 0 km/h
3087 08-06-2009 06:21:57 11.5 C 7.85 g/m*3 11.5 C 0 km/h
3088 08-06-2009 06:33:57 11.5 C 7.85 g/m*3 11.5 C 0 km/h
3089 08-06-2009 06:45:55 11.5 C 8.06 g/m*3 11.5 C 0 km/h
3090 08-06-2009 06:57:55 11.5 C 7.95 g/m*3 11.5 C 0 km/h
3091 08-06-2009 07:09:54 11.8 C 8 g/m*3 11.8 C 0 km/h
3092 08-06-2009 07:21:54 12 C 7.99 g/m*3 12 C 0 km/h
3093 08-06-2009 07:33:54 12.3 C 8.25 g/m*3 12.3 C 0 km/h
3094 08-06-2009 07:45:54 12.2 C 7.99 g/m*3 12.2 C 0 km/h
3095 08-06-2009 07:57:54 12.3 C 7.82 g/m*3 12.3 C 0 km/h
3096 08-06-2009 08:09:53 12.5 C 7.7 g/m*3 12.5 C 0 km/h
3097 08-06-2009 08:21:54 12.7 C 7.57 g/m*3 12.7 C 0 km/h
3098 08-06-2009 08:33:54 12.9 C 7.33 g/m*3 12.9 C 0 km/h
3099 08-06-2009 08:45:53 13.2 C 7.46 g/m*3 13.2 C 0 km/h
3100 08-06-2009 08:57:53 13.5 C 7.37 g/m*3 13.5 C 0 km/h
Sensor: Nr:Datum:Temp:Abs-Feuchte:Windchill:Wind:
Aussen-T/F 3101 08-06-2009 09:09:53 13.8 C 7.15 g/m*3 13.8 C 0 km/h
3102 08-06-2009 09:21:53 14.1 C 7.04 g/m*3 14.1 C 0 km/h
3103 08-06-2009 09:33:53 14.6 C 6.88 g/m*3 14.6 C 0 km/h
3104 08-06-2009 09:45:53 14.8 C 6.84 g/m*3 14.8 C 0 km/h
3105 08-06-2009 09:57:53 15 C 6.67 g/m*3 15 C 0 km/h
3106 08-06-2009 10:09:53 15.6 C 6.78 g/m*3 15.6 C 0 km/h
3107 08-06-2009 10:21:52 15.9 C 6.37 g/m*3 15.9 C 0 km/h
3108 08-06-2009 10:33:52 16.4 C 6.42 g/m*3 16.4 C 0 km/h
3109 08-06-2009 10:45:52 16.5 C 6.18 g/m*3 16.5 C 0 km/h
3110 08-06-2009 10:57:52 16.6 C 6.07 g/m*3 16.6 C 0 km/h
3111 08-06-2009 11:09:52 17.7 C 6.49 g/m*3 17.7 C 0 km/h
3112 08-06-2009 11:21:51 17.3 C 5.75 g/m*3 17.3 C 0 km/h
3113 08-06-2009 11:33:52 17 C 6.08 g/m*3 17 C 0 km/h
3114 08-06-2009 11:45:51 17.6 C 6.15 g/m*3 17.6 C 0 km/h
3115 08-06-2009 11:57:51 18.1 C 6.03 g/m*3 18.1 C 0 km/h
3116 08-06-2009 12:09:52 17.6 C 6 g/m*3 17.6 C 0 km/h
3117 08-06-2009 12:21:51 20 C 6.22 g/m*3 20 C 0 km/h
3118 08-06-2009 12:33:51 18.6 C 5.89 g/m*3 18.6 C 0 km/h
3119 08-06-2009 12:45:51 20.2 C 6.12 g/m*3 20.2 C 0 km/h
3120 08-06-2009 12:57:51 19.6 C 5.74 g/m*3 19.6 C 0 km/h
3121 08-06-2009 13:09:51 21.6 C 4.74 g/m*3 21.6 C 0 km/h
3122 08-06-2009 13:21:50 21.5 C 5.47 g/m*3 21.5 C 0 km/h
3123 08-06-2009 13:33:51 20.9 C 5.1 g/m*3 20.9 C 0 km/h
3124 08-06-2009 13:45:51 20.3 C 5.28 g/m*3 20.3 C 0 km/h
3125 08-06-2009 13:57:51 21.4 C 5.06 g/m*3 21.4 C 0 km/h
Sensor: Nr:Datum:Temp:Abs-Feuchte:Windchill:Wind:
Aussen-T/F 3126 08-06-2009 14:09:50 21.7 C 4.39 g/m*3 21.7 C 0 km/h
3127 08-06-2009 14:21:50 21.5 C 4.71 g/m*3 21.5 C 0 km/h
3128 08-06-2009 14:33:50 21.9 C 5.02 g/m*3 21.9 C 0 km/h
3129 08-06-2009 14:45:50 21.7 C 4.96 g/m*3 21.7 C 0 km/h
3130 08-06-2009 14:57:50 22.1 C 4.88 g/m*3 22.1 C 0 km/h
3131 08-06-2009 15:09:49 22.9 C 5.11 g/m*3 22.9 C 0 km/h
3132 08-06-2009 15:21:50 23 C 4.32 g/m*3 23 C 0 km/h
3133 08-06-2009 15:33:50 22.7 C 4.24 g/m*3 22.7 C 0 km/h
3134 08-06-2009 15:45:49 23.8 C 4.73 g/m*3 23.8 C 0 km/h
3135 08-06-2009 15:57:49 23.3 C 4.39 g/m*3 23.3 C 0 km/h
3136 08-06-2009 16:09:50 23.7 C 4.49 g/m*3 23.7 C 0 km/h
3137 08-06-2009 16:21:49 24.7 C 4.53 g/m*3 24.7 C 0 km/h
3138 08-06-2009 16:33:49 23.5 C 4.65 g/m*3 23.5 C 0 km/h
3139 08-06-2009 16:45:49 23.2 C 4.57 g/m*3 23.2 C 0 km/h
3140 08-06-2009 16:57:49 23.9 C 4.76 g/m*3 23.9 C 0 km/h
3141 08-06-2009 17:09:49 23.8 C 4.73 g/m*3 23.8 C 0 km/h
3142 08-06-2009 17:21:48 24.4 C 4.9 g/m*3 24.4 C 0 km/h
3143 08-06-2009 17:33:48 24.3 C 5.09 g/m*3 24.3 C 0 km/h
3144 08-06-2009 17:45:48 25.1 C 4.86 g/m*3 25.1 C 0 km/h
3145 08-06-2009 17:57:48 24.1 C 4.81 g/m*3 24.1 C 0 km/h
3146 08-06-2009 18:09:48 23.9 C 5.41 g/m*3 23.9 C 0 km/h
3147 08-06-2009 18:21:48 23.7 C 5.99 g/m*3 23.7 C 0 km/h
3148 08-06-2009 18:33:48 23.5 C 6.77 g/m*3 23.5 C 0 km/h
3149 08-06-2009 18:45:48 22.8 C 7.32 g/m*3 22.8 C 0 km/h
3150 08-06-2009 18:57:48 22.1 C 7.42 g/m*3 22.1 C 0 km/h
Sensor: Nr:Datum:Temp:Abs-Feuchte:Windchill:Wind:
Aussen-T/F 3151 08-06-2009 19:09:47 21.6 C 7.59 g/m*3 21.6 C 0 km/h
3152 08-06-2009 19:21:48 21 C 7.14 g/m*3 21 C 0 km/h
3153 08-06-2009 19:33:47 20.8 C 7.6 g/m*3 20.8 C 0 km/h
3154 08-06-2009 19:45:47 20.6 C 7.52 g/m*3 20.6 C 0 km/h
3155 08-06-2009 19:57:48 20.4 C 7.61 g/m*3 20.4 C 0 km/h
3156 08-06-2009 20:09:47 20.1 C 7.82 g/m*3 20.1 C 0 km/h
3157 08-06-2009 20:21:47 19.8 C 8.03 g/m*3 19.8 C 0 km/h
3158 08-06-2009 20:33:47 19.3 C 7.96 g/m*3 19.3 C 0 km/h
3159 08-06-2009 20:45:47 18.8 C 8.05 g/m*3 18.8 C 0 km/h
3160 08-06-2009 20:57:47 18.5 C 7.91 g/m*3 18.5 C 0 km/h
3161 08-06-2009 21:09:47 18.2 C 7.77 g/m*3 18.2 C 0 km/h
3162 08-06-2009 21:21:46 17.9 C 7.79 g/m*3 17.9 C 0 km/h
3163 08-06-2009 21:33:46 17.6 C 8.1 g/m*3 17.6 C 0 km/h
3164 08-06-2009 21:45:46 16.7 C 8.67 g/m*3 16.7 C 0 km/h
3165 08-06-2009 21:57:46 16.6 C 8.9 g/m*3 16.6 C 0 km/h
3166 08-06-2009 22:09:46 16.4 C 8.79 g/m*3 16.4 C 0 km/h
3167 08-06-2009 22:21:46 16.6 C 8.76 g/m*3 16.6 C 0 km/h
3168 08-06-2009 22:33:45 16.5 C 8.57 g/m*3 16.5 C 0 km/h
3169 08-06-2009 22:46:46 16.4 C 8.51 g/m*3 16.4 C 0 km/h
3170 08-06-2009 22:58:46 16.3 C 8.46 g/m*3 16.3 C 0 km/h
3171 08-06-2009 23:10:46 16.4 C 8.51 g/m*3 16.4 C 0 km/h
3172 08-06-2009 23:22:46 16.4 C 8.37 g/m*3 16.4 C 0 km/h
3173 08-06-2009 23:34:46 16.5 C 8.43 g/m*3 16.5 C 0 km/h
3174 08-06-2009 23:46:46 16.3 C 8.88 g/m*3 16.3 C 0 km/h
3175 08-06-2009 23:58:46 16 C 8.99 g/m*3 16 C 0 km/h
Sensor: Nr:Datum:Temp:Abs-Feuchte:Windchill:Wind:
Aussen-T/F 3176 09-06-2009 00:10:46 15.8 C 9.42 g/m*3 15.8 C 0 km/h
3177 09-06-2009 00:22:46 15.4 C 9.59 g/m*3 15.4 C 0 km/h
3178 09-06-2009 00:34:46 15.4 C 9.99 g/m*3 15.4 C 0 km/h
3179 09-06-2009 00:46:46 15 C 10 g/m*3 15 C 0 km/h
3180 09-06-2009 00:58:46 14.8 C 10.01 g/m*3 14.8 C 0 km/h
3181 09-06-2009 01:10:46 14.6 C 10.14 g/m*3 14.6 C 0 km/h
3182 09-06-2009 01:22:47 14.5 C 10.07 g/m*3 14.5 C 0 km/h
3183 09-06-2009 01:34:47 14.6 C 10.26 g/m*3 14.6 C 0 km/h
3184 09-06-2009 01:46:47 14.5 C 10.32 g/m*3 14.5 C 0 km/h
3185 09-06-2009 01:58:47 14.6 C 10.26 g/m*3 14.6 C 0 km/h
3186 09-06-2009 02:10:47 14.6 C 10.14 g/m*3 14.6 C 0 km/h
3187 09-06-2009 02:22:47 14.7 C 10.2 g/m*3 14.7 C 0 km/h
3188 09-06-2009 02:34:47 14.6 C 10.01 g/m*3 14.6 C 0 km/h
3189 09-06-2009 02:46:47 14.3 C 9.95 g/m*3 14.3 C 0 km/h
3190 09-06-2009 02:58:47 14.3 C 9.95 g/m*3 14.3 C 0 km/h
3191 09-06-2009 03:10:47 14.4 C 10.01 g/m*3 14.4 C 0 km/h
3192 09-06-2009 03:22:47 14.5 C 10.07 g/m*3 14.5 C 0 km/h
3193 09-06-2009 03:34:47 14.5 C 10.07 g/m*3 14.5 C 0 km/h
3194 09-06-2009 03:46:47 14.4 C 9.89 g/m*3 14.4 C 0 km/h
3195 09-06-2009 03:58:47 14.4 C 9.89 g/m*3 14.4 C 0 km/h
3196 09-06-2009 04:10:47 14.4 C 9.89 g/m*3 14.4 C 0 km/h
3197 09-06-2009 04:22:47 14.4 C 10.01 g/m*3 14.4 C 0 km/h
3198 09-06-2009 04:34:47 14.5 C 9.95 g/m*3 14.5 C 0 km/h
3199 09-06-2009 04:46:47 14.6 C 9.89 g/m*3 14.6 C 0 km/h
3200 09-06-2009 04:58:47 14.6 C 9.89 g/m*3 14.6 C 0 km/h
Sensor: Nr:Datum:Temp:Abs-Feuchte:Windchill:Wind:
Aussen-T/F 3201 09-06-2009 05:10:48 14.5 C 9.83 g/m*3 14.5 C 0 km/h
3202 09-06-2009 05:22:48 14.2 C 9.89 g/m*3 14.2 C 0 km/h
3203 09-06-2009 05:34:48 14.1 C 10.07 g/m*3 14.1 C 0 km/h
3204 09-06-2009 05:46:48 14 C 10.13 g/m*3 14 C 0 km/h
3205 09-06-2009 05:58:48 14.1 C 10.32 g/m*3 14.1 C 0 km/h
3206 09-06-2009 06:10:48 14 C 10.37 g/m*3 14 C 0 km/h
3207 09-06-2009 06:22:48 14.1 C 10.56 g/m*3 14.1 C 0 km/h
3208 09-06-2009 06:34:48 14.1 C 10.56 g/m*3 14.1 C 0 km/h
3209 09-06-2009 06:46:48 14.1 C 10.56 g/m*3 14.1 C 0 km/h
3210 09-06-2009 06:58:48 14.2 C 10.62 g/m*3 14.2 C 0 km/h
3211 09-06-2009 07:10:48 14.3 C 10.44 g/m*3 14.3 C 0 km/h
3212 09-06-2009 07:22:46 14.6 C 10.51 g/m*3 14.6 C 0 km/h
3213 09-06-2009 07:34:01 14.8 C 10.64 g/m*3 14.8 C 0 km/h
3214 09-06-2009 07:46:01 15 C 10.64 g/m*3 15 C 0 km/h
3215 09-06-2009 07:58:01 15 C 10.26 g/m*3 15 C 0 km/h
3216 09-06-2009 08:10:01 15.2 C 9.48 g/m*3 15.2 C 0 km/h
3217 09-06-2009 08:22:01 15.2 C 9.22 g/m*3 15.2 C 0 km/h
3218 09-06-2009 08:34:01 15.2 C 9.09 g/m*3 15.2 C 0 km/h
3219 09-06-2009 08:46:01 15.3 C 9.53 g/m*3 15.3 C 0 km/h
3220 09-06-2009 08:58:01 15.4 C 9.59 g/m*3 15.4 C 0 km/h
3221 09-06-2009 09:10:00 15.4 C 9.59 g/m*3 15.4 C 0 km/h
3222 09-06-2009 09:22:01 15.5 C 9.65 g/m*3 15.5 C 0 km/h
3223 09-06-2009 09:34:00 15.9 C 9.48 g/m*3 15.9 C 0 km/h
3224 09-06-2009 09:46:00 16.5 C 9.55 g/m*3 16.5 C 0 km/h
3225 09-06-2009 09:58:01 16.8 C 8.86 g/m*3 16.8 C 0 km/h
Sensor: Nr:Datum:Temp:Abs-Feuchte:Windchill:Wind:
Aussen-T/F 3226 09-06-2009 10:10:00 16.8 C